<?xml version="1.0" encoding="UTF-8" standalone="no" ?>
<gpx xmlns="http://www.topografix.com/GPX/1/1" xmlns:xsi="http://www.w3.org/2001/XMLSchema-instance" xsi:schemaLocation="http://www.topografix.com/GPX/1/1 http://www.topografix.com/GPX/1/1/gpx.xsd" version="1.1" creator="VisuGPX - https://www.visugpx.com">
  <metadata>
    <name>25 CCC Flémalle - Hannut - Flémalle</name>
    <desc><![CDATA[Randonnée au départ de l'Auto5 de Flémalle.
Flémalle - Chokier - Awirs - Hozémont - Fexe-le-Haut-Clocher - Momalle - Remicourt - Bergilers -  Oleye - Bettincourt - St-Trond - Montenaken - Bertrée - Hannut - Lens-St-Remy - Lens-St-Servais - Tourinne - Les Waleffes - Borlez - Seraing-le-Château - Horion-Hozémont - Awirs - Chokier - Flémalle.]]></desc>
  </metadata>
  <trk>
    <name><![CDATA[25 CCC]]></name>
    <extensions>
      <line xmlns="http://www.topografix.com/GPX/gpx_style/0/2">
        <color>0000FF</color>
        <width>4</width>
      </line>
    </extensions>
    <trkseg>
      <trkpt lat="50.60421" lon="5.48414">
        <ele>65</ele>
        <time>2018-11-12T22:37:30Z</time>
      </trkpt>
      <trkpt lat="50.6035" lon="5.48518">
        <ele>64</ele>
        <time>2018-11-12T22:38:30Z</time>
      </trkpt>
      <trkpt lat="50.60364" lon="5.48552">
        <ele>63</ele>
        <time>2018-11-12T22:39:30Z</time>
      </trkpt>
      <trkpt lat="50.60371" lon="5.48536">
        <ele>64</ele>
        <time>2018-11-12T22:40:30Z</time>
      </trkpt>
      <trkpt lat="50.60458" lon="5.48427">
        <ele>66</ele>
        <time>2018-11-12T22:41:30Z</time>
      </trkpt>
      <trkpt lat="50.60486" lon="5.48394">
        <ele>67</ele>
        <time>2018-11-12T22:42:30Z</time>
      </trkpt>
      <trkpt lat="50.605" lon="5.48393">
        <ele>67</ele>
        <time>2018-11-12T22:43:30Z</time>
      </trkpt>
      <trkpt lat="50.60504" lon="5.48373">
        <ele>68</ele>
        <time>2018-11-12T22:44:30Z</time>
      </trkpt>
      <trkpt lat="50.60491" lon="5.48362">
        <ele>67</ele>
        <time>2018-11-12T22:45:30Z</time>
      </trkpt>
      <trkpt lat="50.6047" lon="5.48285">
        <ele>68</ele>
        <time>2018-11-12T22:46:30Z</time>
      </trkpt>
      <trkpt lat="50.60442" lon="5.48192">
        <ele>68</ele>
        <time>2018-11-12T22:47:30Z</time>
      </trkpt>
      <trkpt lat="50.60382" lon="5.48044">
        <ele>67</ele>
        <time>2018-11-12T22:48:30Z</time>
      </trkpt>
      <trkpt lat="50.60358" lon="5.47993">
        <ele>67</ele>
        <time>2018-11-12T22:49:30Z</time>
      </trkpt>
      <trkpt lat="50.603" lon="5.4789">
        <ele>67</ele>
        <time>2018-11-12T22:50:30Z</time>
      </trkpt>
      <trkpt lat="50.60259" lon="5.47819">
        <ele>65</ele>
        <time>2018-11-12T22:51:30Z</time>
      </trkpt>
      <trkpt lat="50.60184" lon="5.47687">
        <ele>65</ele>
        <time>2018-11-12T22:52:30Z</time>
      </trkpt>
      <trkpt lat="50.60147" lon="5.47621">
        <ele>66</ele>
        <time>2018-11-12T22:53:30Z</time>
      </trkpt>
      <trkpt lat="50.60112" lon="5.47559">
        <ele>67</ele>
        <time>2018-11-12T22:54:30Z</time>
      </trkpt>
      <trkpt lat="50.60026" lon="5.47405">
        <ele>66</ele>
        <time>2018-11-12T22:55:30Z</time>
      </trkpt>
      <trkpt lat="50.59947" lon="5.47267">
        <ele>65</ele>
        <time>2018-11-12T22:56:30Z</time>
      </trkpt>
      <trkpt lat="50.59926" lon="5.472">
        <ele>64</ele>
        <time>2018-11-12T22:57:30Z</time>
      </trkpt>
      <trkpt lat="50.59919" lon="5.47161">
        <ele>64</ele>
        <time>2018-11-12T22:58:30Z</time>
      </trkpt>
      <trkpt lat="50.59895" lon="5.47017">
        <ele>65</ele>
        <time>2018-11-12T22:59:30Z</time>
      </trkpt>
      <trkpt lat="50.59876" lon="5.46903">
        <ele>67</ele>
        <time>2018-11-12T23:00:30Z</time>
      </trkpt>
      <trkpt lat="50.59851" lon="5.46802">
        <ele>68</ele>
        <time>2018-11-12T23:01:30Z</time>
      </trkpt>
      <trkpt lat="50.59839" lon="5.46766">
        <ele>68</ele>
        <time>2018-11-12T23:02:30Z</time>
      </trkpt>
      <trkpt lat="50.59806" lon="5.46686">
        <ele>67</ele>
        <time>2018-11-12T23:03:30Z</time>
      </trkpt>
      <trkpt lat="50.59786" lon="5.46644">
        <ele>67</ele>
        <time>2018-11-12T23:04:30Z</time>
      </trkpt>
      <trkpt lat="50.59759" lon="5.46595">
        <ele>68</ele>
        <time>2018-11-12T23:05:30Z</time>
      </trkpt>
      <trkpt lat="50.59709" lon="5.4647">
        <ele>67</ele>
        <time>2018-11-12T23:06:30Z</time>
      </trkpt>
      <trkpt lat="50.59634" lon="5.46276">
        <ele>67</ele>
        <time>2018-11-12T23:07:30Z</time>
      </trkpt>
      <trkpt lat="50.59575" lon="5.46116">
        <ele>68</ele>
        <time>2018-11-12T23:08:30Z</time>
      </trkpt>
      <trkpt lat="50.5951" lon="5.45955">
        <ele>68</ele>
        <time>2018-11-12T23:09:30Z</time>
      </trkpt>
      <trkpt lat="50.59405" lon="5.45685">
        <ele>67</ele>
        <time>2018-11-12T23:10:30Z</time>
      </trkpt>
      <trkpt lat="50.59378" lon="5.45611">
        <ele>68</ele>
        <time>2018-11-12T23:11:30Z</time>
      </trkpt>
      <trkpt lat="50.59349" lon="5.45554">
        <ele>67</ele>
        <time>2018-11-12T23:12:30Z</time>
      </trkpt>
      <trkpt lat="50.59308" lon="5.45487">
        <ele>66</ele>
        <time>2018-11-12T23:13:30Z</time>
      </trkpt>
      <trkpt lat="50.59283" lon="5.45433">
        <ele>67</ele>
        <time>2018-11-12T23:14:30Z</time>
      </trkpt>
      <trkpt lat="50.59278" lon="5.45397">
        <ele>66</ele>
        <time>2018-11-12T23:15:30Z</time>
      </trkpt>
      <trkpt lat="50.59271" lon="5.4537">
        <ele>65</ele>
        <time>2018-11-12T23:16:30Z</time>
      </trkpt>
      <trkpt lat="50.59257" lon="5.45304">
        <ele>64</ele>
        <time>2018-11-12T23:17:30Z</time>
      </trkpt>
      <trkpt lat="50.5924" lon="5.4529">
        <ele>64</ele>
        <time>2018-11-12T23:18:30Z</time>
      </trkpt>
      <trkpt lat="50.59241" lon="5.45249">
        <ele>64</ele>
        <time>2018-11-12T23:19:30Z</time>
      </trkpt>
      <trkpt lat="50.59239" lon="5.45217">
        <ele>65</ele>
        <time>2018-11-12T23:20:30Z</time>
      </trkpt>
      <trkpt lat="50.59221" lon="5.45091">
        <ele>66</ele>
        <time>2018-11-12T23:21:30Z</time>
      </trkpt>
      <trkpt lat="50.59185" lon="5.44898">
        <ele>65</ele>
        <time>2018-11-12T23:22:30Z</time>
      </trkpt>
      <trkpt lat="50.59172" lon="5.44855">
        <ele>64</ele>
        <time>2018-11-12T23:23:30Z</time>
      </trkpt>
      <trkpt lat="50.59151" lon="5.44807">
        <ele>64</ele>
        <time>2018-11-12T23:24:30Z</time>
      </trkpt>
      <trkpt lat="50.59118" lon="5.44739">
        <ele>65</ele>
        <time>2018-11-12T23:25:30Z</time>
      </trkpt>
      <trkpt lat="50.59063" lon="5.4462">
        <ele>67</ele>
        <time>2018-11-12T23:26:30Z</time>
      </trkpt>
      <trkpt lat="50.59043" lon="5.44563">
        <ele>67</ele>
        <time>2018-11-12T23:27:30Z</time>
      </trkpt>
      <trkpt lat="50.5901" lon="5.44404">
        <ele>68</ele>
        <time>2018-11-12T23:28:30Z</time>
      </trkpt>
      <trkpt lat="50.58988" lon="5.44286">
        <ele>71</ele>
        <time>2018-11-12T23:29:30Z</time>
      </trkpt>
      <trkpt lat="50.58968" lon="5.44159">
        <ele>70</ele>
        <time>2018-11-12T23:30:30Z</time>
      </trkpt>
      <trkpt lat="50.58928" lon="5.43863">
        <ele>66</ele>
        <time>2018-11-12T23:31:30Z</time>
      </trkpt>
      <trkpt lat="50.589" lon="5.43651">
        <ele>69</ele>
        <time>2018-11-12T23:32:30Z</time>
      </trkpt>
      <trkpt lat="50.58883" lon="5.43417">
        <ele>71</ele>
        <time>2018-11-12T23:33:30Z</time>
      </trkpt>
      <trkpt lat="50.58867" lon="5.43278">
        <ele>73</ele>
        <time>2018-11-12T23:34:30Z</time>
      </trkpt>
      <trkpt lat="50.58798" lon="5.43007">
        <ele>65</ele>
        <time>2018-11-12T23:35:30Z</time>
      </trkpt>
      <trkpt lat="50.58741" lon="5.42775">
        <ele>64</ele>
        <time>2018-11-12T23:36:30Z</time>
      </trkpt>
      <trkpt lat="50.58703" lon="5.42622">
        <ele>63</ele>
        <time>2018-11-12T23:37:30Z</time>
      </trkpt>
      <trkpt lat="50.58691" lon="5.42547">
        <ele>64</ele>
        <time>2018-11-12T23:38:30Z</time>
      </trkpt>
      <trkpt lat="50.58663" lon="5.42278">
        <ele>64</ele>
        <time>2018-11-12T23:39:30Z</time>
      </trkpt>
      <trkpt lat="50.58638" lon="5.42046">
        <ele>65</ele>
        <time>2018-11-12T23:40:30Z</time>
      </trkpt>
      <trkpt lat="50.58617" lon="5.41834">
        <ele>66</ele>
        <time>2018-11-12T23:41:30Z</time>
      </trkpt>
      <trkpt lat="50.58609" lon="5.41749">
        <ele>65</ele>
        <time>2018-11-12T23:42:30Z</time>
      </trkpt>
      <trkpt lat="50.58612" lon="5.41577">
        <ele>68</ele>
        <time>2018-11-12T23:43:30Z</time>
      </trkpt>
      <trkpt lat="50.58678" lon="5.41551">
        <ele>68</ele>
        <time>2018-11-12T23:44:30Z</time>
      </trkpt>
      <trkpt lat="50.58703" lon="5.41541">
        <ele>70</ele>
        <time>2018-11-12T23:45:30Z</time>
      </trkpt>
      <trkpt lat="50.58724" lon="5.41526">
        <ele>71</ele>
        <time>2018-11-12T23:46:30Z</time>
      </trkpt>
      <trkpt lat="50.58724" lon="5.41526">
        <ele>71</ele>
        <time>2018-11-12T23:47:30Z</time>
      </trkpt>
      <trkpt lat="50.58773" lon="5.41459">
        <ele>70</ele>
        <time>2018-11-12T23:48:30Z</time>
      </trkpt>
      <trkpt lat="50.58798" lon="5.41424">
        <ele>68</ele>
        <time>2018-11-12T23:49:30Z</time>
      </trkpt>
      <trkpt lat="50.58821" lon="5.41396">
        <ele>68</ele>
        <time>2018-11-12T23:50:30Z</time>
      </trkpt>
      <trkpt lat="50.58866" lon="5.41356">
        <ele>71</ele>
        <time>2018-11-12T23:51:30Z</time>
      </trkpt>
      <trkpt lat="50.58883" lon="5.41335">
        <ele>71</ele>
        <time>2018-11-12T23:52:30Z</time>
      </trkpt>
      <trkpt lat="50.58904" lon="5.41287">
        <ele>73</ele>
        <time>2018-11-12T23:53:30Z</time>
      </trkpt>
      <trkpt lat="50.5896" lon="5.41135">
        <ele>77</ele>
        <time>2018-11-12T23:54:30Z</time>
      </trkpt>
      <trkpt lat="50.58979" lon="5.41104">
        <ele>77</ele>
        <time>2018-11-12T23:55:30Z</time>
      </trkpt>
      <trkpt lat="50.58997" lon="5.41088">
        <ele>76</ele>
        <time>2018-11-12T23:56:30Z</time>
      </trkpt>
      <trkpt lat="50.59018" lon="5.41084">
        <ele>77</ele>
        <time>2018-11-12T23:57:30Z</time>
      </trkpt>
      <trkpt lat="50.59038" lon="5.41086">
        <ele>78</ele>
        <time>2018-11-12T23:58:30Z</time>
      </trkpt>
      <trkpt lat="50.59094" lon="5.41111">
        <ele>83</ele>
        <time>2018-11-12T23:59:30Z</time>
      </trkpt>
      <trkpt lat="50.59158" lon="5.41135">
        <ele>84</ele>
        <time>2018-11-13T00:00:30Z</time>
      </trkpt>
      <trkpt lat="50.59205" lon="5.41149">
        <ele>86</ele>
        <time>2018-11-13T00:01:30Z</time>
      </trkpt>
      <trkpt lat="50.59221" lon="5.41148">
        <ele>87</ele>
        <time>2018-11-13T00:02:30Z</time>
      </trkpt>
      <trkpt lat="50.59244" lon="5.41139">
        <ele>90</ele>
        <time>2018-11-13T00:03:30Z</time>
      </trkpt>
      <trkpt lat="50.59285" lon="5.41122">
        <ele>88</ele>
        <time>2018-11-13T00:04:30Z</time>
      </trkpt>
      <trkpt lat="50.59419" lon="5.41095">
        <ele>83</ele>
        <time>2018-11-13T00:05:30Z</time>
      </trkpt>
      <trkpt lat="50.59509" lon="5.41082">
        <ele>81</ele>
        <time>2018-11-13T00:06:30Z</time>
      </trkpt>
      <trkpt lat="50.59661" lon="5.41112">
        <ele>85</ele>
        <time>2018-11-13T00:07:30Z</time>
      </trkpt>
      <trkpt lat="50.59781" lon="5.41109">
        <ele>87</ele>
        <time>2018-11-13T00:08:30Z</time>
      </trkpt>
      <trkpt lat="50.59798" lon="5.41101">
        <ele>87</ele>
        <time>2018-11-13T00:09:30Z</time>
      </trkpt>
      <trkpt lat="50.5982" lon="5.41082">
        <ele>87</ele>
        <time>2018-11-13T00:10:30Z</time>
      </trkpt>
      <trkpt lat="50.59848" lon="5.41045">
        <ele>88</ele>
        <time>2018-11-13T00:11:30Z</time>
      </trkpt>
      <trkpt lat="50.59868" lon="5.41009">
        <ele>88</ele>
        <time>2018-11-13T00:12:30Z</time>
      </trkpt>
      <trkpt lat="50.59879" lon="5.40976">
        <ele>89</ele>
        <time>2018-11-13T00:13:30Z</time>
      </trkpt>
      <trkpt lat="50.59891" lon="5.4093">
        <ele>90</ele>
        <time>2018-11-13T00:14:30Z</time>
      </trkpt>
      <trkpt lat="50.59924" lon="5.40818">
        <ele>88</ele>
        <time>2018-11-13T00:15:30Z</time>
      </trkpt>
      <trkpt lat="50.59994" lon="5.40582">
        <ele>88</ele>
        <time>2018-11-13T00:16:30Z</time>
      </trkpt>
      <trkpt lat="50.60005" lon="5.40552">
        <ele>89</ele>
        <time>2018-11-13T00:17:30Z</time>
      </trkpt>
      <trkpt lat="50.60018" lon="5.40535">
        <ele>89</ele>
        <time>2018-11-13T00:18:30Z</time>
      </trkpt>
      <trkpt lat="50.60066" lon="5.40507">
        <ele>90</ele>
        <time>2018-11-13T00:19:30Z</time>
      </trkpt>
      <trkpt lat="50.6015" lon="5.40458">
        <ele>93</ele>
        <time>2018-11-13T00:20:30Z</time>
      </trkpt>
      <trkpt lat="50.60206" lon="5.40421">
        <ele>94</ele>
        <time>2018-11-13T00:21:30Z</time>
      </trkpt>
      <trkpt lat="50.60248" lon="5.404">
        <ele>96</ele>
        <time>2018-11-13T00:22:30Z</time>
      </trkpt>
      <trkpt lat="50.60284" lon="5.40381">
        <ele>97</ele>
        <time>2018-11-13T00:23:30Z</time>
      </trkpt>
      <trkpt lat="50.60406" lon="5.40318">
        <ele>96</ele>
        <time>2018-11-13T00:24:30Z</time>
      </trkpt>
      <trkpt lat="50.60475" lon="5.40273">
        <ele>95</ele>
        <time>2018-11-13T00:25:30Z</time>
      </trkpt>
      <trkpt lat="50.60497" lon="5.40249">
        <ele>95</ele>
        <time>2018-11-13T00:26:30Z</time>
      </trkpt>
      <trkpt lat="50.60611" lon="5.40116">
        <ele>99</ele>
        <time>2018-11-13T00:27:30Z</time>
      </trkpt>
      <trkpt lat="50.60628" lon="5.40089">
        <ele>99</ele>
        <time>2018-11-13T00:28:30Z</time>
      </trkpt>
      <trkpt lat="50.60644" lon="5.40057">
        <ele>100</ele>
        <time>2018-11-13T00:29:30Z</time>
      </trkpt>
      <trkpt lat="50.60689" lon="5.39941">
        <ele>102</ele>
        <time>2018-11-13T00:30:30Z</time>
      </trkpt>
      <trkpt lat="50.60754" lon="5.39735">
        <ele>109</ele>
        <time>2018-11-13T00:31:30Z</time>
      </trkpt>
      <trkpt lat="50.6081" lon="5.3956">
        <ele>109</ele>
        <time>2018-11-13T00:32:30Z</time>
      </trkpt>
      <trkpt lat="50.60846" lon="5.39431">
        <ele>115</ele>
        <time>2018-11-13T00:33:30Z</time>
      </trkpt>
      <trkpt lat="50.60866" lon="5.39388">
        <ele>115</ele>
        <time>2018-11-13T00:34:30Z</time>
      </trkpt>
      <trkpt lat="50.60889" lon="5.39349">
        <ele>113</ele>
        <time>2018-11-13T00:35:30Z</time>
      </trkpt>
      <trkpt lat="50.60926" lon="5.393">
        <ele>109</ele>
        <time>2018-11-13T00:36:30Z</time>
      </trkpt>
      <trkpt lat="50.60959" lon="5.39261">
        <ele>110</ele>
        <time>2018-11-13T00:37:30Z</time>
      </trkpt>
      <trkpt lat="50.60991" lon="5.39236">
        <ele>110</ele>
        <time>2018-11-13T00:38:30Z</time>
      </trkpt>
      <trkpt lat="50.61018" lon="5.39222">
        <ele>110</ele>
        <time>2018-11-13T00:39:30Z</time>
      </trkpt>
      <trkpt lat="50.61124" lon="5.39205">
        <ele>111</ele>
        <time>2018-11-13T00:40:30Z</time>
      </trkpt>
      <trkpt lat="50.61167" lon="5.39197">
        <ele>111</ele>
        <time>2018-11-13T00:41:30Z</time>
      </trkpt>
      <trkpt lat="50.61198" lon="5.39186">
        <ele>111</ele>
        <time>2018-11-13T00:42:30Z</time>
      </trkpt>
      <trkpt lat="50.6122" lon="5.39171">
        <ele>110</ele>
        <time>2018-11-13T00:43:30Z</time>
      </trkpt>
      <trkpt lat="50.61271" lon="5.39113">
        <ele>112</ele>
        <time>2018-11-13T00:44:30Z</time>
      </trkpt>
      <trkpt lat="50.61355" lon="5.39007">
        <ele>115</ele>
        <time>2018-11-13T00:45:30Z</time>
      </trkpt>
      <trkpt lat="50.61401" lon="5.38961">
        <ele>118</ele>
        <time>2018-11-13T00:46:30Z</time>
      </trkpt>
      <trkpt lat="50.61432" lon="5.38939">
        <ele>118</ele>
        <time>2018-11-13T00:47:30Z</time>
      </trkpt>
      <trkpt lat="50.61452" lon="5.38929">
        <ele>118</ele>
        <time>2018-11-13T00:48:30Z</time>
      </trkpt>
      <trkpt lat="50.61476" lon="5.38933">
        <ele>121</ele>
        <time>2018-11-13T00:49:30Z</time>
      </trkpt>
      <trkpt lat="50.61517" lon="5.38954">
        <ele>124</ele>
        <time>2018-11-13T00:50:30Z</time>
      </trkpt>
      <trkpt lat="50.61577" lon="5.39002">
        <ele>123</ele>
        <time>2018-11-13T00:51:30Z</time>
      </trkpt>
      <trkpt lat="50.61664" lon="5.39071">
        <ele>130</ele>
        <time>2018-11-13T00:52:30Z</time>
      </trkpt>
      <trkpt lat="50.61705" lon="5.39106">
        <ele>130</ele>
        <time>2018-11-13T00:53:30Z</time>
      </trkpt>
      <trkpt lat="50.6179" lon="5.39225">
        <ele>133</ele>
        <time>2018-11-13T00:54:30Z</time>
      </trkpt>
      <trkpt lat="50.61893" lon="5.39376">
        <ele>138</ele>
        <time>2018-11-13T00:55:30Z</time>
      </trkpt>
      <trkpt lat="50.61915" lon="5.39405">
        <ele>139</ele>
        <time>2018-11-13T00:56:30Z</time>
      </trkpt>
      <trkpt lat="50.62037" lon="5.39511">
        <ele>137</ele>
        <time>2018-11-13T00:57:30Z</time>
      </trkpt>
      <trkpt lat="50.62136" lon="5.39593">
        <ele>139</ele>
        <time>2018-11-13T00:58:30Z</time>
      </trkpt>
      <trkpt lat="50.62166" lon="5.39613">
        <ele>136</ele>
        <time>2018-11-13T00:59:30Z</time>
      </trkpt>
      <trkpt lat="50.62248" lon="5.39611">
        <ele>134</ele>
        <time>2018-11-13T01:00:30Z</time>
      </trkpt>
      <trkpt lat="50.62389" lon="5.39608">
        <ele>139</ele>
        <time>2018-11-13T01:01:30Z</time>
      </trkpt>
      <trkpt lat="50.62524" lon="5.39605">
        <ele>143</ele>
        <time>2018-11-13T01:02:30Z</time>
      </trkpt>
      <trkpt lat="50.62629" lon="5.39603">
        <ele>146</ele>
        <time>2018-11-13T01:03:30Z</time>
      </trkpt>
      <trkpt lat="50.62651" lon="5.39598">
        <ele>148</ele>
        <time>2018-11-13T01:04:30Z</time>
      </trkpt>
      <trkpt lat="50.62779" lon="5.39553">
        <ele>155</ele>
        <time>2018-11-13T01:05:30Z</time>
      </trkpt>
      <trkpt lat="50.62922" lon="5.39503">
        <ele>164</ele>
        <time>2018-11-13T01:06:30Z</time>
      </trkpt>
      <trkpt lat="50.63076" lon="5.39446">
        <ele>167</ele>
        <time>2018-11-13T01:07:30Z</time>
      </trkpt>
      <trkpt lat="50.63175" lon="5.39406">
        <ele>168</ele>
        <time>2018-11-13T01:08:30Z</time>
      </trkpt>
      <trkpt lat="50.63202" lon="5.39395">
        <ele>168</ele>
        <time>2018-11-13T01:09:30Z</time>
      </trkpt>
      <trkpt lat="50.63277" lon="5.39372">
        <ele>168</ele>
        <time>2018-11-13T01:10:30Z</time>
      </trkpt>
      <trkpt lat="50.63308" lon="5.39372">
        <ele>166</ele>
        <time>2018-11-13T01:11:30Z</time>
      </trkpt>
      <trkpt lat="50.63345" lon="5.39388">
        <ele>165</ele>
        <time>2018-11-13T01:12:30Z</time>
      </trkpt>
      <trkpt lat="50.63382" lon="5.39418">
        <ele>164</ele>
        <time>2018-11-13T01:13:30Z</time>
      </trkpt>
      <trkpt lat="50.63417" lon="5.3947">
        <ele>162</ele>
        <time>2018-11-13T01:14:30Z</time>
      </trkpt>
      <trkpt lat="50.63448" lon="5.39535">
        <ele>164</ele>
        <time>2018-11-13T01:15:30Z</time>
      </trkpt>
      <trkpt lat="50.63474" lon="5.39578">
        <ele>165</ele>
        <time>2018-11-13T01:16:30Z</time>
      </trkpt>
      <trkpt lat="50.63505" lon="5.3961">
        <ele>166</ele>
        <time>2018-11-13T01:17:30Z</time>
      </trkpt>
      <trkpt lat="50.63507" lon="5.39626">
        <ele>166</ele>
        <time>2018-11-13T01:18:30Z</time>
      </trkpt>
      <trkpt lat="50.63517" lon="5.39632">
        <ele>166</ele>
        <time>2018-11-13T01:19:30Z</time>
      </trkpt>
      <trkpt lat="50.63524" lon="5.39623">
        <ele>166</ele>
        <time>2018-11-13T01:20:30Z</time>
      </trkpt>
      <trkpt lat="50.6361" lon="5.39663">
        <ele>168</ele>
        <time>2018-11-13T01:21:30Z</time>
      </trkpt>
      <trkpt lat="50.63724" lon="5.39723">
        <ele>169</ele>
        <time>2018-11-13T01:22:30Z</time>
      </trkpt>
      <trkpt lat="50.63821" lon="5.39772">
        <ele>171</ele>
        <time>2018-11-13T01:23:30Z</time>
      </trkpt>
      <trkpt lat="50.64057" lon="5.39893">
        <ele>169</ele>
        <time>2018-11-13T01:24:30Z</time>
      </trkpt>
      <trkpt lat="50.64101" lon="5.39913">
        <ele>169</ele>
        <time>2018-11-13T01:25:30Z</time>
      </trkpt>
      <trkpt lat="50.64147" lon="5.3994">
        <ele>169</ele>
        <time>2018-11-13T01:26:30Z</time>
      </trkpt>
      <trkpt lat="50.64307" lon="5.40023">
        <ele>172</ele>
        <time>2018-11-13T01:27:30Z</time>
      </trkpt>
      <trkpt lat="50.64505" lon="5.40122">
        <ele>175</ele>
        <time>2018-11-13T01:28:30Z</time>
      </trkpt>
      <trkpt lat="50.64587" lon="5.40162">
        <ele>174</ele>
        <time>2018-11-13T01:29:30Z</time>
      </trkpt>
      <trkpt lat="50.64672" lon="5.40213">
        <ele>173</ele>
        <time>2018-11-13T01:30:30Z</time>
      </trkpt>
      <trkpt lat="50.64719" lon="5.40234">
        <ele>173</ele>
        <time>2018-11-13T01:31:30Z</time>
      </trkpt>
      <trkpt lat="50.64851" lon="5.40301">
        <ele>173</ele>
        <time>2018-11-13T01:32:30Z</time>
      </trkpt>
      <trkpt lat="50.64866" lon="5.40308">
        <ele>173</ele>
        <time>2018-11-13T01:33:30Z</time>
      </trkpt>
      <trkpt lat="50.64877" lon="5.40305">
        <ele>173</ele>
        <time>2018-11-13T01:34:30Z</time>
      </trkpt>
      <trkpt lat="50.64887" lon="5.403">
        <ele>173</ele>
        <time>2018-11-13T01:35:30Z</time>
      </trkpt>
      <trkpt lat="50.65014" lon="5.40196">
        <ele>171</ele>
        <time>2018-11-13T01:36:30Z</time>
      </trkpt>
      <trkpt lat="50.65037" lon="5.40178">
        <ele>171</ele>
        <time>2018-11-13T01:37:30Z</time>
      </trkpt>
      <trkpt lat="50.6505" lon="5.40175">
        <ele>170</ele>
        <time>2018-11-13T01:38:30Z</time>
      </trkpt>
      <trkpt lat="50.65085" lon="5.40171">
        <ele>170</ele>
        <time>2018-11-13T01:39:30Z</time>
      </trkpt>
      <trkpt lat="50.651" lon="5.40167">
        <ele>170</ele>
        <time>2018-11-13T01:40:30Z</time>
      </trkpt>
      <trkpt lat="50.65184" lon="5.40118">
        <ele>169</ele>
        <time>2018-11-13T01:41:30Z</time>
      </trkpt>
      <trkpt lat="50.65218" lon="5.40097">
        <ele>169</ele>
        <time>2018-11-13T01:42:30Z</time>
      </trkpt>
      <trkpt lat="50.65239" lon="5.40081">
        <ele>169</ele>
        <time>2018-11-13T01:43:30Z</time>
      </trkpt>
      <trkpt lat="50.65258" lon="5.40069">
        <ele>169</ele>
        <time>2018-11-13T01:44:30Z</time>
      </trkpt>
      <trkpt lat="50.65274" lon="5.40065">
        <ele>169</ele>
        <time>2018-11-13T01:45:30Z</time>
      </trkpt>
      <trkpt lat="50.65328" lon="5.40046">
        <ele>168</ele>
        <time>2018-11-13T01:46:30Z</time>
      </trkpt>
      <trkpt lat="50.65378" lon="5.40032">
        <ele>168</ele>
        <time>2018-11-13T01:47:30Z</time>
      </trkpt>
      <trkpt lat="50.65469" lon="5.40006">
        <ele>168</ele>
        <time>2018-11-13T01:48:30Z</time>
      </trkpt>
      <trkpt lat="50.65489" lon="5.40001">
        <ele>168</ele>
        <time>2018-11-13T01:49:30Z</time>
      </trkpt>
      <trkpt lat="50.65653" lon="5.3998">
        <ele>167</ele>
        <time>2018-11-13T01:50:30Z</time>
      </trkpt>
      <trkpt lat="50.65722" lon="5.39974">
        <ele>166</ele>
        <time>2018-11-13T01:51:30Z</time>
      </trkpt>
      <trkpt lat="50.65753" lon="5.39969">
        <ele>165</ele>
        <time>2018-11-13T01:52:30Z</time>
      </trkpt>
      <trkpt lat="50.65821" lon="5.39957">
        <ele>165</ele>
        <time>2018-11-13T01:53:30Z</time>
      </trkpt>
      <trkpt lat="50.65893" lon="5.39944">
        <ele>162</ele>
        <time>2018-11-13T01:54:30Z</time>
      </trkpt>
      <trkpt lat="50.65942" lon="5.39933">
        <ele>161</ele>
        <time>2018-11-13T01:55:30Z</time>
      </trkpt>
      <trkpt lat="50.66004" lon="5.39915">
        <ele>162</ele>
        <time>2018-11-13T01:56:30Z</time>
      </trkpt>
      <trkpt lat="50.66077" lon="5.39896">
        <ele>163</ele>
        <time>2018-11-13T01:57:30Z</time>
      </trkpt>
      <trkpt lat="50.66111" lon="5.39893">
        <ele>162</ele>
        <time>2018-11-13T01:58:30Z</time>
      </trkpt>
      <trkpt lat="50.66164" lon="5.39877">
        <ele>161</ele>
        <time>2018-11-13T01:59:30Z</time>
      </trkpt>
      <trkpt lat="50.66181" lon="5.39874">
        <ele>161</ele>
        <time>2018-11-13T02:00:30Z</time>
      </trkpt>
      <trkpt lat="50.66197" lon="5.39876">
        <ele>161</ele>
        <time>2018-11-13T02:01:30Z</time>
      </trkpt>
      <trkpt lat="50.6622" lon="5.39876">
        <ele>160</ele>
        <time>2018-11-13T02:02:30Z</time>
      </trkpt>
      <trkpt lat="50.66236" lon="5.39876">
        <ele>160</ele>
        <time>2018-11-13T02:03:30Z</time>
      </trkpt>
      <trkpt lat="50.66257" lon="5.39876">
        <ele>160</ele>
        <time>2018-11-13T02:04:30Z</time>
      </trkpt>
      <trkpt lat="50.6628" lon="5.39873">
        <ele>160</ele>
        <time>2018-11-13T02:05:30Z</time>
      </trkpt>
      <trkpt lat="50.66303" lon="5.39871">
        <ele>160</ele>
        <time>2018-11-13T02:06:30Z</time>
      </trkpt>
      <trkpt lat="50.66328" lon="5.39857">
        <ele>160</ele>
        <time>2018-11-13T02:07:30Z</time>
      </trkpt>
      <trkpt lat="50.66344" lon="5.39857">
        <ele>160</ele>
        <time>2018-11-13T02:08:30Z</time>
      </trkpt>
      <trkpt lat="50.66365" lon="5.39855">
        <ele>159</ele>
        <time>2018-11-13T02:09:30Z</time>
      </trkpt>
      <trkpt lat="50.6639" lon="5.3986">
        <ele>159</ele>
        <time>2018-11-13T02:10:30Z</time>
      </trkpt>
      <trkpt lat="50.66408" lon="5.39868">
        <ele>158</ele>
        <time>2018-11-13T02:11:30Z</time>
      </trkpt>
      <trkpt lat="50.66478" lon="5.39909">
        <ele>158</ele>
        <time>2018-11-13T02:12:30Z</time>
      </trkpt>
      <trkpt lat="50.66528" lon="5.39951">
        <ele>157</ele>
        <time>2018-11-13T02:13:30Z</time>
      </trkpt>
      <trkpt lat="50.66547" lon="5.39902">
        <ele>158</ele>
        <time>2018-11-13T02:14:30Z</time>
      </trkpt>
      <trkpt lat="50.66564" lon="5.39877">
        <ele>158</ele>
        <time>2018-11-13T02:15:30Z</time>
      </trkpt>
      <trkpt lat="50.66574" lon="5.39869">
        <ele>158</ele>
        <time>2018-11-13T02:16:30Z</time>
      </trkpt>
      <trkpt lat="50.66586" lon="5.39866">
        <ele>158</ele>
        <time>2018-11-13T02:17:30Z</time>
      </trkpt>
      <trkpt lat="50.66598" lon="5.39863">
        <ele>158</ele>
        <time>2018-11-13T02:18:30Z</time>
      </trkpt>
      <trkpt lat="50.66613" lon="5.39864">
        <ele>157</ele>
        <time>2018-11-13T02:19:30Z</time>
      </trkpt>
      <trkpt lat="50.66622" lon="5.39857">
        <ele>156</ele>
        <time>2018-11-13T02:20:30Z</time>
      </trkpt>
      <trkpt lat="50.66634" lon="5.39834">
        <ele>156</ele>
        <time>2018-11-13T02:21:30Z</time>
      </trkpt>
      <trkpt lat="50.66638" lon="5.398">
        <ele>155</ele>
        <time>2018-11-13T02:22:30Z</time>
      </trkpt>
      <trkpt lat="50.66623" lon="5.39744">
        <ele>156</ele>
        <time>2018-11-13T02:23:30Z</time>
      </trkpt>
      <trkpt lat="50.66622" lon="5.39721">
        <ele>155</ele>
        <time>2018-11-13T02:24:30Z</time>
      </trkpt>
      <trkpt lat="50.66624" lon="5.39705">
        <ele>155</ele>
        <time>2018-11-13T02:25:30Z</time>
      </trkpt>
      <trkpt lat="50.66646" lon="5.39618">
        <ele>153</ele>
        <time>2018-11-13T02:26:30Z</time>
      </trkpt>
      <trkpt lat="50.66652" lon="5.39593">
        <ele>153</ele>
        <time>2018-11-13T02:27:30Z</time>
      </trkpt>
      <trkpt lat="50.66663" lon="5.39571">
        <ele>153</ele>
        <time>2018-11-13T02:28:30Z</time>
      </trkpt>
      <trkpt lat="50.66688" lon="5.39537">
        <ele>151</ele>
        <time>2018-11-13T02:29:30Z</time>
      </trkpt>
      <trkpt lat="50.66807" lon="5.39394">
        <ele>147</ele>
        <time>2018-11-13T02:30:30Z</time>
      </trkpt>
      <trkpt lat="50.66846" lon="5.39372">
        <ele>146</ele>
        <time>2018-11-13T02:31:30Z</time>
      </trkpt>
      <trkpt lat="50.66952" lon="5.39322">
        <ele>143</ele>
        <time>2018-11-13T02:32:30Z</time>
      </trkpt>
      <trkpt lat="50.67111" lon="5.39247">
        <ele>142</ele>
        <time>2018-11-13T02:33:30Z</time>
      </trkpt>
      <trkpt lat="50.67224" lon="5.39193">
        <ele>142</ele>
        <time>2018-11-13T02:34:30Z</time>
      </trkpt>
      <trkpt lat="50.67366" lon="5.39125">
        <ele>146</ele>
        <time>2018-11-13T02:35:30Z</time>
      </trkpt>
      <trkpt lat="50.67441" lon="5.39089">
        <ele>150</ele>
        <time>2018-11-13T02:36:30Z</time>
      </trkpt>
      <trkpt lat="50.67482" lon="5.39061">
        <ele>151</ele>
        <time>2018-11-13T02:37:30Z</time>
      </trkpt>
      <trkpt lat="50.67498" lon="5.39045">
        <ele>152</ele>
        <time>2018-11-13T02:38:30Z</time>
      </trkpt>
      <trkpt lat="50.67507" lon="5.39031">
        <ele>152</ele>
        <time>2018-11-13T02:39:30Z</time>
      </trkpt>
      <trkpt lat="50.67548" lon="5.38963">
        <ele>151</ele>
        <time>2018-11-13T02:40:30Z</time>
      </trkpt>
      <trkpt lat="50.67614" lon="5.38851">
        <ele>148</ele>
        <time>2018-11-13T02:41:30Z</time>
      </trkpt>
      <trkpt lat="50.67651" lon="5.38789">
        <ele>148</ele>
        <time>2018-11-13T02:42:30Z</time>
      </trkpt>
      <trkpt lat="50.67734" lon="5.38656">
        <ele>149</ele>
        <time>2018-11-13T02:43:30Z</time>
      </trkpt>
      <trkpt lat="50.67799" lon="5.38548">
        <ele>151</ele>
        <time>2018-11-13T02:44:30Z</time>
      </trkpt>
      <trkpt lat="50.67818" lon="5.38505">
        <ele>151</ele>
        <time>2018-11-13T02:45:30Z</time>
      </trkpt>
      <trkpt lat="50.67846" lon="5.38439">
        <ele>151</ele>
        <time>2018-11-13T02:46:30Z</time>
      </trkpt>
      <trkpt lat="50.67887" lon="5.38315">
        <ele>150</ele>
        <time>2018-11-13T02:47:30Z</time>
      </trkpt>
      <trkpt lat="50.67909" lon="5.3825">
        <ele>149</ele>
        <time>2018-11-13T02:48:30Z</time>
      </trkpt>
      <trkpt lat="50.67953" lon="5.38159">
        <ele>147</ele>
        <time>2018-11-13T02:49:30Z</time>
      </trkpt>
      <trkpt lat="50.68003" lon="5.38056">
        <ele>144</ele>
        <time>2018-11-13T02:50:30Z</time>
      </trkpt>
      <trkpt lat="50.68035" lon="5.37983">
        <ele>143</ele>
        <time>2018-11-13T02:51:30Z</time>
      </trkpt>
      <trkpt lat="50.68052" lon="5.37943">
        <ele>142</ele>
        <time>2018-11-13T02:52:30Z</time>
      </trkpt>
      <trkpt lat="50.68086" lon="5.37852">
        <ele>143</ele>
        <time>2018-11-13T02:53:30Z</time>
      </trkpt>
      <trkpt lat="50.68111" lon="5.37783">
        <ele>142</ele>
        <time>2018-11-13T02:54:30Z</time>
      </trkpt>
      <trkpt lat="50.68121" lon="5.37762">
        <ele>142</ele>
        <time>2018-11-13T02:55:30Z</time>
      </trkpt>
      <trkpt lat="50.68127" lon="5.37748">
        <ele>141</ele>
        <time>2018-11-13T02:56:30Z</time>
      </trkpt>
      <trkpt lat="50.68135" lon="5.37741">
        <ele>141</ele>
        <time>2018-11-13T02:57:30Z</time>
      </trkpt>
      <trkpt lat="50.68163" lon="5.37719">
        <ele>140</ele>
        <time>2018-11-13T02:58:30Z</time>
      </trkpt>
      <trkpt lat="50.68183" lon="5.37706">
        <ele>140</ele>
        <time>2018-11-13T02:59:30Z</time>
      </trkpt>
      <trkpt lat="50.68193" lon="5.37699">
        <ele>140</ele>
        <time>2018-11-13T03:00:30Z</time>
      </trkpt>
      <trkpt lat="50.682" lon="5.37672">
        <ele>140</ele>
        <time>2018-11-13T03:01:30Z</time>
      </trkpt>
      <trkpt lat="50.68208" lon="5.37644">
        <ele>140</ele>
        <time>2018-11-13T03:02:30Z</time>
      </trkpt>
      <trkpt lat="50.68228" lon="5.37581">
        <ele>139</ele>
        <time>2018-11-13T03:03:30Z</time>
      </trkpt>
      <trkpt lat="50.68257" lon="5.37482">
        <ele>138</ele>
        <time>2018-11-13T03:04:30Z</time>
      </trkpt>
      <trkpt lat="50.68274" lon="5.37419">
        <ele>139</ele>
        <time>2018-11-13T03:05:30Z</time>
      </trkpt>
      <trkpt lat="50.68282" lon="5.37403">
        <ele>139</ele>
        <time>2018-11-13T03:06:30Z</time>
      </trkpt>
      <trkpt lat="50.68295" lon="5.37384">
        <ele>139</ele>
        <time>2018-11-13T03:07:30Z</time>
      </trkpt>
      <trkpt lat="50.68323" lon="5.37327">
        <ele>139</ele>
        <time>2018-11-13T03:08:30Z</time>
      </trkpt>
      <trkpt lat="50.68367" lon="5.37244">
        <ele>140</ele>
        <time>2018-11-13T03:09:30Z</time>
      </trkpt>
      <trkpt lat="50.68378" lon="5.37222">
        <ele>140</ele>
        <time>2018-11-13T03:10:30Z</time>
      </trkpt>
      <trkpt lat="50.68401" lon="5.37143">
        <ele>140</ele>
        <time>2018-11-13T03:11:30Z</time>
      </trkpt>
      <trkpt lat="50.68426" lon="5.37059">
        <ele>138</ele>
        <time>2018-11-13T03:12:30Z</time>
      </trkpt>
      <trkpt lat="50.68459" lon="5.36918">
        <ele>137</ele>
        <time>2018-11-13T03:13:30Z</time>
      </trkpt>
      <trkpt lat="50.68482" lon="5.36798">
        <ele>134</ele>
        <time>2018-11-13T03:14:30Z</time>
      </trkpt>
      <trkpt lat="50.68517" lon="5.36617">
        <ele>131</ele>
        <time>2018-11-13T03:15:30Z</time>
      </trkpt>
      <trkpt lat="50.68552" lon="5.36429">
        <ele>128</ele>
        <time>2018-11-13T03:16:30Z</time>
      </trkpt>
      <trkpt lat="50.6857" lon="5.36334">
        <ele>129</ele>
        <time>2018-11-13T03:17:30Z</time>
      </trkpt>
      <trkpt lat="50.68591" lon="5.36215">
        <ele>130</ele>
        <time>2018-11-13T03:18:30Z</time>
      </trkpt>
      <trkpt lat="50.68614" lon="5.36078">
        <ele>131</ele>
        <time>2018-11-13T03:19:30Z</time>
      </trkpt>
      <trkpt lat="50.68654" lon="5.35952">
        <ele>135</ele>
        <time>2018-11-13T03:20:30Z</time>
      </trkpt>
      <trkpt lat="50.68693" lon="5.35848">
        <ele>137</ele>
        <time>2018-11-13T03:21:30Z</time>
      </trkpt>
      <trkpt lat="50.68723" lon="5.35774">
        <ele>137</ele>
        <time>2018-11-13T03:22:30Z</time>
      </trkpt>
      <trkpt lat="50.68741" lon="5.35713">
        <ele>137</ele>
        <time>2018-11-13T03:23:30Z</time>
      </trkpt>
      <trkpt lat="50.68754" lon="5.35672">
        <ele>138</ele>
        <time>2018-11-13T03:24:30Z</time>
      </trkpt>
      <trkpt lat="50.68769" lon="5.35605">
        <ele>137</ele>
        <time>2018-11-13T03:25:30Z</time>
      </trkpt>
      <trkpt lat="50.68799" lon="5.35503">
        <ele>135</ele>
        <time>2018-11-13T03:26:30Z</time>
      </trkpt>
      <trkpt lat="50.68822" lon="5.35427">
        <ele>133</ele>
        <time>2018-11-13T03:27:30Z</time>
      </trkpt>
      <trkpt lat="50.68854" lon="5.35318">
        <ele>132</ele>
        <time>2018-11-13T03:28:30Z</time>
      </trkpt>
      <trkpt lat="50.68878" lon="5.35187">
        <ele>129</ele>
        <time>2018-11-13T03:29:30Z</time>
      </trkpt>
      <trkpt lat="50.68938" lon="5.34839">
        <ele>127</ele>
        <time>2018-11-13T03:30:30Z</time>
      </trkpt>
      <trkpt lat="50.68981" lon="5.34572">
        <ele>132</ele>
        <time>2018-11-13T03:31:30Z</time>
      </trkpt>
      <trkpt lat="50.69004" lon="5.34429">
        <ele>132</ele>
        <time>2018-11-13T03:32:30Z</time>
      </trkpt>
      <trkpt lat="50.69016" lon="5.34351">
        <ele>132</ele>
        <time>2018-11-13T03:33:30Z</time>
      </trkpt>
      <trkpt lat="50.69065" lon="5.34218">
        <ele>132</ele>
        <time>2018-11-13T03:34:30Z</time>
      </trkpt>
      <trkpt lat="50.69101" lon="5.34078">
        <ele>131</ele>
        <time>2018-11-13T03:35:30Z</time>
      </trkpt>
      <trkpt lat="50.69118" lon="5.34015">
        <ele>130</ele>
        <time>2018-11-13T03:36:30Z</time>
      </trkpt>
      <trkpt lat="50.69133" lon="5.33942">
        <ele>130</ele>
        <time>2018-11-13T03:37:30Z</time>
      </trkpt>
      <trkpt lat="50.69136" lon="5.33902">
        <ele>130</ele>
        <time>2018-11-13T03:38:30Z</time>
      </trkpt>
      <trkpt lat="50.69134" lon="5.33892">
        <ele>130</ele>
        <time>2018-11-13T03:39:30Z</time>
      </trkpt>
      <trkpt lat="50.69073" lon="5.33784">
        <ele>129</ele>
        <time>2018-11-13T03:40:30Z</time>
      </trkpt>
      <trkpt lat="50.69011" lon="5.33694">
        <ele>127</ele>
        <time>2018-11-13T03:41:30Z</time>
      </trkpt>
      <trkpt lat="50.68992" lon="5.33664">
        <ele>126</ele>
        <time>2018-11-13T03:42:30Z</time>
      </trkpt>
      <trkpt lat="50.68983" lon="5.33637">
        <ele>126</ele>
        <time>2018-11-13T03:43:30Z</time>
      </trkpt>
      <trkpt lat="50.68948" lon="5.33498">
        <ele>122</ele>
        <time>2018-11-13T03:44:30Z</time>
      </trkpt>
      <trkpt lat="50.68928" lon="5.33483">
        <ele>122</ele>
        <time>2018-11-13T03:45:30Z</time>
      </trkpt>
      <trkpt lat="50.68907" lon="5.33474">
        <ele>122</ele>
        <time>2018-11-13T03:46:30Z</time>
      </trkpt>
      <trkpt lat="50.68891" lon="5.33432">
        <ele>123</ele>
        <time>2018-11-13T03:47:30Z</time>
      </trkpt>
      <trkpt lat="50.68894" lon="5.33413">
        <ele>123</ele>
        <time>2018-11-13T03:48:30Z</time>
      </trkpt>
      <trkpt lat="50.68914" lon="5.33361">
        <ele>124</ele>
        <time>2018-11-13T03:49:30Z</time>
      </trkpt>
      <trkpt lat="50.68924" lon="5.3332">
        <ele>125</ele>
        <time>2018-11-13T03:50:30Z</time>
      </trkpt>
      <trkpt lat="50.68945" lon="5.33231">
        <ele>126</ele>
        <time>2018-11-13T03:51:30Z</time>
      </trkpt>
      <trkpt lat="50.68963" lon="5.33156">
        <ele>127</ele>
        <time>2018-11-13T03:52:30Z</time>
      </trkpt>
      <trkpt lat="50.69044" lon="5.33221">
        <ele>128</ele>
        <time>2018-11-13T03:53:30Z</time>
      </trkpt>
      <trkpt lat="50.69149" lon="5.33312">
        <ele>127</ele>
        <time>2018-11-13T03:54:30Z</time>
      </trkpt>
      <trkpt lat="50.69249" lon="5.33402">
        <ele>123</ele>
        <time>2018-11-13T03:55:30Z</time>
      </trkpt>
      <trkpt lat="50.69278" lon="5.33424">
        <ele>123</ele>
        <time>2018-11-13T03:56:30Z</time>
      </trkpt>
      <trkpt lat="50.69295" lon="5.33435">
        <ele>122</ele>
        <time>2018-11-13T03:57:30Z</time>
      </trkpt>
      <trkpt lat="50.69329" lon="5.33453">
        <ele>122</ele>
        <time>2018-11-13T03:58:30Z</time>
      </trkpt>
      <trkpt lat="50.69348" lon="5.3346">
        <ele>122</ele>
        <time>2018-11-13T03:59:30Z</time>
      </trkpt>
      <trkpt lat="50.69373" lon="5.33466">
        <ele>122</ele>
        <time>2018-11-13T04:00:30Z</time>
      </trkpt>
      <trkpt lat="50.69459" lon="5.33471">
        <ele>125</ele>
        <time>2018-11-13T04:01:30Z</time>
      </trkpt>
      <trkpt lat="50.69473" lon="5.33473">
        <ele>125</ele>
        <time>2018-11-13T04:02:30Z</time>
      </trkpt>
      <trkpt lat="50.69509" lon="5.33489">
        <ele>126</ele>
        <time>2018-11-13T04:03:30Z</time>
      </trkpt>
      <trkpt lat="50.69562" lon="5.33512">
        <ele>126</ele>
        <time>2018-11-13T04:04:30Z</time>
      </trkpt>
      <trkpt lat="50.69617" lon="5.33532">
        <ele>126</ele>
        <time>2018-11-13T04:05:30Z</time>
      </trkpt>
      <trkpt lat="50.69661" lon="5.33549">
        <ele>125</ele>
        <time>2018-11-13T04:06:30Z</time>
      </trkpt>
      <trkpt lat="50.69703" lon="5.33569">
        <ele>124</ele>
        <time>2018-11-13T04:07:30Z</time>
      </trkpt>
      <trkpt lat="50.69722" lon="5.33594">
        <ele>124</ele>
        <time>2018-11-13T04:08:30Z</time>
      </trkpt>
      <trkpt lat="50.69738" lon="5.33598">
        <ele>124</ele>
        <time>2018-11-13T04:09:30Z</time>
      </trkpt>
      <trkpt lat="50.69777" lon="5.33595">
        <ele>125</ele>
        <time>2018-11-13T04:10:30Z</time>
      </trkpt>
      <trkpt lat="50.69819" lon="5.33595">
        <ele>127</ele>
        <time>2018-11-13T04:11:30Z</time>
      </trkpt>
      <trkpt lat="50.6987" lon="5.33617">
        <ele>127</ele>
        <time>2018-11-13T04:12:30Z</time>
      </trkpt>
      <trkpt lat="50.69883" lon="5.3362">
        <ele>126</ele>
        <time>2018-11-13T04:13:30Z</time>
      </trkpt>
      <trkpt lat="50.69894" lon="5.33615">
        <ele>126</ele>
        <time>2018-11-13T04:14:30Z</time>
      </trkpt>
      <trkpt lat="50.69927" lon="5.33594">
        <ele>126</ele>
        <time>2018-11-13T04:15:30Z</time>
      </trkpt>
      <trkpt lat="50.69959" lon="5.3358">
        <ele>125</ele>
        <time>2018-11-13T04:16:30Z</time>
      </trkpt>
      <trkpt lat="50.69994" lon="5.33564">
        <ele>124</ele>
        <time>2018-11-13T04:17:30Z</time>
      </trkpt>
      <trkpt lat="50.70082" lon="5.33557">
        <ele>124</ele>
        <time>2018-11-13T04:18:30Z</time>
      </trkpt>
      <trkpt lat="50.70129" lon="5.33549">
        <ele>124</ele>
        <time>2018-11-13T04:19:30Z</time>
      </trkpt>
      <trkpt lat="50.70144" lon="5.33544">
        <ele>124</ele>
        <time>2018-11-13T04:20:30Z</time>
      </trkpt>
      <trkpt lat="50.70161" lon="5.3354">
        <ele>124</ele>
        <time>2018-11-13T04:21:30Z</time>
      </trkpt>
      <trkpt lat="50.70203" lon="5.33527">
        <ele>124</ele>
        <time>2018-11-13T04:22:30Z</time>
      </trkpt>
      <trkpt lat="50.70223" lon="5.33522">
        <ele>124</ele>
        <time>2018-11-13T04:23:30Z</time>
      </trkpt>
      <trkpt lat="50.70309" lon="5.33497">
        <ele>124</ele>
        <time>2018-11-13T04:24:30Z</time>
      </trkpt>
      <trkpt lat="50.70325" lon="5.33493">
        <ele>124</ele>
        <time>2018-11-13T04:25:30Z</time>
      </trkpt>
      <trkpt lat="50.70379" lon="5.33457">
        <ele>122</ele>
        <time>2018-11-13T04:26:30Z</time>
      </trkpt>
      <trkpt lat="50.7049" lon="5.33383">
        <ele>117</ele>
        <time>2018-11-13T04:27:30Z</time>
      </trkpt>
      <trkpt lat="50.7054" lon="5.33352">
        <ele>116</ele>
        <time>2018-11-13T04:28:30Z</time>
      </trkpt>
      <trkpt lat="50.70636" lon="5.33284">
        <ele>114</ele>
        <time>2018-11-13T04:29:30Z</time>
      </trkpt>
      <trkpt lat="50.70653" lon="5.33277">
        <ele>113</ele>
        <time>2018-11-13T04:30:30Z</time>
      </trkpt>
      <trkpt lat="50.70781" lon="5.3325">
        <ele>114</ele>
        <time>2018-11-13T04:31:30Z</time>
      </trkpt>
      <trkpt lat="50.70834" lon="5.33237">
        <ele>113</ele>
        <time>2018-11-13T04:32:30Z</time>
      </trkpt>
      <trkpt lat="50.70907" lon="5.33247">
        <ele>113</ele>
        <time>2018-11-13T04:33:30Z</time>
      </trkpt>
      <trkpt lat="50.70971" lon="5.33254">
        <ele>114</ele>
        <time>2018-11-13T04:34:30Z</time>
      </trkpt>
      <trkpt lat="50.71037" lon="5.33262">
        <ele>115</ele>
        <time>2018-11-13T04:35:30Z</time>
      </trkpt>
      <trkpt lat="50.71049" lon="5.33259">
        <ele>115</ele>
        <time>2018-11-13T04:36:30Z</time>
      </trkpt>
      <trkpt lat="50.71072" lon="5.33252">
        <ele>114</ele>
        <time>2018-11-13T04:37:30Z</time>
      </trkpt>
      <trkpt lat="50.71088" lon="5.33243">
        <ele>114</ele>
        <time>2018-11-13T04:38:30Z</time>
      </trkpt>
      <trkpt lat="50.71104" lon="5.33229">
        <ele>113</ele>
        <time>2018-11-13T04:39:30Z</time>
      </trkpt>
      <trkpt lat="50.71122" lon="5.33207">
        <ele>113</ele>
        <time>2018-11-13T04:40:30Z</time>
      </trkpt>
      <trkpt lat="50.71143" lon="5.33172">
        <ele>112</ele>
        <time>2018-11-13T04:41:30Z</time>
      </trkpt>
      <trkpt lat="50.71225" lon="5.33005">
        <ele>109</ele>
        <time>2018-11-13T04:42:30Z</time>
      </trkpt>
      <trkpt lat="50.71261" lon="5.32935">
        <ele>108</ele>
        <time>2018-11-13T04:43:30Z</time>
      </trkpt>
      <trkpt lat="50.71292" lon="5.3287">
        <ele>108</ele>
        <time>2018-11-13T04:44:30Z</time>
      </trkpt>
      <trkpt lat="50.71324" lon="5.32812">
        <ele>106</ele>
        <time>2018-11-13T04:45:30Z</time>
      </trkpt>
      <trkpt lat="50.71335" lon="5.32804">
        <ele>106</ele>
        <time>2018-11-13T04:46:30Z</time>
      </trkpt>
      <trkpt lat="50.71347" lon="5.32799">
        <ele>106</ele>
        <time>2018-11-13T04:47:30Z</time>
      </trkpt>
      <trkpt lat="50.71373" lon="5.32792">
        <ele>106</ele>
        <time>2018-11-13T04:48:30Z</time>
      </trkpt>
      <trkpt lat="50.71402" lon="5.32788">
        <ele>106</ele>
        <time>2018-11-13T04:49:30Z</time>
      </trkpt>
      <trkpt lat="50.71417" lon="5.32786">
        <ele>106</ele>
        <time>2018-11-13T04:50:30Z</time>
      </trkpt>
      <trkpt lat="50.71431" lon="5.32791">
        <ele>106</ele>
        <time>2018-11-13T04:51:30Z</time>
      </trkpt>
      <trkpt lat="50.71448" lon="5.32804">
        <ele>106</ele>
        <time>2018-11-13T04:52:30Z</time>
      </trkpt>
      <trkpt lat="50.71492" lon="5.3285">
        <ele>105</ele>
        <time>2018-11-13T04:53:30Z</time>
      </trkpt>
      <trkpt lat="50.71543" lon="5.32907">
        <ele>106</ele>
        <time>2018-11-13T04:54:30Z</time>
      </trkpt>
      <trkpt lat="50.71548" lon="5.32914">
        <ele>106</ele>
        <time>2018-11-13T04:55:30Z</time>
      </trkpt>
      <trkpt lat="50.71571" lon="5.32937">
        <ele>106</ele>
        <time>2018-11-13T04:56:30Z</time>
      </trkpt>
      <trkpt lat="50.7161" lon="5.3298">
        <ele>104</ele>
        <time>2018-11-13T04:57:30Z</time>
      </trkpt>
      <trkpt lat="50.71623" lon="5.32993">
        <ele>103</ele>
        <time>2018-11-13T04:58:30Z</time>
      </trkpt>
      <trkpt lat="50.7163" lon="5.32997">
        <ele>103</ele>
        <time>2018-11-13T04:59:30Z</time>
      </trkpt>
      <trkpt lat="50.71642" lon="5.33">
        <ele>103</ele>
        <time>2018-11-13T05:00:30Z</time>
      </trkpt>
      <trkpt lat="50.71666" lon="5.32993">
        <ele>102</ele>
        <time>2018-11-13T05:01:30Z</time>
      </trkpt>
      <trkpt lat="50.71696" lon="5.3298">
        <ele>102</ele>
        <time>2018-11-13T05:02:30Z</time>
      </trkpt>
      <trkpt lat="50.71718" lon="5.32978">
        <ele>102</ele>
        <time>2018-11-13T05:03:30Z</time>
      </trkpt>
      <trkpt lat="50.71777" lon="5.32974">
        <ele>103</ele>
        <time>2018-11-13T05:04:30Z</time>
      </trkpt>
      <trkpt lat="50.71799" lon="5.32975">
        <ele>103</ele>
        <time>2018-11-13T05:05:30Z</time>
      </trkpt>
      <trkpt lat="50.71793" lon="5.32945">
        <ele>103</ele>
        <time>2018-11-13T05:06:30Z</time>
      </trkpt>
      <trkpt lat="50.71791" lon="5.3293">
        <ele>103</ele>
        <time>2018-11-13T05:07:30Z</time>
      </trkpt>
      <trkpt lat="50.71795" lon="5.329">
        <ele>104</ele>
        <time>2018-11-13T05:08:30Z</time>
      </trkpt>
      <trkpt lat="50.718" lon="5.32877">
        <ele>104</ele>
        <time>2018-11-13T05:09:30Z</time>
      </trkpt>
      <trkpt lat="50.71801" lon="5.32862">
        <ele>104</ele>
        <time>2018-11-13T05:10:30Z</time>
      </trkpt>
      <trkpt lat="50.71793" lon="5.3285">
        <ele>104</ele>
        <time>2018-11-13T05:11:30Z</time>
      </trkpt>
      <trkpt lat="50.71777" lon="5.32837">
        <ele>103</ele>
        <time>2018-11-13T05:12:30Z</time>
      </trkpt>
      <trkpt lat="50.71761" lon="5.32817">
        <ele>103</ele>
        <time>2018-11-13T05:13:30Z</time>
      </trkpt>
      <trkpt lat="50.71747" lon="5.32793">
        <ele>103</ele>
        <time>2018-11-13T05:14:30Z</time>
      </trkpt>
      <trkpt lat="50.7174" lon="5.3277">
        <ele>103</ele>
        <time>2018-11-13T05:15:30Z</time>
      </trkpt>
      <trkpt lat="50.71738" lon="5.32753">
        <ele>103</ele>
        <time>2018-11-13T05:16:30Z</time>
      </trkpt>
      <trkpt lat="50.71738" lon="5.32735">
        <ele>103</ele>
        <time>2018-11-13T05:17:30Z</time>
      </trkpt>
      <trkpt lat="50.71744" lon="5.32712">
        <ele>103</ele>
        <time>2018-11-13T05:18:30Z</time>
      </trkpt>
      <trkpt lat="50.71753" lon="5.32686">
        <ele>102</ele>
        <time>2018-11-13T05:19:30Z</time>
      </trkpt>
      <trkpt lat="50.71763" lon="5.32666">
        <ele>102</ele>
        <time>2018-11-13T05:20:30Z</time>
      </trkpt>
      <trkpt lat="50.71775" lon="5.32644">
        <ele>102</ele>
        <time>2018-11-13T05:21:30Z</time>
      </trkpt>
      <trkpt lat="50.71785" lon="5.32622">
        <ele>102</ele>
        <time>2018-11-13T05:22:30Z</time>
      </trkpt>
      <trkpt lat="50.7183" lon="5.32476">
        <ele>103</ele>
        <time>2018-11-13T05:23:30Z</time>
      </trkpt>
      <trkpt lat="50.71842" lon="5.32439">
        <ele>104</ele>
        <time>2018-11-13T05:24:30Z</time>
      </trkpt>
      <trkpt lat="50.71852" lon="5.32401">
        <ele>105</ele>
        <time>2018-11-13T05:25:30Z</time>
      </trkpt>
      <trkpt lat="50.71862" lon="5.32336">
        <ele>105</ele>
        <time>2018-11-13T05:26:30Z</time>
      </trkpt>
      <trkpt lat="50.71872" lon="5.3227">
        <ele>105</ele>
        <time>2018-11-13T05:27:30Z</time>
      </trkpt>
      <trkpt lat="50.71894" lon="5.3214">
        <ele>104</ele>
        <time>2018-11-13T05:28:30Z</time>
      </trkpt>
      <trkpt lat="50.71912" lon="5.32054">
        <ele>105</ele>
        <time>2018-11-13T05:29:30Z</time>
      </trkpt>
      <trkpt lat="50.71929" lon="5.31987">
        <ele>104</ele>
        <time>2018-11-13T05:30:30Z</time>
      </trkpt>
      <trkpt lat="50.71951" lon="5.31905">
        <ele>103</ele>
        <time>2018-11-13T05:31:30Z</time>
      </trkpt>
      <trkpt lat="50.71979" lon="5.31797">
        <ele>105</ele>
        <time>2018-11-13T05:32:30Z</time>
      </trkpt>
      <trkpt lat="50.71987" lon="5.3176">
        <ele>105</ele>
        <time>2018-11-13T05:33:30Z</time>
      </trkpt>
      <trkpt lat="50.71992" lon="5.31709">
        <ele>105</ele>
        <time>2018-11-13T05:34:30Z</time>
      </trkpt>
      <trkpt lat="50.71999" lon="5.31665">
        <ele>105</ele>
        <time>2018-11-13T05:35:30Z</time>
      </trkpt>
      <trkpt lat="50.72007" lon="5.31645">
        <ele>105</ele>
        <time>2018-11-13T05:36:30Z</time>
      </trkpt>
      <trkpt lat="50.72017" lon="5.31632">
        <ele>106</ele>
        <time>2018-11-13T05:37:30Z</time>
      </trkpt>
      <trkpt lat="50.72025" lon="5.31622">
        <ele>106</ele>
        <time>2018-11-13T05:38:30Z</time>
      </trkpt>
      <trkpt lat="50.72066" lon="5.31589">
        <ele>107</ele>
        <time>2018-11-13T05:39:30Z</time>
      </trkpt>
      <trkpt lat="50.72125" lon="5.31541">
        <ele>109</ele>
        <time>2018-11-13T05:40:30Z</time>
      </trkpt>
      <trkpt lat="50.72195" lon="5.31479">
        <ele>110</ele>
        <time>2018-11-13T05:41:30Z</time>
      </trkpt>
      <trkpt lat="50.72214" lon="5.3146">
        <ele>110</ele>
        <time>2018-11-13T05:42:30Z</time>
      </trkpt>
      <trkpt lat="50.72261" lon="5.31411">
        <ele>111</ele>
        <time>2018-11-13T05:43:30Z</time>
      </trkpt>
      <trkpt lat="50.72282" lon="5.31386">
        <ele>112</ele>
        <time>2018-11-13T05:44:30Z</time>
      </trkpt>
      <trkpt lat="50.72309" lon="5.31354">
        <ele>112</ele>
        <time>2018-11-13T05:45:30Z</time>
      </trkpt>
      <trkpt lat="50.72341" lon="5.31314">
        <ele>113</ele>
        <time>2018-11-13T05:46:30Z</time>
      </trkpt>
      <trkpt lat="50.72373" lon="5.31264">
        <ele>113</ele>
        <time>2018-11-13T05:47:30Z</time>
      </trkpt>
      <trkpt lat="50.72386" lon="5.3124">
        <ele>113</ele>
        <time>2018-11-13T05:48:30Z</time>
      </trkpt>
      <trkpt lat="50.72547" lon="5.30942">
        <ele>115</ele>
        <time>2018-11-13T05:49:30Z</time>
      </trkpt>
      <trkpt lat="50.72565" lon="5.30905">
        <ele>115</ele>
        <time>2018-11-13T05:50:30Z</time>
      </trkpt>
      <trkpt lat="50.72603" lon="5.30799">
        <ele>116</ele>
        <time>2018-11-13T05:51:30Z</time>
      </trkpt>
      <trkpt lat="50.72644" lon="5.30682">
        <ele>119</ele>
        <time>2018-11-13T05:52:30Z</time>
      </trkpt>
      <trkpt lat="50.72679" lon="5.30568">
        <ele>121</ele>
        <time>2018-11-13T05:53:30Z</time>
      </trkpt>
      <trkpt lat="50.72694" lon="5.30459">
        <ele>123</ele>
        <time>2018-11-13T05:54:30Z</time>
      </trkpt>
      <trkpt lat="50.72708" lon="5.30361">
        <ele>124</ele>
        <time>2018-11-13T05:55:30Z</time>
      </trkpt>
      <trkpt lat="50.72712" lon="5.30296">
        <ele>124</ele>
        <time>2018-11-13T05:56:30Z</time>
      </trkpt>
      <trkpt lat="50.72718" lon="5.30035">
        <ele>123</ele>
        <time>2018-11-13T05:57:30Z</time>
      </trkpt>
      <trkpt lat="50.72702" lon="5.30028">
        <ele>124</ele>
        <time>2018-11-13T05:58:30Z</time>
      </trkpt>
      <trkpt lat="50.72691" lon="5.29995">
        <ele>124</ele>
        <time>2018-11-13T05:59:30Z</time>
      </trkpt>
      <trkpt lat="50.72665" lon="5.29995">
        <ele>124</ele>
        <time>2018-11-13T06:00:30Z</time>
      </trkpt>
      <trkpt lat="50.72547" lon="5.29971">
        <ele>122</ele>
        <time>2018-11-13T06:01:30Z</time>
      </trkpt>
      <trkpt lat="50.72502" lon="5.29962">
        <ele>121</ele>
        <time>2018-11-13T06:02:30Z</time>
      </trkpt>
      <trkpt lat="50.72482" lon="5.2994">
        <ele>121</ele>
        <time>2018-11-13T06:03:30Z</time>
      </trkpt>
      <trkpt lat="50.72384" lon="5.29712">
        <ele>115</ele>
        <time>2018-11-13T06:04:30Z</time>
      </trkpt>
      <trkpt lat="50.7236" lon="5.29655">
        <ele>115</ele>
        <time>2018-11-13T06:05:30Z</time>
      </trkpt>
      <trkpt lat="50.72335" lon="5.29592">
        <ele>116</ele>
        <time>2018-11-13T06:06:30Z</time>
      </trkpt>
      <trkpt lat="50.72313" lon="5.29547">
        <ele>116</ele>
        <time>2018-11-13T06:07:30Z</time>
      </trkpt>
      <trkpt lat="50.72301" lon="5.29529">
        <ele>116</ele>
        <time>2018-11-13T06:08:30Z</time>
      </trkpt>
      <trkpt lat="50.72268" lon="5.29486">
        <ele>116</ele>
        <time>2018-11-13T06:09:30Z</time>
      </trkpt>
      <trkpt lat="50.7221" lon="5.29409">
        <ele>117</ele>
        <time>2018-11-13T06:10:30Z</time>
      </trkpt>
      <trkpt lat="50.72161" lon="5.29332">
        <ele>119</ele>
        <time>2018-11-13T06:11:30Z</time>
      </trkpt>
      <trkpt lat="50.72152" lon="5.29321">
        <ele>120</ele>
        <time>2018-11-13T06:12:30Z</time>
      </trkpt>
      <trkpt lat="50.72129" lon="5.29298">
        <ele>121</ele>
        <time>2018-11-13T06:13:30Z</time>
      </trkpt>
      <trkpt lat="50.721" lon="5.29272">
        <ele>122</ele>
        <time>2018-11-13T06:14:30Z</time>
      </trkpt>
      <trkpt lat="50.72084" lon="5.29253">
        <ele>123</ele>
        <time>2018-11-13T06:15:30Z</time>
      </trkpt>
      <trkpt lat="50.72057" lon="5.29222">
        <ele>122</ele>
        <time>2018-11-13T06:16:30Z</time>
      </trkpt>
      <trkpt lat="50.72032" lon="5.29185">
        <ele>122</ele>
        <time>2018-11-13T06:17:30Z</time>
      </trkpt>
      <trkpt lat="50.72014" lon="5.29152">
        <ele>122</ele>
        <time>2018-11-13T06:18:30Z</time>
      </trkpt>
      <trkpt lat="50.71983" lon="5.29065">
        <ele>122</ele>
        <time>2018-11-13T06:19:30Z</time>
      </trkpt>
      <trkpt lat="50.71972" lon="5.29045">
        <ele>122</ele>
        <time>2018-11-13T06:20:30Z</time>
      </trkpt>
      <trkpt lat="50.71951" lon="5.29018">
        <ele>123</ele>
        <time>2018-11-13T06:21:30Z</time>
      </trkpt>
      <trkpt lat="50.71917" lon="5.28976">
        <ele>123</ele>
        <time>2018-11-13T06:22:30Z</time>
      </trkpt>
      <trkpt lat="50.71885" lon="5.28939">
        <ele>122</ele>
        <time>2018-11-13T06:23:30Z</time>
      </trkpt>
      <trkpt lat="50.71871" lon="5.28926">
        <ele>122</ele>
        <time>2018-11-13T06:24:30Z</time>
      </trkpt>
      <trkpt lat="50.71834" lon="5.28907">
        <ele>121</ele>
        <time>2018-11-13T06:25:30Z</time>
      </trkpt>
      <trkpt lat="50.71809" lon="5.28895">
        <ele>120</ele>
        <time>2018-11-13T06:26:30Z</time>
      </trkpt>
      <trkpt lat="50.71789" lon="5.28878">
        <ele>119</ele>
        <time>2018-11-13T06:27:30Z</time>
      </trkpt>
      <trkpt lat="50.71766" lon="5.28852">
        <ele>118</ele>
        <time>2018-11-13T06:28:30Z</time>
      </trkpt>
      <trkpt lat="50.71753" lon="5.28834">
        <ele>117</ele>
        <time>2018-11-13T06:29:30Z</time>
      </trkpt>
      <trkpt lat="50.71738" lon="5.28808">
        <ele>117</ele>
        <time>2018-11-13T06:30:30Z</time>
      </trkpt>
      <trkpt lat="50.71658" lon="5.28653">
        <ele>115</ele>
        <time>2018-11-13T06:31:30Z</time>
      </trkpt>
      <trkpt lat="50.71618" lon="5.28571">
        <ele>115</ele>
        <time>2018-11-13T06:32:30Z</time>
      </trkpt>
      <trkpt lat="50.71606" lon="5.28553">
        <ele>116</ele>
        <time>2018-11-13T06:33:30Z</time>
      </trkpt>
      <trkpt lat="50.71592" lon="5.28535">
        <ele>116</ele>
        <time>2018-11-13T06:34:30Z</time>
      </trkpt>
      <trkpt lat="50.71497" lon="5.28443">
        <ele>118</ele>
        <time>2018-11-13T06:35:30Z</time>
      </trkpt>
      <trkpt lat="50.71477" lon="5.28424">
        <ele>118</ele>
        <time>2018-11-13T06:36:30Z</time>
      </trkpt>
      <trkpt lat="50.71467" lon="5.28408">
        <ele>118</ele>
        <time>2018-11-13T06:37:30Z</time>
      </trkpt>
      <trkpt lat="50.71455" lon="5.28377">
        <ele>119</ele>
        <time>2018-11-13T06:38:30Z</time>
      </trkpt>
      <trkpt lat="50.71448" lon="5.28348">
        <ele>120</ele>
        <time>2018-11-13T06:39:30Z</time>
      </trkpt>
      <trkpt lat="50.71443" lon="5.28227">
        <ele>120</ele>
        <time>2018-11-13T06:40:30Z</time>
      </trkpt>
      <trkpt lat="50.7144" lon="5.28178">
        <ele>121</ele>
        <time>2018-11-13T06:41:30Z</time>
      </trkpt>
      <trkpt lat="50.71436" lon="5.28149">
        <ele>120</ele>
        <time>2018-11-13T06:42:30Z</time>
      </trkpt>
      <trkpt lat="50.71434" lon="5.28133">
        <ele>120</ele>
        <time>2018-11-13T06:43:30Z</time>
      </trkpt>
      <trkpt lat="50.71429" lon="5.28118">
        <ele>120</ele>
        <time>2018-11-13T06:44:30Z</time>
      </trkpt>
      <trkpt lat="50.71426" lon="5.28107">
        <ele>120</ele>
        <time>2018-11-13T06:45:30Z</time>
      </trkpt>
      <trkpt lat="50.71424" lon="5.28085">
        <ele>120</ele>
        <time>2018-11-13T06:46:30Z</time>
      </trkpt>
      <trkpt lat="50.71418" lon="5.28028">
        <ele>121</ele>
        <time>2018-11-13T06:47:30Z</time>
      </trkpt>
      <trkpt lat="50.71411" lon="5.27936">
        <ele>119</ele>
        <time>2018-11-13T06:48:30Z</time>
      </trkpt>
      <trkpt lat="50.71405" lon="5.27826">
        <ele>115</ele>
        <time>2018-11-13T06:49:30Z</time>
      </trkpt>
      <trkpt lat="50.71404" lon="5.2779">
        <ele>115</ele>
        <time>2018-11-13T06:50:30Z</time>
      </trkpt>
      <trkpt lat="50.71409" lon="5.27761">
        <ele>116</ele>
        <time>2018-11-13T06:51:30Z</time>
      </trkpt>
      <trkpt lat="50.71414" lon="5.27744">
        <ele>116</ele>
        <time>2018-11-13T06:52:30Z</time>
      </trkpt>
      <trkpt lat="50.71416" lon="5.27717">
        <ele>116</ele>
        <time>2018-11-13T06:53:30Z</time>
      </trkpt>
      <trkpt lat="50.7143" lon="5.27578">
        <ele>118</ele>
        <time>2018-11-13T06:54:30Z</time>
      </trkpt>
      <trkpt lat="50.71433" lon="5.27539">
        <ele>118</ele>
        <time>2018-11-13T06:55:30Z</time>
      </trkpt>
      <trkpt lat="50.71433" lon="5.27451">
        <ele>118</ele>
        <time>2018-11-13T06:56:30Z</time>
      </trkpt>
      <trkpt lat="50.7142" lon="5.27133">
        <ele>117</ele>
        <time>2018-11-13T06:57:30Z</time>
      </trkpt>
      <trkpt lat="50.71413" lon="5.27063">
        <ele>118</ele>
        <time>2018-11-13T06:58:30Z</time>
      </trkpt>
      <trkpt lat="50.71392" lon="5.26941">
        <ele>117</ele>
        <time>2018-11-13T06:59:30Z</time>
      </trkpt>
      <trkpt lat="50.71379" lon="5.26881">
        <ele>115</ele>
        <time>2018-11-13T07:00:30Z</time>
      </trkpt>
      <trkpt lat="50.71368" lon="5.26848">
        <ele>114</ele>
        <time>2018-11-13T07:01:30Z</time>
      </trkpt>
      <trkpt lat="50.71337" lon="5.26754">
        <ele>112</ele>
        <time>2018-11-13T07:02:30Z</time>
      </trkpt>
      <trkpt lat="50.7129" lon="5.26619">
        <ele>114</ele>
        <time>2018-11-13T07:03:30Z</time>
      </trkpt>
      <trkpt lat="50.71278" lon="5.26574">
        <ele>114</ele>
        <time>2018-11-13T07:04:30Z</time>
      </trkpt>
      <trkpt lat="50.71271" lon="5.26532">
        <ele>114</ele>
        <time>2018-11-13T07:05:30Z</time>
      </trkpt>
      <trkpt lat="50.71263" lon="5.26485">
        <ele>114</ele>
        <time>2018-11-13T07:06:30Z</time>
      </trkpt>
      <trkpt lat="50.71254" lon="5.26413">
        <ele>114</ele>
        <time>2018-11-13T07:07:30Z</time>
      </trkpt>
      <trkpt lat="50.71239" lon="5.26298">
        <ele>113</ele>
        <time>2018-11-13T07:08:30Z</time>
      </trkpt>
      <trkpt lat="50.71224" lon="5.26195">
        <ele>111</ele>
        <time>2018-11-13T07:09:30Z</time>
      </trkpt>
      <trkpt lat="50.71213" lon="5.26128">
        <ele>110</ele>
        <time>2018-11-13T07:10:30Z</time>
      </trkpt>
      <trkpt lat="50.71212" lon="5.26127">
        <ele>110</ele>
        <time>2018-11-13T07:11:30Z</time>
      </trkpt>
      <trkpt lat="50.71204" lon="5.26103">
        <ele>110</ele>
        <time>2018-11-13T07:12:30Z</time>
      </trkpt>
      <trkpt lat="50.71191" lon="5.26076">
        <ele>110</ele>
        <time>2018-11-13T07:13:30Z</time>
      </trkpt>
      <trkpt lat="50.71176" lon="5.26044">
        <ele>110</ele>
        <time>2018-11-13T07:14:30Z</time>
      </trkpt>
      <trkpt lat="50.71162" lon="5.26012">
        <ele>110</ele>
        <time>2018-11-13T07:15:30Z</time>
      </trkpt>
      <trkpt lat="50.71131" lon="5.2596">
        <ele>112</ele>
        <time>2018-11-13T07:16:30Z</time>
      </trkpt>
      <trkpt lat="50.711" lon="5.25909">
        <ele>114</ele>
        <time>2018-11-13T07:17:30Z</time>
      </trkpt>
      <trkpt lat="50.71069" lon="5.25846">
        <ele>114</ele>
        <time>2018-11-13T07:18:30Z</time>
      </trkpt>
      <trkpt lat="50.7105" lon="5.25802">
        <ele>115</ele>
        <time>2018-11-13T07:19:30Z</time>
      </trkpt>
      <trkpt lat="50.71024" lon="5.25735">
        <ele>115</ele>
        <time>2018-11-13T07:20:30Z</time>
      </trkpt>
      <trkpt lat="50.71008" lon="5.25676">
        <ele>116</ele>
        <time>2018-11-13T07:21:30Z</time>
      </trkpt>
      <trkpt lat="50.70996" lon="5.25618">
        <ele>116</ele>
        <time>2018-11-13T07:22:30Z</time>
      </trkpt>
      <trkpt lat="50.70992" lon="5.25602">
        <ele>117</ele>
        <time>2018-11-13T07:23:30Z</time>
      </trkpt>
      <trkpt lat="50.70982" lon="5.25582">
        <ele>117</ele>
        <time>2018-11-13T07:24:30Z</time>
      </trkpt>
      <trkpt lat="50.70972" lon="5.25562">
        <ele>117</ele>
        <time>2018-11-13T07:25:30Z</time>
      </trkpt>
      <trkpt lat="50.70969" lon="5.25549">
        <ele>117</ele>
        <time>2018-11-13T07:26:30Z</time>
      </trkpt>
      <trkpt lat="50.70959" lon="5.25512">
        <ele>117</ele>
        <time>2018-11-13T07:27:30Z</time>
      </trkpt>
      <trkpt lat="50.70933" lon="5.25403">
        <ele>119</ele>
        <time>2018-11-13T07:28:30Z</time>
      </trkpt>
      <trkpt lat="50.70912" lon="5.2532">
        <ele>118</ele>
        <time>2018-11-13T07:29:30Z</time>
      </trkpt>
      <trkpt lat="50.70894" lon="5.25248">
        <ele>117</ele>
        <time>2018-11-13T07:30:30Z</time>
      </trkpt>
      <trkpt lat="50.70873" lon="5.25162">
        <ele>117</ele>
        <time>2018-11-13T07:31:30Z</time>
      </trkpt>
      <trkpt lat="50.70863" lon="5.25122">
        <ele>117</ele>
        <time>2018-11-13T07:32:30Z</time>
      </trkpt>
      <trkpt lat="50.70856" lon="5.25095">
        <ele>117</ele>
        <time>2018-11-13T07:33:30Z</time>
      </trkpt>
      <trkpt lat="50.70847" lon="5.25069">
        <ele>117</ele>
        <time>2018-11-13T07:34:30Z</time>
      </trkpt>
      <trkpt lat="50.70822" lon="5.25029">
        <ele>116</ele>
        <time>2018-11-13T07:35:30Z</time>
      </trkpt>
      <trkpt lat="50.70797" lon="5.24995">
        <ele>115</ele>
        <time>2018-11-13T07:36:30Z</time>
      </trkpt>
      <trkpt lat="50.70793" lon="5.24977">
        <ele>115</ele>
        <time>2018-11-13T07:37:30Z</time>
      </trkpt>
      <trkpt lat="50.70792" lon="5.24953">
        <ele>116</ele>
        <time>2018-11-13T07:38:30Z</time>
      </trkpt>
      <trkpt lat="50.70795" lon="5.24914">
        <ele>117</ele>
        <time>2018-11-13T07:39:30Z</time>
      </trkpt>
      <trkpt lat="50.70791" lon="5.24856">
        <ele>117</ele>
        <time>2018-11-13T07:40:30Z</time>
      </trkpt>
      <trkpt lat="50.70786" lon="5.24796">
        <ele>116</ele>
        <time>2018-11-13T07:41:30Z</time>
      </trkpt>
      <trkpt lat="50.70785" lon="5.24719">
        <ele>116</ele>
        <time>2018-11-13T07:42:30Z</time>
      </trkpt>
      <trkpt lat="50.70811" lon="5.24689">
        <ele>116</ele>
        <time>2018-11-13T07:43:30Z</time>
      </trkpt>
      <trkpt lat="50.7084" lon="5.24657">
        <ele>117</ele>
        <time>2018-11-13T07:44:30Z</time>
      </trkpt>
      <trkpt lat="50.70857" lon="5.24637">
        <ele>118</ele>
        <time>2018-11-13T07:45:30Z</time>
      </trkpt>
      <trkpt lat="50.70866" lon="5.24624">
        <ele>118</ele>
        <time>2018-11-13T07:46:30Z</time>
      </trkpt>
      <trkpt lat="50.70872" lon="5.24609">
        <ele>119</ele>
        <time>2018-11-13T07:47:30Z</time>
      </trkpt>
      <trkpt lat="50.70864" lon="5.24539">
        <ele>118</ele>
        <time>2018-11-13T07:48:30Z</time>
      </trkpt>
      <trkpt lat="50.70862" lon="5.2452">
        <ele>118</ele>
        <time>2018-11-13T07:49:30Z</time>
      </trkpt>
      <trkpt lat="50.70863" lon="5.24498">
        <ele>118</ele>
        <time>2018-11-13T07:50:30Z</time>
      </trkpt>
      <trkpt lat="50.70865" lon="5.24463">
        <ele>118</ele>
        <time>2018-11-13T07:51:30Z</time>
      </trkpt>
      <trkpt lat="50.70872" lon="5.24419">
        <ele>119</ele>
        <time>2018-11-13T07:52:30Z</time>
      </trkpt>
      <trkpt lat="50.70871" lon="5.24364">
        <ele>118</ele>
        <time>2018-11-13T07:53:30Z</time>
      </trkpt>
      <trkpt lat="50.70872" lon="5.24321">
        <ele>118</ele>
        <time>2018-11-13T07:54:30Z</time>
      </trkpt>
      <trkpt lat="50.70878" lon="5.24292">
        <ele>118</ele>
        <time>2018-11-13T07:55:30Z</time>
      </trkpt>
      <trkpt lat="50.70898" lon="5.24224">
        <ele>117</ele>
        <time>2018-11-13T07:56:30Z</time>
      </trkpt>
      <trkpt lat="50.70902" lon="5.24205">
        <ele>117</ele>
        <time>2018-11-13T07:57:30Z</time>
      </trkpt>
      <trkpt lat="50.70903" lon="5.24188">
        <ele>117</ele>
        <time>2018-11-13T07:58:30Z</time>
      </trkpt>
      <trkpt lat="50.70912" lon="5.24179">
        <ele>118</ele>
        <time>2018-11-13T07:59:30Z</time>
      </trkpt>
      <trkpt lat="50.70912" lon="5.24155">
        <ele>118</ele>
        <time>2018-11-13T08:00:30Z</time>
      </trkpt>
      <trkpt lat="50.70929" lon="5.24129">
        <ele>118</ele>
        <time>2018-11-13T08:01:30Z</time>
      </trkpt>
      <trkpt lat="50.70953" lon="5.24096">
        <ele>118</ele>
        <time>2018-11-13T08:02:30Z</time>
      </trkpt>
      <trkpt lat="50.70994" lon="5.2404">
        <ele>119</ele>
        <time>2018-11-13T08:03:30Z</time>
      </trkpt>
      <trkpt lat="50.7103" lon="5.23996">
        <ele>119</ele>
        <time>2018-11-13T08:04:30Z</time>
      </trkpt>
      <trkpt lat="50.71095" lon="5.23925">
        <ele>120</ele>
        <time>2018-11-13T08:05:30Z</time>
      </trkpt>
      <trkpt lat="50.71161" lon="5.23842">
        <ele>123</ele>
        <time>2018-11-13T08:06:30Z</time>
      </trkpt>
      <trkpt lat="50.71241" lon="5.23651">
        <ele>127</ele>
        <time>2018-11-13T08:07:30Z</time>
      </trkpt>
      <trkpt lat="50.71245" lon="5.23638">
        <ele>127</ele>
        <time>2018-11-13T08:08:30Z</time>
      </trkpt>
      <trkpt lat="50.71249" lon="5.23612">
        <ele>127</ele>
        <time>2018-11-13T08:09:30Z</time>
      </trkpt>
      <trkpt lat="50.71259" lon="5.23544">
        <ele>127</ele>
        <time>2018-11-13T08:10:30Z</time>
      </trkpt>
      <trkpt lat="50.71263" lon="5.23509">
        <ele>127</ele>
        <time>2018-11-13T08:11:30Z</time>
      </trkpt>
      <trkpt lat="50.71281" lon="5.23458">
        <ele>126</ele>
        <time>2018-11-13T08:12:30Z</time>
      </trkpt>
      <trkpt lat="50.71344" lon="5.23279">
        <ele>124</ele>
        <time>2018-11-13T08:13:30Z</time>
      </trkpt>
      <trkpt lat="50.71381" lon="5.23203">
        <ele>123</ele>
        <time>2018-11-13T08:14:30Z</time>
      </trkpt>
      <trkpt lat="50.71394" lon="5.23175">
        <ele>123</ele>
        <time>2018-11-13T08:15:30Z</time>
      </trkpt>
      <trkpt lat="50.71425" lon="5.23076">
        <ele>122</ele>
        <time>2018-11-13T08:16:30Z</time>
      </trkpt>
      <trkpt lat="50.71465" lon="5.2295">
        <ele>124</ele>
        <time>2018-11-13T08:17:30Z</time>
      </trkpt>
      <trkpt lat="50.71505" lon="5.22823">
        <ele>125</ele>
        <time>2018-11-13T08:18:30Z</time>
      </trkpt>
      <trkpt lat="50.71584" lon="5.22563">
        <ele>129</ele>
        <time>2018-11-13T08:19:30Z</time>
      </trkpt>
      <trkpt lat="50.71675" lon="5.22252">
        <ele>134</ele>
        <time>2018-11-13T08:20:30Z</time>
      </trkpt>
      <trkpt lat="50.71701" lon="5.22168">
        <ele>134</ele>
        <time>2018-11-13T08:21:30Z</time>
      </trkpt>
      <trkpt lat="50.71728" lon="5.22067">
        <ele>134</ele>
        <time>2018-11-13T08:22:30Z</time>
      </trkpt>
      <trkpt lat="50.71775" lon="5.21883">
        <ele>135</ele>
        <time>2018-11-13T08:23:30Z</time>
      </trkpt>
      <trkpt lat="50.71826" lon="5.21696">
        <ele>131</ele>
        <time>2018-11-13T08:24:30Z</time>
      </trkpt>
      <trkpt lat="50.71841" lon="5.2164">
        <ele>129</ele>
        <time>2018-11-13T08:25:30Z</time>
      </trkpt>
      <trkpt lat="50.71859" lon="5.21585">
        <ele>128</ele>
        <time>2018-11-13T08:26:30Z</time>
      </trkpt>
      <trkpt lat="50.71906" lon="5.21462">
        <ele>123</ele>
        <time>2018-11-13T08:27:30Z</time>
      </trkpt>
      <trkpt lat="50.7193" lon="5.21402">
        <ele>122</ele>
        <time>2018-11-13T08:28:30Z</time>
      </trkpt>
      <trkpt lat="50.71946" lon="5.21351">
        <ele>120</ele>
        <time>2018-11-13T08:29:30Z</time>
      </trkpt>
      <trkpt lat="50.71959" lon="5.21312">
        <ele>120</ele>
        <time>2018-11-13T08:30:30Z</time>
      </trkpt>
      <trkpt lat="50.71978" lon="5.21254">
        <ele>119</ele>
        <time>2018-11-13T08:31:30Z</time>
      </trkpt>
      <trkpt lat="50.72005" lon="5.21188">
        <ele>118</ele>
        <time>2018-11-13T08:32:30Z</time>
      </trkpt>
      <trkpt lat="50.72035" lon="5.21112">
        <ele>119</ele>
        <time>2018-11-13T08:33:30Z</time>
      </trkpt>
      <trkpt lat="50.72082" lon="5.20993">
        <ele>121</ele>
        <time>2018-11-13T08:34:30Z</time>
      </trkpt>
      <trkpt lat="50.72087" lon="5.20978">
        <ele>121</ele>
        <time>2018-11-13T08:35:30Z</time>
      </trkpt>
      <trkpt lat="50.72088" lon="5.20964">
        <ele>121</ele>
        <time>2018-11-13T08:36:30Z</time>
      </trkpt>
      <trkpt lat="50.72095" lon="5.2076">
        <ele>118</ele>
        <time>2018-11-13T08:37:30Z</time>
      </trkpt>
      <trkpt lat="50.72097" lon="5.20652">
        <ele>117</ele>
        <time>2018-11-13T08:38:30Z</time>
      </trkpt>
      <trkpt lat="50.72091" lon="5.20566">
        <ele>116</ele>
        <time>2018-11-13T08:39:30Z</time>
      </trkpt>
      <trkpt lat="50.72084" lon="5.20479">
        <ele>116</ele>
        <time>2018-11-13T08:40:30Z</time>
      </trkpt>
      <trkpt lat="50.72085" lon="5.20452">
        <ele>116</ele>
        <time>2018-11-13T08:41:30Z</time>
      </trkpt>
      <trkpt lat="50.72092" lon="5.20419">
        <ele>116</ele>
        <time>2018-11-13T08:42:30Z</time>
      </trkpt>
      <trkpt lat="50.72174" lon="5.20249">
        <ele>118</ele>
        <time>2018-11-13T08:43:30Z</time>
      </trkpt>
      <trkpt lat="50.72188" lon="5.20214">
        <ele>118</ele>
        <time>2018-11-13T08:44:30Z</time>
      </trkpt>
      <trkpt lat="50.7221" lon="5.2015">
        <ele>120</ele>
        <time>2018-11-13T08:45:30Z</time>
      </trkpt>
      <trkpt lat="50.72224" lon="5.201">
        <ele>121</ele>
        <time>2018-11-13T08:46:30Z</time>
      </trkpt>
      <trkpt lat="50.72232" lon="5.20069">
        <ele>122</ele>
        <time>2018-11-13T08:47:30Z</time>
      </trkpt>
      <trkpt lat="50.72241" lon="5.20024">
        <ele>123</ele>
        <time>2018-11-13T08:48:30Z</time>
      </trkpt>
      <trkpt lat="50.72248" lon="5.19981">
        <ele>123</ele>
        <time>2018-11-13T08:49:30Z</time>
      </trkpt>
      <trkpt lat="50.72274" lon="5.19737">
        <ele>120</ele>
        <time>2018-11-13T08:50:30Z</time>
      </trkpt>
      <trkpt lat="50.72283" lon="5.19638">
        <ele>117</ele>
        <time>2018-11-13T08:51:30Z</time>
      </trkpt>
      <trkpt lat="50.72285" lon="5.19556">
        <ele>115</ele>
        <time>2018-11-13T08:52:30Z</time>
      </trkpt>
      <trkpt lat="50.72286" lon="5.19461">
        <ele>113</ele>
        <time>2018-11-13T08:53:30Z</time>
      </trkpt>
      <trkpt lat="50.72287" lon="5.19174">
        <ele>112</ele>
        <time>2018-11-13T08:54:30Z</time>
      </trkpt>
      <trkpt lat="50.72288" lon="5.18947">
        <ele>113</ele>
        <time>2018-11-13T08:55:30Z</time>
      </trkpt>
      <trkpt lat="50.72297" lon="5.18935">
        <ele>113</ele>
        <time>2018-11-13T08:56:30Z</time>
      </trkpt>
      <trkpt lat="50.723" lon="5.1893">
        <ele>113</ele>
        <time>2018-11-13T08:57:30Z</time>
      </trkpt>
      <trkpt lat="50.72309" lon="5.18904">
        <ele>113</ele>
        <time>2018-11-13T08:58:30Z</time>
      </trkpt>
      <trkpt lat="50.72322" lon="5.18874">
        <ele>113</ele>
        <time>2018-11-13T08:59:30Z</time>
      </trkpt>
      <trkpt lat="50.72347" lon="5.18833">
        <ele>113</ele>
        <time>2018-11-13T09:00:30Z</time>
      </trkpt>
      <trkpt lat="50.72407" lon="5.18736">
        <ele>116</ele>
        <time>2018-11-13T09:01:30Z</time>
      </trkpt>
      <trkpt lat="50.72408" lon="5.18731">
        <ele>116</ele>
        <time>2018-11-13T09:02:30Z</time>
      </trkpt>
      <trkpt lat="50.72407" lon="5.18714">
        <ele>117</ele>
        <time>2018-11-13T09:03:30Z</time>
      </trkpt>
      <trkpt lat="50.72446" lon="5.18689">
        <ele>118</ele>
        <time>2018-11-13T09:04:30Z</time>
      </trkpt>
      <trkpt lat="50.72508" lon="5.18636">
        <ele>117</ele>
        <time>2018-11-13T09:05:30Z</time>
      </trkpt>
      <trkpt lat="50.72523" lon="5.18625">
        <ele>117</ele>
        <time>2018-11-13T09:06:30Z</time>
      </trkpt>
      <trkpt lat="50.7252" lon="5.18616">
        <ele>117</ele>
        <time>2018-11-13T09:07:30Z</time>
      </trkpt>
      <trkpt lat="50.72525" lon="5.18598">
        <ele>117</ele>
        <time>2018-11-13T09:08:30Z</time>
      </trkpt>
      <trkpt lat="50.72534" lon="5.18586">
        <ele>117</ele>
        <time>2018-11-13T09:09:30Z</time>
      </trkpt>
      <trkpt lat="50.72699" lon="5.18361">
        <ele>113</ele>
        <time>2018-11-13T09:10:30Z</time>
      </trkpt>
      <trkpt lat="50.72749" lon="5.18285">
        <ele>111</ele>
        <time>2018-11-13T09:11:30Z</time>
      </trkpt>
      <trkpt lat="50.72782" lon="5.18229">
        <ele>111</ele>
        <time>2018-11-13T09:12:30Z</time>
      </trkpt>
      <trkpt lat="50.72816" lon="5.18163">
        <ele>110</ele>
        <time>2018-11-13T09:13:30Z</time>
      </trkpt>
      <trkpt lat="50.72838" lon="5.18117">
        <ele>111</ele>
        <time>2018-11-13T09:14:30Z</time>
      </trkpt>
      <trkpt lat="50.72871" lon="5.1804">
        <ele>110</ele>
        <time>2018-11-13T09:15:30Z</time>
      </trkpt>
      <trkpt lat="50.72977" lon="5.17734">
        <ele>110</ele>
        <time>2018-11-13T09:16:30Z</time>
      </trkpt>
      <trkpt lat="50.73008" lon="5.17594">
        <ele>111</ele>
        <time>2018-11-13T09:17:30Z</time>
      </trkpt>
      <trkpt lat="50.73035" lon="5.17502">
        <ele>109</ele>
        <time>2018-11-13T09:18:30Z</time>
      </trkpt>
      <trkpt lat="50.73052" lon="5.17442">
        <ele>109</ele>
        <time>2018-11-13T09:19:30Z</time>
      </trkpt>
      <trkpt lat="50.7311" lon="5.17242">
        <ele>109</ele>
        <time>2018-11-13T09:20:30Z</time>
      </trkpt>
      <trkpt lat="50.73123" lon="5.17197">
        <ele>109</ele>
        <time>2018-11-13T09:21:30Z</time>
      </trkpt>
      <trkpt lat="50.73139" lon="5.17125">
        <ele>110</ele>
        <time>2018-11-13T09:22:30Z</time>
      </trkpt>
      <trkpt lat="50.73145" lon="5.17093">
        <ele>110</ele>
        <time>2018-11-13T09:23:30Z</time>
      </trkpt>
      <trkpt lat="50.73154" lon="5.17038">
        <ele>110</ele>
        <time>2018-11-13T09:24:30Z</time>
      </trkpt>
      <trkpt lat="50.73166" lon="5.16972">
        <ele>110</ele>
        <time>2018-11-13T09:25:30Z</time>
      </trkpt>
      <trkpt lat="50.73189" lon="5.16843">
        <ele>110</ele>
        <time>2018-11-13T09:26:30Z</time>
      </trkpt>
      <trkpt lat="50.73197" lon="5.16808">
        <ele>110</ele>
        <time>2018-11-13T09:27:30Z</time>
      </trkpt>
      <trkpt lat="50.73208" lon="5.16773">
        <ele>110</ele>
        <time>2018-11-13T09:28:30Z</time>
      </trkpt>
      <trkpt lat="50.73224" lon="5.16729">
        <ele>110</ele>
        <time>2018-11-13T09:29:30Z</time>
      </trkpt>
      <trkpt lat="50.73304" lon="5.16534">
        <ele>110</ele>
        <time>2018-11-13T09:30:30Z</time>
      </trkpt>
      <trkpt lat="50.73373" lon="5.16365">
        <ele>109</ele>
        <time>2018-11-13T09:31:30Z</time>
      </trkpt>
      <trkpt lat="50.73405" lon="5.16287">
        <ele>108</ele>
        <time>2018-11-13T09:32:30Z</time>
      </trkpt>
      <trkpt lat="50.73452" lon="5.16168">
        <ele>109</ele>
        <time>2018-11-13T09:33:30Z</time>
      </trkpt>
      <trkpt lat="50.73505" lon="5.16041">
        <ele>109</ele>
        <time>2018-11-13T09:34:30Z</time>
      </trkpt>
      <trkpt lat="50.73534" lon="5.1597">
        <ele>109</ele>
        <time>2018-11-13T09:35:30Z</time>
      </trkpt>
      <trkpt lat="50.73584" lon="5.15848">
        <ele>109</ele>
        <time>2018-11-13T09:36:30Z</time>
      </trkpt>
      <trkpt lat="50.73599" lon="5.15802">
        <ele>108</ele>
        <time>2018-11-13T09:37:30Z</time>
      </trkpt>
      <trkpt lat="50.73614" lon="5.15747">
        <ele>107</ele>
        <time>2018-11-13T09:38:30Z</time>
      </trkpt>
      <trkpt lat="50.73629" lon="5.15687">
        <ele>108</ele>
        <time>2018-11-13T09:39:30Z</time>
      </trkpt>
      <trkpt lat="50.73645" lon="5.15622">
        <ele>108</ele>
        <time>2018-11-13T09:40:30Z</time>
      </trkpt>
      <trkpt lat="50.73711" lon="5.15364">
        <ele>108</ele>
        <time>2018-11-13T09:41:30Z</time>
      </trkpt>
      <trkpt lat="50.73735" lon="5.15268">
        <ele>109</ele>
        <time>2018-11-13T09:42:30Z</time>
      </trkpt>
      <trkpt lat="50.73759" lon="5.15192">
        <ele>107</ele>
        <time>2018-11-13T09:43:30Z</time>
      </trkpt>
      <trkpt lat="50.73776" lon="5.15138">
        <ele>106</ele>
        <time>2018-11-13T09:44:30Z</time>
      </trkpt>
      <trkpt lat="50.73799" lon="5.15069">
        <ele>103</ele>
        <time>2018-11-13T09:45:30Z</time>
      </trkpt>
      <trkpt lat="50.73858" lon="5.14882">
        <ele>97</ele>
        <time>2018-11-13T09:46:30Z</time>
      </trkpt>
      <trkpt lat="50.73887" lon="5.14798">
        <ele>95</ele>
        <time>2018-11-13T09:47:30Z</time>
      </trkpt>
      <trkpt lat="50.73916" lon="5.14731">
        <ele>92</ele>
        <time>2018-11-13T09:48:30Z</time>
      </trkpt>
      <trkpt lat="50.73969" lon="5.14609">
        <ele>90</ele>
        <time>2018-11-13T09:49:30Z</time>
      </trkpt>
      <trkpt lat="50.73994" lon="5.14553">
        <ele>89</ele>
        <time>2018-11-13T09:50:30Z</time>
      </trkpt>
      <trkpt lat="50.74028" lon="5.14481">
        <ele>89</ele>
        <time>2018-11-13T09:51:30Z</time>
      </trkpt>
      <trkpt lat="50.74061" lon="5.14406">
        <ele>88</ele>
        <time>2018-11-13T09:52:30Z</time>
      </trkpt>
      <trkpt lat="50.74076" lon="5.14375">
        <ele>88</ele>
        <time>2018-11-13T09:53:30Z</time>
      </trkpt>
      <trkpt lat="50.74085" lon="5.14358">
        <ele>88</ele>
        <time>2018-11-13T09:54:30Z</time>
      </trkpt>
      <trkpt lat="50.74141" lon="5.14303">
        <ele>89</ele>
        <time>2018-11-13T09:55:30Z</time>
      </trkpt>
      <trkpt lat="50.7417" lon="5.14272">
        <ele>89</ele>
        <time>2018-11-13T09:56:30Z</time>
      </trkpt>
      <trkpt lat="50.74187" lon="5.14249">
        <ele>89</ele>
        <time>2018-11-13T09:57:30Z</time>
      </trkpt>
      <trkpt lat="50.74217" lon="5.14205">
        <ele>90</ele>
        <time>2018-11-13T09:58:30Z</time>
      </trkpt>
      <trkpt lat="50.74249" lon="5.14143">
        <ele>90</ele>
        <time>2018-11-13T09:59:30Z</time>
      </trkpt>
      <trkpt lat="50.74258" lon="5.14119">
        <ele>90</ele>
        <time>2018-11-13T10:00:30Z</time>
      </trkpt>
      <trkpt lat="50.74269" lon="5.1405">
        <ele>89</ele>
        <time>2018-11-13T10:01:30Z</time>
      </trkpt>
      <trkpt lat="50.7428" lon="5.1399">
        <ele>89</ele>
        <time>2018-11-13T10:02:30Z</time>
      </trkpt>
      <trkpt lat="50.74291" lon="5.1394">
        <ele>90</ele>
        <time>2018-11-13T10:03:30Z</time>
      </trkpt>
      <trkpt lat="50.74312" lon="5.13823">
        <ele>89</ele>
        <time>2018-11-13T10:04:30Z</time>
      </trkpt>
      <trkpt lat="50.74325" lon="5.13729">
        <ele>90</ele>
        <time>2018-11-13T10:05:30Z</time>
      </trkpt>
      <trkpt lat="50.7433" lon="5.1371">
        <ele>90</ele>
        <time>2018-11-13T10:06:30Z</time>
      </trkpt>
      <trkpt lat="50.74336" lon="5.13685">
        <ele>90</ele>
        <time>2018-11-13T10:07:30Z</time>
      </trkpt>
      <trkpt lat="50.74347" lon="5.13651">
        <ele>90</ele>
        <time>2018-11-13T10:08:30Z</time>
      </trkpt>
      <trkpt lat="50.74375" lon="5.13588">
        <ele>90</ele>
        <time>2018-11-13T10:09:30Z</time>
      </trkpt>
      <trkpt lat="50.74409" lon="5.13519">
        <ele>88</ele>
        <time>2018-11-13T10:10:30Z</time>
      </trkpt>
      <trkpt lat="50.74423" lon="5.1348">
        <ele>88</ele>
        <time>2018-11-13T10:11:30Z</time>
      </trkpt>
      <trkpt lat="50.74453" lon="5.13382">
        <ele>86</ele>
        <time>2018-11-13T10:12:30Z</time>
      </trkpt>
      <trkpt lat="50.74472" lon="5.13324">
        <ele>85</ele>
        <time>2018-11-13T10:13:30Z</time>
      </trkpt>
      <trkpt lat="50.74482" lon="5.13295">
        <ele>84</ele>
        <time>2018-11-13T10:14:30Z</time>
      </trkpt>
      <trkpt lat="50.74496" lon="5.1326">
        <ele>83</ele>
        <time>2018-11-13T10:15:30Z</time>
      </trkpt>
      <trkpt lat="50.74518" lon="5.13219">
        <ele>82</ele>
        <time>2018-11-13T10:16:30Z</time>
      </trkpt>
      <trkpt lat="50.74545" lon="5.13174">
        <ele>81</ele>
        <time>2018-11-13T10:17:30Z</time>
      </trkpt>
      <trkpt lat="50.74591" lon="5.13114">
        <ele>78</ele>
        <time>2018-11-13T10:18:30Z</time>
      </trkpt>
      <trkpt lat="50.74639" lon="5.13049">
        <ele>76</ele>
        <time>2018-11-13T10:19:30Z</time>
      </trkpt>
      <trkpt lat="50.74652" lon="5.13028">
        <ele>75</ele>
        <time>2018-11-13T10:20:30Z</time>
      </trkpt>
      <trkpt lat="50.74611" lon="5.12994">
        <ele>76</ele>
        <time>2018-11-13T10:21:30Z</time>
      </trkpt>
      <trkpt lat="50.7458" lon="5.12966">
        <ele>76</ele>
        <time>2018-11-13T10:22:30Z</time>
      </trkpt>
      <trkpt lat="50.74519" lon="5.12909">
        <ele>76</ele>
        <time>2018-11-13T10:23:30Z</time>
      </trkpt>
      <trkpt lat="50.7446" lon="5.12858">
        <ele>76</ele>
        <time>2018-11-13T10:24:30Z</time>
      </trkpt>
      <trkpt lat="50.74407" lon="5.12812">
        <ele>77</ele>
        <time>2018-11-13T10:25:30Z</time>
      </trkpt>
      <trkpt lat="50.74358" lon="5.12774">
        <ele>79</ele>
        <time>2018-11-13T10:26:30Z</time>
      </trkpt>
      <trkpt lat="50.74249" lon="5.12674">
        <ele>83</ele>
        <time>2018-11-13T10:27:30Z</time>
      </trkpt>
      <trkpt lat="50.74235" lon="5.12654">
        <ele>83</ele>
        <time>2018-11-13T10:28:30Z</time>
      </trkpt>
      <trkpt lat="50.74222" lon="5.12639">
        <ele>83</ele>
        <time>2018-11-13T10:29:30Z</time>
      </trkpt>
      <trkpt lat="50.74199" lon="5.12605">
        <ele>84</ele>
        <time>2018-11-13T10:30:30Z</time>
      </trkpt>
      <trkpt lat="50.74184" lon="5.12575">
        <ele>84</ele>
        <time>2018-11-13T10:31:30Z</time>
      </trkpt>
      <trkpt lat="50.74173" lon="5.12579">
        <ele>85</ele>
        <time>2018-11-13T10:32:30Z</time>
      </trkpt>
      <trkpt lat="50.74154" lon="5.12596">
        <ele>85</ele>
        <time>2018-11-13T10:33:30Z</time>
      </trkpt>
      <trkpt lat="50.74031" lon="5.12484">
        <ele>90</ele>
        <time>2018-11-13T10:34:30Z</time>
      </trkpt>
      <trkpt lat="50.73947" lon="5.1241">
        <ele>93</ele>
        <time>2018-11-13T10:35:30Z</time>
      </trkpt>
      <trkpt lat="50.73932" lon="5.12398">
        <ele>92</ele>
        <time>2018-11-13T10:36:30Z</time>
      </trkpt>
      <trkpt lat="50.73912" lon="5.12382">
        <ele>92</ele>
        <time>2018-11-13T10:37:30Z</time>
      </trkpt>
      <trkpt lat="50.73907" lon="5.124">
        <ele>93</ele>
        <time>2018-11-13T10:38:30Z</time>
      </trkpt>
      <trkpt lat="50.73897" lon="5.12414">
        <ele>94</ele>
        <time>2018-11-13T10:39:30Z</time>
      </trkpt>
      <trkpt lat="50.73888" lon="5.1242">
        <ele>94</ele>
        <time>2018-11-13T10:40:30Z</time>
      </trkpt>
      <trkpt lat="50.73816" lon="5.12462">
        <ele>97</ele>
        <time>2018-11-13T10:41:30Z</time>
      </trkpt>
      <trkpt lat="50.73778" lon="5.12485">
        <ele>98</ele>
        <time>2018-11-13T10:42:30Z</time>
      </trkpt>
      <trkpt lat="50.7376" lon="5.12496">
        <ele>98</ele>
        <time>2018-11-13T10:43:30Z</time>
      </trkpt>
      <trkpt lat="50.73721" lon="5.12498">
        <ele>98</ele>
        <time>2018-11-13T10:44:30Z</time>
      </trkpt>
      <trkpt lat="50.73649" lon="5.12491">
        <ele>99</ele>
        <time>2018-11-13T10:45:30Z</time>
      </trkpt>
      <trkpt lat="50.7352" lon="5.12463">
        <ele>99</ele>
        <time>2018-11-13T10:46:30Z</time>
      </trkpt>
      <trkpt lat="50.73456" lon="5.12451">
        <ele>100</ele>
        <time>2018-11-13T10:47:30Z</time>
      </trkpt>
      <trkpt lat="50.73395" lon="5.12437">
        <ele>100</ele>
        <time>2018-11-13T10:48:30Z</time>
      </trkpt>
      <trkpt lat="50.73371" lon="5.12435">
        <ele>100</ele>
        <time>2018-11-13T10:49:30Z</time>
      </trkpt>
      <trkpt lat="50.73342" lon="5.12436">
        <ele>99</ele>
        <time>2018-11-13T10:50:30Z</time>
      </trkpt>
      <trkpt lat="50.73273" lon="5.12453">
        <ele>99</ele>
        <time>2018-11-13T10:51:30Z</time>
      </trkpt>
      <trkpt lat="50.73112" lon="5.12492">
        <ele>100</ele>
        <time>2018-11-13T10:52:30Z</time>
      </trkpt>
      <trkpt lat="50.72896" lon="5.12541">
        <ele>105</ele>
        <time>2018-11-13T10:53:30Z</time>
      </trkpt>
      <trkpt lat="50.72816" lon="5.12565">
        <ele>108</ele>
        <time>2018-11-13T10:54:30Z</time>
      </trkpt>
      <trkpt lat="50.72816" lon="5.12563">
        <ele>108</ele>
        <time>2018-11-13T10:55:30Z</time>
      </trkpt>
      <trkpt lat="50.7276" lon="5.12584">
        <ele>112</ele>
        <time>2018-11-13T10:56:30Z</time>
      </trkpt>
      <trkpt lat="50.72677" lon="5.12619">
        <ele>108</ele>
        <time>2018-11-13T10:57:30Z</time>
      </trkpt>
      <trkpt lat="50.7255" lon="5.12678">
        <ele>102</ele>
        <time>2018-11-13T10:58:30Z</time>
      </trkpt>
      <trkpt lat="50.72502" lon="5.127">
        <ele>102</ele>
        <time>2018-11-13T10:59:30Z</time>
      </trkpt>
      <trkpt lat="50.72479" lon="5.1271">
        <ele>102</ele>
        <time>2018-11-13T11:00:30Z</time>
      </trkpt>
      <trkpt lat="50.7246" lon="5.12716">
        <ele>103</ele>
        <time>2018-11-13T11:01:30Z</time>
      </trkpt>
      <trkpt lat="50.72443" lon="5.12714">
        <ele>103</ele>
        <time>2018-11-13T11:02:30Z</time>
      </trkpt>
      <trkpt lat="50.72427" lon="5.12712">
        <ele>103</ele>
        <time>2018-11-13T11:03:30Z</time>
      </trkpt>
      <trkpt lat="50.7223" lon="5.12663">
        <ele>114</ele>
        <time>2018-11-13T11:04:30Z</time>
      </trkpt>
      <trkpt lat="50.7221" lon="5.12659">
        <ele>113</ele>
        <time>2018-11-13T11:05:30Z</time>
      </trkpt>
      <trkpt lat="50.72193" lon="5.1266">
        <ele>113</ele>
        <time>2018-11-13T11:06:30Z</time>
      </trkpt>
      <trkpt lat="50.72133" lon="5.12671">
        <ele>113</ele>
        <time>2018-11-13T11:07:30Z</time>
      </trkpt>
      <trkpt lat="50.72118" lon="5.1269">
        <ele>114</ele>
        <time>2018-11-13T11:08:30Z</time>
      </trkpt>
      <trkpt lat="50.72111" lon="5.12714">
        <ele>114</ele>
        <time>2018-11-13T11:09:30Z</time>
      </trkpt>
      <trkpt lat="50.72101" lon="5.12736">
        <ele>115</ele>
        <time>2018-11-13T11:10:30Z</time>
      </trkpt>
      <trkpt lat="50.72078" lon="5.12728">
        <ele>115</ele>
        <time>2018-11-13T11:11:30Z</time>
      </trkpt>
      <trkpt lat="50.7205" lon="5.12727">
        <ele>114</ele>
        <time>2018-11-13T11:12:30Z</time>
      </trkpt>
      <trkpt lat="50.7201" lon="5.12734">
        <ele>113</ele>
        <time>2018-11-13T11:13:30Z</time>
      </trkpt>
      <trkpt lat="50.71977" lon="5.12736">
        <ele>112</ele>
        <time>2018-11-13T11:14:30Z</time>
      </trkpt>
      <trkpt lat="50.71945" lon="5.12742">
        <ele>111</ele>
        <time>2018-11-13T11:15:30Z</time>
      </trkpt>
      <trkpt lat="50.71914" lon="5.12752">
        <ele>110</ele>
        <time>2018-11-13T11:16:30Z</time>
      </trkpt>
      <trkpt lat="50.71903" lon="5.12757">
        <ele>110</ele>
        <time>2018-11-13T11:17:30Z</time>
      </trkpt>
      <trkpt lat="50.71896" lon="5.12758">
        <ele>110</ele>
        <time>2018-11-13T11:18:30Z</time>
      </trkpt>
      <trkpt lat="50.71887" lon="5.12757">
        <ele>110</ele>
        <time>2018-11-13T11:19:30Z</time>
      </trkpt>
      <trkpt lat="50.71875" lon="5.12754">
        <ele>110</ele>
        <time>2018-11-13T11:20:30Z</time>
      </trkpt>
      <trkpt lat="50.71852" lon="5.12737">
        <ele>111</ele>
        <time>2018-11-13T11:21:30Z</time>
      </trkpt>
      <trkpt lat="50.7181" lon="5.12693">
        <ele>111</ele>
        <time>2018-11-13T11:22:30Z</time>
      </trkpt>
      <trkpt lat="50.71749" lon="5.12618">
        <ele>112</ele>
        <time>2018-11-13T11:23:30Z</time>
      </trkpt>
      <trkpt lat="50.71713" lon="5.12586">
        <ele>114</ele>
        <time>2018-11-13T11:24:30Z</time>
      </trkpt>
      <trkpt lat="50.71694" lon="5.12577">
        <ele>115</ele>
        <time>2018-11-13T11:25:30Z</time>
      </trkpt>
      <trkpt lat="50.71678" lon="5.12577">
        <ele>116</ele>
        <time>2018-11-13T11:26:30Z</time>
      </trkpt>
      <trkpt lat="50.71641" lon="5.1259">
        <ele>117</ele>
        <time>2018-11-13T11:27:30Z</time>
      </trkpt>
      <trkpt lat="50.71615" lon="5.12604">
        <ele>118</ele>
        <time>2018-11-13T11:28:30Z</time>
      </trkpt>
      <trkpt lat="50.7159" lon="5.12612">
        <ele>118</ele>
        <time>2018-11-13T11:29:30Z</time>
      </trkpt>
      <trkpt lat="50.71553" lon="5.12614">
        <ele>119</ele>
        <time>2018-11-13T11:30:30Z</time>
      </trkpt>
      <trkpt lat="50.71494" lon="5.12606">
        <ele>120</ele>
        <time>2018-11-13T11:31:30Z</time>
      </trkpt>
      <trkpt lat="50.71407" lon="5.1259">
        <ele>119</ele>
        <time>2018-11-13T11:32:30Z</time>
      </trkpt>
      <trkpt lat="50.71281" lon="5.1255">
        <ele>117</ele>
        <time>2018-11-13T11:33:30Z</time>
      </trkpt>
      <trkpt lat="50.71192" lon="5.12521">
        <ele>118</ele>
        <time>2018-11-13T11:34:30Z</time>
      </trkpt>
      <trkpt lat="50.71099" lon="5.12489">
        <ele>117</ele>
        <time>2018-11-13T11:35:30Z</time>
      </trkpt>
      <trkpt lat="50.70836" lon="5.1242">
        <ele>117</ele>
        <time>2018-11-13T11:36:30Z</time>
      </trkpt>
      <trkpt lat="50.70809" lon="5.12414">
        <ele>117</ele>
        <time>2018-11-13T11:37:30Z</time>
      </trkpt>
      <trkpt lat="50.7071" lon="5.1239">
        <ele>119</ele>
        <time>2018-11-13T11:38:30Z</time>
      </trkpt>
      <trkpt lat="50.70622" lon="5.12373">
        <ele>120</ele>
        <time>2018-11-13T11:39:30Z</time>
      </trkpt>
      <trkpt lat="50.70544" lon="5.12357">
        <ele>121</ele>
        <time>2018-11-13T11:40:30Z</time>
      </trkpt>
      <trkpt lat="50.70499" lon="5.12349">
        <ele>123</ele>
        <time>2018-11-13T11:41:30Z</time>
      </trkpt>
      <trkpt lat="50.70465" lon="5.12343">
        <ele>122</ele>
        <time>2018-11-13T11:42:30Z</time>
      </trkpt>
      <trkpt lat="50.70372" lon="5.12326">
        <ele>122</ele>
        <time>2018-11-13T11:43:30Z</time>
      </trkpt>
      <trkpt lat="50.70348" lon="5.1232">
        <ele>123</ele>
        <time>2018-11-13T11:44:30Z</time>
      </trkpt>
      <trkpt lat="50.70333" lon="5.12288">
        <ele>124</ele>
        <time>2018-11-13T11:45:30Z</time>
      </trkpt>
      <trkpt lat="50.70201" lon="5.12011">
        <ele>129</ele>
        <time>2018-11-13T11:46:30Z</time>
      </trkpt>
      <trkpt lat="50.70175" lon="5.11955">
        <ele>129</ele>
        <time>2018-11-13T11:47:30Z</time>
      </trkpt>
      <trkpt lat="50.70169" lon="5.11935">
        <ele>129</ele>
        <time>2018-11-13T11:48:30Z</time>
      </trkpt>
      <trkpt lat="50.7015" lon="5.11852">
        <ele>129</ele>
        <time>2018-11-13T11:49:30Z</time>
      </trkpt>
      <trkpt lat="50.70129" lon="5.11757">
        <ele>127</ele>
        <time>2018-11-13T11:50:30Z</time>
      </trkpt>
      <trkpt lat="50.70127" lon="5.11729">
        <ele>127</ele>
        <time>2018-11-13T11:51:30Z</time>
      </trkpt>
      <trkpt lat="50.70122" lon="5.11696">
        <ele>128</ele>
        <time>2018-11-13T11:52:30Z</time>
      </trkpt>
      <trkpt lat="50.70094" lon="5.11486">
        <ele>129</ele>
        <time>2018-11-13T11:53:30Z</time>
      </trkpt>
      <trkpt lat="50.70074" lon="5.1128">
        <ele>129</ele>
        <time>2018-11-13T11:54:30Z</time>
      </trkpt>
      <trkpt lat="50.70068" lon="5.11229">
        <ele>128</ele>
        <time>2018-11-13T11:55:30Z</time>
      </trkpt>
      <trkpt lat="50.70059" lon="5.11159">
        <ele>128</ele>
        <time>2018-11-13T11:56:30Z</time>
      </trkpt>
      <trkpt lat="50.70037" lon="5.11039">
        <ele>126</ele>
        <time>2018-11-13T11:57:30Z</time>
      </trkpt>
      <trkpt lat="50.70012" lon="5.10905">
        <ele>126</ele>
        <time>2018-11-13T11:58:30Z</time>
      </trkpt>
      <trkpt lat="50.70007" lon="5.10876">
        <ele>126</ele>
        <time>2018-11-13T11:59:30Z</time>
      </trkpt>
      <trkpt lat="50.7" lon="5.10827">
        <ele>127</ele>
        <time>2018-11-13T12:00:30Z</time>
      </trkpt>
      <trkpt lat="50.69993" lon="5.10789">
        <ele>126</ele>
        <time>2018-11-13T12:01:30Z</time>
      </trkpt>
      <trkpt lat="50.69974" lon="5.1068">
        <ele>125</ele>
        <time>2018-11-13T12:02:30Z</time>
      </trkpt>
      <trkpt lat="50.69955" lon="5.10565">
        <ele>126</ele>
        <time>2018-11-13T12:03:30Z</time>
      </trkpt>
      <trkpt lat="50.69935" lon="5.10457">
        <ele>127</ele>
        <time>2018-11-13T12:04:30Z</time>
      </trkpt>
      <trkpt lat="50.6992" lon="5.10366">
        <ele>129</ele>
        <time>2018-11-13T12:05:30Z</time>
      </trkpt>
      <trkpt lat="50.69913" lon="5.10307">
        <ele>129</ele>
        <time>2018-11-13T12:06:30Z</time>
      </trkpt>
      <trkpt lat="50.69913" lon="5.10251">
        <ele>129</ele>
        <time>2018-11-13T12:07:30Z</time>
      </trkpt>
      <trkpt lat="50.69908" lon="5.10191">
        <ele>129</ele>
        <time>2018-11-13T12:08:30Z</time>
      </trkpt>
      <trkpt lat="50.69905" lon="5.1015">
        <ele>129</ele>
        <time>2018-11-13T12:09:30Z</time>
      </trkpt>
      <trkpt lat="50.69901" lon="5.10119">
        <ele>128</ele>
        <time>2018-11-13T12:10:30Z</time>
      </trkpt>
      <trkpt lat="50.6989" lon="5.10074">
        <ele>128</ele>
        <time>2018-11-13T12:11:30Z</time>
      </trkpt>
      <trkpt lat="50.69868" lon="5.10003">
        <ele>127</ele>
        <time>2018-11-13T12:12:30Z</time>
      </trkpt>
      <trkpt lat="50.69846" lon="5.09956">
        <ele>126</ele>
        <time>2018-11-13T12:13:30Z</time>
      </trkpt>
      <trkpt lat="50.69827" lon="5.09917">
        <ele>126</ele>
        <time>2018-11-13T12:14:30Z</time>
      </trkpt>
      <trkpt lat="50.69761" lon="5.09788">
        <ele>122</ele>
        <time>2018-11-13T12:15:30Z</time>
      </trkpt>
      <trkpt lat="50.6974" lon="5.0974">
        <ele>121</ele>
        <time>2018-11-13T12:16:30Z</time>
      </trkpt>
      <trkpt lat="50.69722" lon="5.09692">
        <ele>121</ele>
        <time>2018-11-13T12:17:30Z</time>
      </trkpt>
      <trkpt lat="50.69717" lon="5.09672">
        <ele>121</ele>
        <time>2018-11-13T12:18:30Z</time>
      </trkpt>
      <trkpt lat="50.69711" lon="5.09643">
        <ele>122</ele>
        <time>2018-11-13T12:19:30Z</time>
      </trkpt>
      <trkpt lat="50.69699" lon="5.09553">
        <ele>123</ele>
        <time>2018-11-13T12:20:30Z</time>
      </trkpt>
      <trkpt lat="50.69694" lon="5.09516">
        <ele>122</ele>
        <time>2018-11-13T12:21:30Z</time>
      </trkpt>
      <trkpt lat="50.69686" lon="5.09473">
        <ele>121</ele>
        <time>2018-11-13T12:22:30Z</time>
      </trkpt>
      <trkpt lat="50.69675" lon="5.09436">
        <ele>120</ele>
        <time>2018-11-13T12:23:30Z</time>
      </trkpt>
      <trkpt lat="50.69661" lon="5.09398">
        <ele>118</ele>
        <time>2018-11-13T12:24:30Z</time>
      </trkpt>
      <trkpt lat="50.69653" lon="5.09377">
        <ele>118</ele>
        <time>2018-11-13T12:25:30Z</time>
      </trkpt>
      <trkpt lat="50.69644" lon="5.09357">
        <ele>117</ele>
        <time>2018-11-13T12:26:30Z</time>
      </trkpt>
      <trkpt lat="50.69629" lon="5.09328">
        <ele>117</ele>
        <time>2018-11-13T12:27:30Z</time>
      </trkpt>
      <trkpt lat="50.6962" lon="5.09307">
        <ele>116</ele>
        <time>2018-11-13T12:28:30Z</time>
      </trkpt>
      <trkpt lat="50.69616" lon="5.09294">
        <ele>116</ele>
        <time>2018-11-13T12:29:30Z</time>
      </trkpt>
      <trkpt lat="50.69612" lon="5.09258">
        <ele>116</ele>
        <time>2018-11-13T12:30:30Z</time>
      </trkpt>
      <trkpt lat="50.6961" lon="5.09243">
        <ele>116</ele>
        <time>2018-11-13T12:31:30Z</time>
      </trkpt>
      <trkpt lat="50.69608" lon="5.09237">
        <ele>115</ele>
        <time>2018-11-13T12:32:30Z</time>
      </trkpt>
      <trkpt lat="50.69603" lon="5.09227">
        <ele>115</ele>
        <time>2018-11-13T12:33:30Z</time>
      </trkpt>
      <trkpt lat="50.69579" lon="5.09215">
        <ele>115</ele>
        <time>2018-11-13T12:34:30Z</time>
      </trkpt>
      <trkpt lat="50.69559" lon="5.09193">
        <ele>115</ele>
        <time>2018-11-13T12:35:30Z</time>
      </trkpt>
      <trkpt lat="50.69521" lon="5.09146">
        <ele>118</ele>
        <time>2018-11-13T12:36:30Z</time>
      </trkpt>
      <trkpt lat="50.69509" lon="5.09142">
        <ele>118</ele>
        <time>2018-11-13T12:37:30Z</time>
      </trkpt>
      <trkpt lat="50.69493" lon="5.09139">
        <ele>119</ele>
        <time>2018-11-13T12:38:30Z</time>
      </trkpt>
      <trkpt lat="50.6947" lon="5.0914">
        <ele>119</ele>
        <time>2018-11-13T12:39:30Z</time>
      </trkpt>
      <trkpt lat="50.69443" lon="5.09146">
        <ele>120</ele>
        <time>2018-11-13T12:40:30Z</time>
      </trkpt>
      <trkpt lat="50.69434" lon="5.09147">
        <ele>120</ele>
        <time>2018-11-13T12:41:30Z</time>
      </trkpt>
      <trkpt lat="50.69424" lon="5.09156">
        <ele>120</ele>
        <time>2018-11-13T12:42:30Z</time>
      </trkpt>
      <trkpt lat="50.6941" lon="5.09171">
        <ele>120</ele>
        <time>2018-11-13T12:43:30Z</time>
      </trkpt>
      <trkpt lat="50.6938" lon="5.09222">
        <ele>121</ele>
        <time>2018-11-13T12:44:30Z</time>
      </trkpt>
      <trkpt lat="50.69344" lon="5.09288">
        <ele>122</ele>
        <time>2018-11-13T12:45:30Z</time>
      </trkpt>
      <trkpt lat="50.69322" lon="5.09261">
        <ele>121</ele>
        <time>2018-11-13T12:46:30Z</time>
      </trkpt>
      <trkpt lat="50.6929" lon="5.09217">
        <ele>121</ele>
        <time>2018-11-13T12:47:30Z</time>
      </trkpt>
      <trkpt lat="50.69277" lon="5.09201">
        <ele>121</ele>
        <time>2018-11-13T12:48:30Z</time>
      </trkpt>
      <trkpt lat="50.69252" lon="5.09166">
        <ele>121</ele>
        <time>2018-11-13T12:49:30Z</time>
      </trkpt>
      <trkpt lat="50.692" lon="5.09095">
        <ele>122</ele>
        <time>2018-11-13T12:50:30Z</time>
      </trkpt>
      <trkpt lat="50.69127" lon="5.08999">
        <ele>119</ele>
        <time>2018-11-13T12:51:30Z</time>
      </trkpt>
      <trkpt lat="50.69102" lon="5.08963">
        <ele>118</ele>
        <time>2018-11-13T12:52:30Z</time>
      </trkpt>
      <trkpt lat="50.69096" lon="5.08949">
        <ele>118</ele>
        <time>2018-11-13T12:53:30Z</time>
      </trkpt>
      <trkpt lat="50.6909" lon="5.08934">
        <ele>117</ele>
        <time>2018-11-13T12:54:30Z</time>
      </trkpt>
      <trkpt lat="50.69048" lon="5.08827">
        <ele>117</ele>
        <time>2018-11-13T12:55:30Z</time>
      </trkpt>
      <trkpt lat="50.69003" lon="5.08706">
        <ele>119</ele>
        <time>2018-11-13T12:56:30Z</time>
      </trkpt>
      <trkpt lat="50.68945" lon="5.08553">
        <ele>121</ele>
        <time>2018-11-13T12:57:30Z</time>
      </trkpt>
      <trkpt lat="50.68857" lon="5.08315">
        <ele>122</ele>
        <time>2018-11-13T12:58:30Z</time>
      </trkpt>
      <trkpt lat="50.68853" lon="5.08306">
        <ele>122</ele>
        <time>2018-11-13T12:59:30Z</time>
      </trkpt>
      <trkpt lat="50.68851" lon="5.08293">
        <ele>122</ele>
        <time>2018-11-13T13:00:30Z</time>
      </trkpt>
      <trkpt lat="50.68848" lon="5.08256">
        <ele>122</ele>
        <time>2018-11-13T13:01:30Z</time>
      </trkpt>
      <trkpt lat="50.68849" lon="5.08207">
        <ele>122</ele>
        <time>2018-11-13T13:02:30Z</time>
      </trkpt>
      <trkpt lat="50.68849" lon="5.08161">
        <ele>121</ele>
        <time>2018-11-13T13:03:30Z</time>
      </trkpt>
      <trkpt lat="50.68812" lon="5.08161">
        <ele>121</ele>
        <time>2018-11-13T13:04:30Z</time>
      </trkpt>
      <trkpt lat="50.68806" lon="5.08157">
        <ele>121</ele>
        <time>2018-11-13T13:05:30Z</time>
      </trkpt>
      <trkpt lat="50.68773" lon="5.08048">
        <ele>119</ele>
        <time>2018-11-13T13:06:30Z</time>
      </trkpt>
      <trkpt lat="50.68746" lon="5.0796">
        <ele>119</ele>
        <time>2018-11-13T13:07:30Z</time>
      </trkpt>
      <trkpt lat="50.68726" lon="5.07914">
        <ele>120</ele>
        <time>2018-11-13T13:08:30Z</time>
      </trkpt>
      <trkpt lat="50.68673" lon="5.07825">
        <ele>121</ele>
        <time>2018-11-13T13:09:30Z</time>
      </trkpt>
      <trkpt lat="50.6862" lon="5.07732">
        <ele>121</ele>
        <time>2018-11-13T13:10:30Z</time>
      </trkpt>
      <trkpt lat="50.686" lon="5.07696">
        <ele>122</ele>
        <time>2018-11-13T13:11:30Z</time>
      </trkpt>
      <trkpt lat="50.68577" lon="5.0764">
        <ele>123</ele>
        <time>2018-11-13T13:12:30Z</time>
      </trkpt>
      <trkpt lat="50.68488" lon="5.07413">
        <ele>124</ele>
        <time>2018-11-13T13:13:30Z</time>
      </trkpt>
      <trkpt lat="50.6847" lon="5.07364">
        <ele>126</ele>
        <time>2018-11-13T13:14:30Z</time>
      </trkpt>
      <trkpt lat="50.68462" lon="5.07332">
        <ele>126</ele>
        <time>2018-11-13T13:15:30Z</time>
      </trkpt>
      <trkpt lat="50.68453" lon="5.073">
        <ele>127</ele>
        <time>2018-11-13T13:16:30Z</time>
      </trkpt>
      <trkpt lat="50.68447" lon="5.07262">
        <ele>127</ele>
        <time>2018-11-13T13:17:30Z</time>
      </trkpt>
      <trkpt lat="50.68443" lon="5.07235">
        <ele>128</ele>
        <time>2018-11-13T13:18:30Z</time>
      </trkpt>
      <trkpt lat="50.68439" lon="5.07206">
        <ele>128</ele>
        <time>2018-11-13T13:19:30Z</time>
      </trkpt>
      <trkpt lat="50.68437" lon="5.07152">
        <ele>128</ele>
        <time>2018-11-13T13:20:30Z</time>
      </trkpt>
      <trkpt lat="50.68434" lon="5.07083">
        <ele>127</ele>
        <time>2018-11-13T13:21:30Z</time>
      </trkpt>
      <trkpt lat="50.68428" lon="5.07052">
        <ele>127</ele>
        <time>2018-11-13T13:22:30Z</time>
      </trkpt>
      <trkpt lat="50.68415" lon="5.07033">
        <ele>127</ele>
        <time>2018-11-13T13:23:30Z</time>
      </trkpt>
      <trkpt lat="50.68403" lon="5.07018">
        <ele>127</ele>
        <time>2018-11-13T13:24:30Z</time>
      </trkpt>
      <trkpt lat="50.68415" lon="5.06978">
        <ele>127</ele>
        <time>2018-11-13T13:25:30Z</time>
      </trkpt>
      <trkpt lat="50.6842" lon="5.06949">
        <ele>128</ele>
        <time>2018-11-13T13:26:30Z</time>
      </trkpt>
      <trkpt lat="50.68424" lon="5.06916">
        <ele>128</ele>
        <time>2018-11-13T13:27:30Z</time>
      </trkpt>
      <trkpt lat="50.68424" lon="5.06877">
        <ele>128</ele>
        <time>2018-11-13T13:28:30Z</time>
      </trkpt>
      <trkpt lat="50.68421" lon="5.06831">
        <ele>127</ele>
        <time>2018-11-13T13:29:30Z</time>
      </trkpt>
      <trkpt lat="50.68416" lon="5.06796">
        <ele>127</ele>
        <time>2018-11-13T13:30:30Z</time>
      </trkpt>
      <trkpt lat="50.68405" lon="5.06741">
        <ele>127</ele>
        <time>2018-11-13T13:31:30Z</time>
      </trkpt>
      <trkpt lat="50.6839" lon="5.06688">
        <ele>126</ele>
        <time>2018-11-13T13:32:30Z</time>
      </trkpt>
      <trkpt lat="50.68375" lon="5.06649">
        <ele>126</ele>
        <time>2018-11-13T13:33:30Z</time>
      </trkpt>
      <trkpt lat="50.68365" lon="5.06625">
        <ele>126</ele>
        <time>2018-11-13T13:34:30Z</time>
      </trkpt>
      <trkpt lat="50.68343" lon="5.06576">
        <ele>126</ele>
        <time>2018-11-13T13:35:30Z</time>
      </trkpt>
      <trkpt lat="50.68341" lon="5.06548">
        <ele>125</ele>
        <time>2018-11-13T13:36:30Z</time>
      </trkpt>
      <trkpt lat="50.68325" lon="5.06535">
        <ele>125</ele>
        <time>2018-11-13T13:37:30Z</time>
      </trkpt>
      <trkpt lat="50.68295" lon="5.06435">
        <ele>124</ele>
        <time>2018-11-13T13:38:30Z</time>
      </trkpt>
      <trkpt lat="50.6813" lon="5.05918">
        <ele>125</ele>
        <time>2018-11-13T13:39:30Z</time>
      </trkpt>
      <trkpt lat="50.68103" lon="5.05835">
        <ele>125</ele>
        <time>2018-11-13T13:40:30Z</time>
      </trkpt>
      <trkpt lat="50.68091" lon="5.05799">
        <ele>124</ele>
        <time>2018-11-13T13:41:30Z</time>
      </trkpt>
      <trkpt lat="50.68069" lon="5.05754">
        <ele>123</ele>
        <time>2018-11-13T13:42:30Z</time>
      </trkpt>
      <trkpt lat="50.68035" lon="5.05698">
        <ele>124</ele>
        <time>2018-11-13T13:43:30Z</time>
      </trkpt>
      <trkpt lat="50.67995" lon="5.05757">
        <ele>125</ele>
        <time>2018-11-13T13:44:30Z</time>
      </trkpt>
      <trkpt lat="50.67976" lon="5.0579">
        <ele>126</ele>
        <time>2018-11-13T13:45:30Z</time>
      </trkpt>
      <trkpt lat="50.67963" lon="5.05819">
        <ele>126</ele>
        <time>2018-11-13T13:46:30Z</time>
      </trkpt>
      <trkpt lat="50.67943" lon="5.05863">
        <ele>127</ele>
        <time>2018-11-13T13:47:30Z</time>
      </trkpt>
      <trkpt lat="50.67865" lon="5.06065">
        <ele>129</ele>
        <time>2018-11-13T13:48:30Z</time>
      </trkpt>
      <trkpt lat="50.67846" lon="5.06103">
        <ele>130</ele>
        <time>2018-11-13T13:49:30Z</time>
      </trkpt>
      <trkpt lat="50.6782" lon="5.06141">
        <ele>131</ele>
        <time>2018-11-13T13:50:30Z</time>
      </trkpt>
      <trkpt lat="50.67792" lon="5.06181">
        <ele>131</ele>
        <time>2018-11-13T13:51:30Z</time>
      </trkpt>
      <trkpt lat="50.67685" lon="5.06318">
        <ele>132</ele>
        <time>2018-11-13T13:52:30Z</time>
      </trkpt>
      <trkpt lat="50.67661" lon="5.06339">
        <ele>132</ele>
        <time>2018-11-13T13:53:30Z</time>
      </trkpt>
      <trkpt lat="50.6764" lon="5.06359">
        <ele>132</ele>
        <time>2018-11-13T13:54:30Z</time>
      </trkpt>
      <trkpt lat="50.67606" lon="5.06396">
        <ele>132</ele>
        <time>2018-11-13T13:55:30Z</time>
      </trkpt>
      <trkpt lat="50.67582" lon="5.06423">
        <ele>133</ele>
        <time>2018-11-13T13:56:30Z</time>
      </trkpt>
      <trkpt lat="50.67549" lon="5.06469">
        <ele>134</ele>
        <time>2018-11-13T13:57:30Z</time>
      </trkpt>
      <trkpt lat="50.67537" lon="5.06484">
        <ele>134</ele>
        <time>2018-11-13T13:58:30Z</time>
      </trkpt>
      <trkpt lat="50.67517" lon="5.06517">
        <ele>135</ele>
        <time>2018-11-13T13:59:30Z</time>
      </trkpt>
      <trkpt lat="50.67498" lon="5.0655">
        <ele>135</ele>
        <time>2018-11-13T14:00:30Z</time>
      </trkpt>
      <trkpt lat="50.67475" lon="5.06592">
        <ele>136</ele>
        <time>2018-11-13T14:01:30Z</time>
      </trkpt>
      <trkpt lat="50.67448" lon="5.06648">
        <ele>136</ele>
        <time>2018-11-13T14:02:30Z</time>
      </trkpt>
      <trkpt lat="50.6743" lon="5.06699">
        <ele>136</ele>
        <time>2018-11-13T14:03:30Z</time>
      </trkpt>
      <trkpt lat="50.67348" lon="5.06913">
        <ele>139</ele>
        <time>2018-11-13T14:04:30Z</time>
      </trkpt>
      <trkpt lat="50.67333" lon="5.06946">
        <ele>139</ele>
        <time>2018-11-13T14:05:30Z</time>
      </trkpt>
      <trkpt lat="50.67303" lon="5.07004">
        <ele>139</ele>
        <time>2018-11-13T14:06:30Z</time>
      </trkpt>
      <trkpt lat="50.67274" lon="5.07048">
        <ele>140</ele>
        <time>2018-11-13T14:07:30Z</time>
      </trkpt>
      <trkpt lat="50.67259" lon="5.07073">
        <ele>141</ele>
        <time>2018-11-13T14:08:30Z</time>
      </trkpt>
      <trkpt lat="50.67176" lon="5.07193">
        <ele>142</ele>
        <time>2018-11-13T14:09:30Z</time>
      </trkpt>
      <trkpt lat="50.67096" lon="5.0731">
        <ele>143</ele>
        <time>2018-11-13T14:10:30Z</time>
      </trkpt>
      <trkpt lat="50.67064" lon="5.0735">
        <ele>142</ele>
        <time>2018-11-13T14:11:30Z</time>
      </trkpt>
      <trkpt lat="50.67044" lon="5.07377">
        <ele>142</ele>
        <time>2018-11-13T14:12:30Z</time>
      </trkpt>
      <trkpt lat="50.67033" lon="5.07393">
        <ele>142</ele>
        <time>2018-11-13T14:13:30Z</time>
      </trkpt>
      <trkpt lat="50.67025" lon="5.07411">
        <ele>142</ele>
        <time>2018-11-13T14:14:30Z</time>
      </trkpt>
      <trkpt lat="50.67041" lon="5.07423">
        <ele>142</ele>
        <time>2018-11-13T14:15:30Z</time>
      </trkpt>
      <trkpt lat="50.67054" lon="5.07436">
        <ele>142</ele>
        <time>2018-11-13T14:16:30Z</time>
      </trkpt>
      <trkpt lat="50.67065" lon="5.07453">
        <ele>142</ele>
        <time>2018-11-13T14:17:30Z</time>
      </trkpt>
      <trkpt lat="50.67096" lon="5.07514">
        <ele>143</ele>
        <time>2018-11-13T14:18:30Z</time>
      </trkpt>
      <trkpt lat="50.67139" lon="5.07598">
        <ele>142</ele>
        <time>2018-11-13T14:19:30Z</time>
      </trkpt>
      <trkpt lat="50.67156" lon="5.07631">
        <ele>142</ele>
        <time>2018-11-13T14:20:30Z</time>
      </trkpt>
      <trkpt lat="50.67174" lon="5.0768">
        <ele>141</ele>
        <time>2018-11-13T14:21:30Z</time>
      </trkpt>
      <trkpt lat="50.67214" lon="5.07782">
        <ele>141</ele>
        <time>2018-11-13T14:22:30Z</time>
      </trkpt>
      <trkpt lat="50.67236" lon="5.07833">
        <ele>140</ele>
        <time>2018-11-13T14:23:30Z</time>
      </trkpt>
      <trkpt lat="50.67254" lon="5.07868">
        <ele>139</ele>
        <time>2018-11-13T14:24:30Z</time>
      </trkpt>
      <trkpt lat="50.67262" lon="5.0788">
        <ele>139</ele>
        <time>2018-11-13T14:25:30Z</time>
      </trkpt>
      <trkpt lat="50.67282" lon="5.07909">
        <ele>138</ele>
        <time>2018-11-13T14:26:30Z</time>
      </trkpt>
      <trkpt lat="50.67318" lon="5.07951">
        <ele>138</ele>
        <time>2018-11-13T14:27:30Z</time>
      </trkpt>
      <trkpt lat="50.67334" lon="5.0797">
        <ele>138</ele>
        <time>2018-11-13T14:28:30Z</time>
      </trkpt>
      <trkpt lat="50.67412" lon="5.08064">
        <ele>135</ele>
        <time>2018-11-13T14:29:30Z</time>
      </trkpt>
      <trkpt lat="50.67461" lon="5.08124">
        <ele>135</ele>
        <time>2018-11-13T14:30:30Z</time>
      </trkpt>
      <trkpt lat="50.67501" lon="5.0817">
        <ele>135</ele>
        <time>2018-11-13T14:31:30Z</time>
      </trkpt>
      <trkpt lat="50.67529" lon="5.08194">
        <ele>134</ele>
        <time>2018-11-13T14:32:30Z</time>
      </trkpt>
      <trkpt lat="50.67519" lon="5.08218">
        <ele>134</ele>
        <time>2018-11-13T14:33:30Z</time>
      </trkpt>
      <trkpt lat="50.67501" lon="5.08246">
        <ele>134</ele>
        <time>2018-11-13T14:34:30Z</time>
      </trkpt>
      <trkpt lat="50.6746" lon="5.08312">
        <ele>135</ele>
        <time>2018-11-13T14:35:30Z</time>
      </trkpt>
      <trkpt lat="50.67419" lon="5.08382">
        <ele>136</ele>
        <time>2018-11-13T14:36:30Z</time>
      </trkpt>
      <trkpt lat="50.6741" lon="5.08425">
        <ele>136</ele>
        <time>2018-11-13T14:37:30Z</time>
      </trkpt>
      <trkpt lat="50.67409" lon="5.08444">
        <ele>136</ele>
        <time>2018-11-13T14:38:30Z</time>
      </trkpt>
      <trkpt lat="50.67408" lon="5.08491">
        <ele>135</ele>
        <time>2018-11-13T14:39:30Z</time>
      </trkpt>
      <trkpt lat="50.67412" lon="5.08526">
        <ele>134</ele>
        <time>2018-11-13T14:40:30Z</time>
      </trkpt>
      <trkpt lat="50.67427" lon="5.08599">
        <ele>133</ele>
        <time>2018-11-13T14:41:30Z</time>
      </trkpt>
      <trkpt lat="50.67441" lon="5.08666">
        <ele>133</ele>
        <time>2018-11-13T14:42:30Z</time>
      </trkpt>
      <trkpt lat="50.67465" lon="5.0878">
        <ele>132</ele>
        <time>2018-11-13T14:43:30Z</time>
      </trkpt>
      <trkpt lat="50.67462" lon="5.0881">
        <ele>132</ele>
        <time>2018-11-13T14:44:30Z</time>
      </trkpt>
      <trkpt lat="50.67414" lon="5.08935">
        <ele>134</ele>
        <time>2018-11-13T14:45:30Z</time>
      </trkpt>
      <trkpt lat="50.67401" lon="5.08948">
        <ele>134</ele>
        <time>2018-11-13T14:46:30Z</time>
      </trkpt>
      <trkpt lat="50.67389" lon="5.08949">
        <ele>135</ele>
        <time>2018-11-13T14:47:30Z</time>
      </trkpt>
      <trkpt lat="50.67367" lon="5.08935">
        <ele>135</ele>
        <time>2018-11-13T14:48:30Z</time>
      </trkpt>
      <trkpt lat="50.67344" lon="5.08931">
        <ele>136</ele>
        <time>2018-11-13T14:49:30Z</time>
      </trkpt>
      <trkpt lat="50.67325" lon="5.08931">
        <ele>137</ele>
        <time>2018-11-13T14:50:30Z</time>
      </trkpt>
      <trkpt lat="50.67304" lon="5.08932">
        <ele>137</ele>
        <time>2018-11-13T14:51:30Z</time>
      </trkpt>
      <trkpt lat="50.67277" lon="5.08939">
        <ele>136</ele>
        <time>2018-11-13T14:52:30Z</time>
      </trkpt>
      <trkpt lat="50.67288" lon="5.08962">
        <ele>136</ele>
        <time>2018-11-13T14:53:30Z</time>
      </trkpt>
      <trkpt lat="50.67291" lon="5.08988">
        <ele>135</ele>
        <time>2018-11-13T14:54:30Z</time>
      </trkpt>
      <trkpt lat="50.67292" lon="5.09028">
        <ele>134</ele>
        <time>2018-11-13T14:55:30Z</time>
      </trkpt>
      <trkpt lat="50.67295" lon="5.09053">
        <ele>134</ele>
        <time>2018-11-13T14:56:30Z</time>
      </trkpt>
      <trkpt lat="50.67307" lon="5.09083">
        <ele>134</ele>
        <time>2018-11-13T14:57:30Z</time>
      </trkpt>
      <trkpt lat="50.6734" lon="5.09147">
        <ele>135</ele>
        <time>2018-11-13T14:58:30Z</time>
      </trkpt>
      <trkpt lat="50.6737" lon="5.09225">
        <ele>136</ele>
        <time>2018-11-13T14:59:30Z</time>
      </trkpt>
      <trkpt lat="50.67415" lon="5.09331">
        <ele>137</ele>
        <time>2018-11-13T15:00:30Z</time>
      </trkpt>
      <trkpt lat="50.67459" lon="5.09438">
        <ele>138</ele>
        <time>2018-11-13T15:01:30Z</time>
      </trkpt>
      <trkpt lat="50.67498" lon="5.09529">
        <ele>138</ele>
        <time>2018-11-13T15:02:30Z</time>
      </trkpt>
      <trkpt lat="50.67385" lon="5.09651">
        <ele>138</ele>
        <time>2018-11-13T15:03:30Z</time>
      </trkpt>
      <trkpt lat="50.67366" lon="5.09677">
        <ele>139</ele>
        <time>2018-11-13T15:04:30Z</time>
      </trkpt>
      <trkpt lat="50.6728" lon="5.09796">
        <ele>136</ele>
        <time>2018-11-13T15:05:30Z</time>
      </trkpt>
      <trkpt lat="50.67175" lon="5.09941">
        <ele>140</ele>
        <time>2018-11-13T15:06:30Z</time>
      </trkpt>
      <trkpt lat="50.67055" lon="5.10106">
        <ele>134</ele>
        <time>2018-11-13T15:07:30Z</time>
      </trkpt>
      <trkpt lat="50.66941" lon="5.10265">
        <ele>133</ele>
        <time>2018-11-13T15:08:30Z</time>
      </trkpt>
      <trkpt lat="50.66831" lon="5.10417">
        <ele>133</ele>
        <time>2018-11-13T15:09:30Z</time>
      </trkpt>
      <trkpt lat="50.66751" lon="5.10528">
        <ele>132</ele>
        <time>2018-11-13T15:10:30Z</time>
      </trkpt>
      <trkpt lat="50.66626" lon="5.10702">
        <ele>133</ele>
        <time>2018-11-13T15:11:30Z</time>
      </trkpt>
      <trkpt lat="50.66608" lon="5.10723">
        <ele>133</ele>
        <time>2018-11-13T15:12:30Z</time>
      </trkpt>
      <trkpt lat="50.66476" lon="5.10903">
        <ele>135</ele>
        <time>2018-11-13T15:13:30Z</time>
      </trkpt>
      <trkpt lat="50.66407" lon="5.10999">
        <ele>137</ele>
        <time>2018-11-13T15:14:30Z</time>
      </trkpt>
      <trkpt lat="50.66374" lon="5.11044">
        <ele>139</ele>
        <time>2018-11-13T15:15:30Z</time>
      </trkpt>
      <trkpt lat="50.66326" lon="5.1111">
        <ele>140</ele>
        <time>2018-11-13T15:16:30Z</time>
      </trkpt>
      <trkpt lat="50.66314" lon="5.11136">
        <ele>141</ele>
        <time>2018-11-13T15:17:30Z</time>
      </trkpt>
      <trkpt lat="50.66292" lon="5.11163">
        <ele>141</ele>
        <time>2018-11-13T15:18:30Z</time>
      </trkpt>
      <trkpt lat="50.6625" lon="5.11215">
        <ele>143</ele>
        <time>2018-11-13T15:19:30Z</time>
      </trkpt>
      <trkpt lat="50.66215" lon="5.11264">
        <ele>144</ele>
        <time>2018-11-13T15:20:30Z</time>
      </trkpt>
      <trkpt lat="50.6618" lon="5.11313">
        <ele>143</ele>
        <time>2018-11-13T15:21:30Z</time>
      </trkpt>
      <trkpt lat="50.66129" lon="5.11377">
        <ele>142</ele>
        <time>2018-11-13T15:22:30Z</time>
      </trkpt>
      <trkpt lat="50.65996" lon="5.11558">
        <ele>138</ele>
        <time>2018-11-13T15:23:30Z</time>
      </trkpt>
      <trkpt lat="50.65965" lon="5.11595">
        <ele>137</ele>
        <time>2018-11-13T15:24:30Z</time>
      </trkpt>
      <trkpt lat="50.65928" lon="5.11639">
        <ele>136</ele>
        <time>2018-11-13T15:25:30Z</time>
      </trkpt>
      <trkpt lat="50.65866" lon="5.11723">
        <ele>135</ele>
        <time>2018-11-13T15:26:30Z</time>
      </trkpt>
      <trkpt lat="50.65846" lon="5.1175">
        <ele>134</ele>
        <time>2018-11-13T15:27:30Z</time>
      </trkpt>
      <trkpt lat="50.65813" lon="5.11791">
        <ele>135</ele>
        <time>2018-11-13T15:28:30Z</time>
      </trkpt>
      <trkpt lat="50.65793" lon="5.11816">
        <ele>135</ele>
        <time>2018-11-13T15:29:30Z</time>
      </trkpt>
      <trkpt lat="50.65775" lon="5.11841">
        <ele>135</ele>
        <time>2018-11-13T15:30:30Z</time>
      </trkpt>
      <trkpt lat="50.65757" lon="5.11873">
        <ele>134</ele>
        <time>2018-11-13T15:31:30Z</time>
      </trkpt>
      <trkpt lat="50.65741" lon="5.11911">
        <ele>134</ele>
        <time>2018-11-13T15:32:30Z</time>
      </trkpt>
      <trkpt lat="50.65728" lon="5.11971">
        <ele>135</ele>
        <time>2018-11-13T15:33:30Z</time>
      </trkpt>
      <trkpt lat="50.65725" lon="5.12014">
        <ele>135</ele>
        <time>2018-11-13T15:34:30Z</time>
      </trkpt>
      <trkpt lat="50.65716" lon="5.12149">
        <ele>135</ele>
        <time>2018-11-13T15:35:30Z</time>
      </trkpt>
      <trkpt lat="50.65711" lon="5.12214">
        <ele>135</ele>
        <time>2018-11-13T15:36:30Z</time>
      </trkpt>
      <trkpt lat="50.65706" lon="5.12233">
        <ele>135</ele>
        <time>2018-11-13T15:37:30Z</time>
      </trkpt>
      <trkpt lat="50.65698" lon="5.12246">
        <ele>135</ele>
        <time>2018-11-13T15:38:30Z</time>
      </trkpt>
      <trkpt lat="50.65688" lon="5.12257">
        <ele>136</ele>
        <time>2018-11-13T15:39:30Z</time>
      </trkpt>
      <trkpt lat="50.65668" lon="5.1228">
        <ele>136</ele>
        <time>2018-11-13T15:40:30Z</time>
      </trkpt>
      <trkpt lat="50.65643" lon="5.12318">
        <ele>137</ele>
        <time>2018-11-13T15:41:30Z</time>
      </trkpt>
      <trkpt lat="50.65625" lon="5.12345">
        <ele>137</ele>
        <time>2018-11-13T15:42:30Z</time>
      </trkpt>
      <trkpt lat="50.65603" lon="5.12384">
        <ele>138</ele>
        <time>2018-11-13T15:43:30Z</time>
      </trkpt>
      <trkpt lat="50.65591" lon="5.12408">
        <ele>138</ele>
        <time>2018-11-13T15:44:30Z</time>
      </trkpt>
      <trkpt lat="50.65577" lon="5.12454">
        <ele>138</ele>
        <time>2018-11-13T15:45:30Z</time>
      </trkpt>
      <trkpt lat="50.65564" lon="5.12505">
        <ele>139</ele>
        <time>2018-11-13T15:46:30Z</time>
      </trkpt>
      <trkpt lat="50.65557" lon="5.1254">
        <ele>139</ele>
        <time>2018-11-13T15:47:30Z</time>
      </trkpt>
      <trkpt lat="50.65553" lon="5.12574">
        <ele>138</ele>
        <time>2018-11-13T15:48:30Z</time>
      </trkpt>
      <trkpt lat="50.65549" lon="5.12615">
        <ele>139</ele>
        <time>2018-11-13T15:49:30Z</time>
      </trkpt>
      <trkpt lat="50.65539" lon="5.12658">
        <ele>139</ele>
        <time>2018-11-13T15:50:30Z</time>
      </trkpt>
      <trkpt lat="50.65535" lon="5.12679">
        <ele>139</ele>
        <time>2018-11-13T15:51:30Z</time>
      </trkpt>
      <trkpt lat="50.65525" lon="5.12704">
        <ele>138</ele>
        <time>2018-11-13T15:52:30Z</time>
      </trkpt>
      <trkpt lat="50.65511" lon="5.12734">
        <ele>138</ele>
        <time>2018-11-13T15:53:30Z</time>
      </trkpt>
      <trkpt lat="50.65472" lon="5.12812">
        <ele>136</ele>
        <time>2018-11-13T15:54:30Z</time>
      </trkpt>
      <trkpt lat="50.65442" lon="5.12873">
        <ele>135</ele>
        <time>2018-11-13T15:55:30Z</time>
      </trkpt>
      <trkpt lat="50.65435" lon="5.12889">
        <ele>135</ele>
        <time>2018-11-13T15:56:30Z</time>
      </trkpt>
      <trkpt lat="50.65429" lon="5.12911">
        <ele>134</ele>
        <time>2018-11-13T15:57:30Z</time>
      </trkpt>
      <trkpt lat="50.65423" lon="5.12935">
        <ele>134</ele>
        <time>2018-11-13T15:58:30Z</time>
      </trkpt>
      <trkpt lat="50.65418" lon="5.12969">
        <ele>133</ele>
        <time>2018-11-13T15:59:30Z</time>
      </trkpt>
      <trkpt lat="50.65389" lon="5.13161">
        <ele>132</ele>
        <time>2018-11-13T16:00:30Z</time>
      </trkpt>
      <trkpt lat="50.65389" lon="5.13189">
        <ele>132</ele>
        <time>2018-11-13T16:01:30Z</time>
      </trkpt>
      <trkpt lat="50.65418" lon="5.13296">
        <ele>134</ele>
        <time>2018-11-13T16:02:30Z</time>
      </trkpt>
      <trkpt lat="50.6544" lon="5.13331">
        <ele>135</ele>
        <time>2018-11-13T16:03:30Z</time>
      </trkpt>
      <trkpt lat="50.65472" lon="5.13381">
        <ele>135</ele>
        <time>2018-11-13T16:04:30Z</time>
      </trkpt>
      <trkpt lat="50.65485" lon="5.13403">
        <ele>135</ele>
        <time>2018-11-13T16:05:30Z</time>
      </trkpt>
      <trkpt lat="50.65492" lon="5.13419">
        <ele>135</ele>
        <time>2018-11-13T16:06:30Z</time>
      </trkpt>
      <trkpt lat="50.65521" lon="5.13506">
        <ele>135</ele>
        <time>2018-11-13T16:07:30Z</time>
      </trkpt>
      <trkpt lat="50.65545" lon="5.13588">
        <ele>135</ele>
        <time>2018-11-13T16:08:30Z</time>
      </trkpt>
      <trkpt lat="50.65563" lon="5.13684">
        <ele>135</ele>
        <time>2018-11-13T16:09:30Z</time>
      </trkpt>
      <trkpt lat="50.6558" lon="5.13753">
        <ele>133</ele>
        <time>2018-11-13T16:10:30Z</time>
      </trkpt>
      <trkpt lat="50.6559" lon="5.13791">
        <ele>133</ele>
        <time>2018-11-13T16:11:30Z</time>
      </trkpt>
      <trkpt lat="50.65602" lon="5.13822">
        <ele>133</ele>
        <time>2018-11-13T16:12:30Z</time>
      </trkpt>
      <trkpt lat="50.65646" lon="5.13919">
        <ele>132</ele>
        <time>2018-11-13T16:13:30Z</time>
      </trkpt>
      <trkpt lat="50.65665" lon="5.13967">
        <ele>133</ele>
        <time>2018-11-13T16:14:30Z</time>
      </trkpt>
      <trkpt lat="50.65674" lon="5.13994">
        <ele>134</ele>
        <time>2018-11-13T16:15:30Z</time>
      </trkpt>
      <trkpt lat="50.65713" lon="5.14134">
        <ele>132</ele>
        <time>2018-11-13T16:16:30Z</time>
      </trkpt>
      <trkpt lat="50.65733" lon="5.14224">
        <ele>133</ele>
        <time>2018-11-13T16:17:30Z</time>
      </trkpt>
      <trkpt lat="50.65755" lon="5.14316">
        <ele>133</ele>
        <time>2018-11-13T16:18:30Z</time>
      </trkpt>
      <trkpt lat="50.65784" lon="5.14429">
        <ele>134</ele>
        <time>2018-11-13T16:19:30Z</time>
      </trkpt>
      <trkpt lat="50.65796" lon="5.14474">
        <ele>134</ele>
        <time>2018-11-13T16:20:30Z</time>
      </trkpt>
      <trkpt lat="50.65818" lon="5.14531">
        <ele>132</ele>
        <time>2018-11-13T16:21:30Z</time>
      </trkpt>
      <trkpt lat="50.65844" lon="5.14592">
        <ele>131</ele>
        <time>2018-11-13T16:22:30Z</time>
      </trkpt>
      <trkpt lat="50.6586" lon="5.14629">
        <ele>131</ele>
        <time>2018-11-13T16:23:30Z</time>
      </trkpt>
      <trkpt lat="50.65976" lon="5.14872">
        <ele>134</ele>
        <time>2018-11-13T16:24:30Z</time>
      </trkpt>
      <trkpt lat="50.66032" lon="5.14988">
        <ele>134</ele>
        <time>2018-11-13T16:25:30Z</time>
      </trkpt>
      <trkpt lat="50.66085" lon="5.15087">
        <ele>135</ele>
        <time>2018-11-13T16:26:30Z</time>
      </trkpt>
      <trkpt lat="50.66133" lon="5.15179">
        <ele>135</ele>
        <time>2018-11-13T16:27:30Z</time>
      </trkpt>
      <trkpt lat="50.66149" lon="5.15203">
        <ele>134</ele>
        <time>2018-11-13T16:28:30Z</time>
      </trkpt>
      <trkpt lat="50.66161" lon="5.15219">
        <ele>134</ele>
        <time>2018-11-13T16:29:30Z</time>
      </trkpt>
      <trkpt lat="50.66218" lon="5.15275">
        <ele>134</ele>
        <time>2018-11-13T16:30:30Z</time>
      </trkpt>
      <trkpt lat="50.66238" lon="5.15295">
        <ele>134</ele>
        <time>2018-11-13T16:31:30Z</time>
      </trkpt>
      <trkpt lat="50.66247" lon="5.15304">
        <ele>134</ele>
        <time>2018-11-13T16:32:30Z</time>
      </trkpt>
      <trkpt lat="50.66253" lon="5.15316">
        <ele>134</ele>
        <time>2018-11-13T16:33:30Z</time>
      </trkpt>
      <trkpt lat="50.66258" lon="5.15328">
        <ele>134</ele>
        <time>2018-11-13T16:34:30Z</time>
      </trkpt>
      <trkpt lat="50.66264" lon="5.15348">
        <ele>133</ele>
        <time>2018-11-13T16:35:30Z</time>
      </trkpt>
      <trkpt lat="50.66278" lon="5.15415">
        <ele>131</ele>
        <time>2018-11-13T16:36:30Z</time>
      </trkpt>
      <trkpt lat="50.66284" lon="5.15434">
        <ele>130</ele>
        <time>2018-11-13T16:37:30Z</time>
      </trkpt>
      <trkpt lat="50.66292" lon="5.15477">
        <ele>129</ele>
        <time>2018-11-13T16:38:30Z</time>
      </trkpt>
      <trkpt lat="50.66305" lon="5.15533">
        <ele>128</ele>
        <time>2018-11-13T16:39:30Z</time>
      </trkpt>
      <trkpt lat="50.66315" lon="5.15565">
        <ele>128</ele>
        <time>2018-11-13T16:40:30Z</time>
      </trkpt>
      <trkpt lat="50.66306" lon="5.15566">
        <ele>128</ele>
        <time>2018-11-13T16:41:30Z</time>
      </trkpt>
      <trkpt lat="50.66295" lon="5.1557">
        <ele>128</ele>
        <time>2018-11-13T16:42:30Z</time>
      </trkpt>
      <trkpt lat="50.66169" lon="5.15668">
        <ele>130</ele>
        <time>2018-11-13T16:43:30Z</time>
      </trkpt>
      <trkpt lat="50.66163" lon="5.15657">
        <ele>130</ele>
        <time>2018-11-13T16:44:30Z</time>
      </trkpt>
      <trkpt lat="50.66131" lon="5.15578">
        <ele>130</ele>
        <time>2018-11-13T16:45:30Z</time>
      </trkpt>
      <trkpt lat="50.66102" lon="5.15537">
        <ele>131</ele>
        <time>2018-11-13T16:46:30Z</time>
      </trkpt>
      <trkpt lat="50.66084" lon="5.15511">
        <ele>131</ele>
        <time>2018-11-13T16:47:30Z</time>
      </trkpt>
      <trkpt lat="50.6607" lon="5.15494">
        <ele>131</ele>
        <time>2018-11-13T16:48:30Z</time>
      </trkpt>
      <trkpt lat="50.6606" lon="5.15488">
        <ele>131</ele>
        <time>2018-11-13T16:49:30Z</time>
      </trkpt>
      <trkpt lat="50.66048" lon="5.15482">
        <ele>131</ele>
        <time>2018-11-13T16:50:30Z</time>
      </trkpt>
      <trkpt lat="50.66037" lon="5.15483">
        <ele>131</ele>
        <time>2018-11-13T16:51:30Z</time>
      </trkpt>
      <trkpt lat="50.65933" lon="5.15491">
        <ele>133</ele>
        <time>2018-11-13T16:52:30Z</time>
      </trkpt>
      <trkpt lat="50.65838" lon="5.15501">
        <ele>133</ele>
        <time>2018-11-13T16:53:30Z</time>
      </trkpt>
      <trkpt lat="50.65808" lon="5.15512">
        <ele>133</ele>
        <time>2018-11-13T16:54:30Z</time>
      </trkpt>
      <trkpt lat="50.65761" lon="5.15535">
        <ele>132</ele>
        <time>2018-11-13T16:55:30Z</time>
      </trkpt>
      <trkpt lat="50.65703" lon="5.15563">
        <ele>130</ele>
        <time>2018-11-13T16:56:30Z</time>
      </trkpt>
      <trkpt lat="50.6568" lon="5.15579">
        <ele>129</ele>
        <time>2018-11-13T16:57:30Z</time>
      </trkpt>
      <trkpt lat="50.6566" lon="5.15597">
        <ele>129</ele>
        <time>2018-11-13T16:58:30Z</time>
      </trkpt>
      <trkpt lat="50.65638" lon="5.15621">
        <ele>129</ele>
        <time>2018-11-13T16:59:30Z</time>
      </trkpt>
      <trkpt lat="50.65596" lon="5.1567">
        <ele>128</ele>
        <time>2018-11-13T17:00:30Z</time>
      </trkpt>
      <trkpt lat="50.6556" lon="5.15715">
        <ele>129</ele>
        <time>2018-11-13T17:01:30Z</time>
      </trkpt>
      <trkpt lat="50.65506" lon="5.15779">
        <ele>131</ele>
        <time>2018-11-13T17:02:30Z</time>
      </trkpt>
      <trkpt lat="50.65466" lon="5.15825">
        <ele>133</ele>
        <time>2018-11-13T17:03:30Z</time>
      </trkpt>
      <trkpt lat="50.65419" lon="5.15873">
        <ele>135</ele>
        <time>2018-11-13T17:04:30Z</time>
      </trkpt>
      <trkpt lat="50.65373" lon="5.15918">
        <ele>137</ele>
        <time>2018-11-13T17:05:30Z</time>
      </trkpt>
      <trkpt lat="50.65306" lon="5.15983">
        <ele>137</ele>
        <time>2018-11-13T17:06:30Z</time>
      </trkpt>
      <trkpt lat="50.65284" lon="5.16004">
        <ele>138</ele>
        <time>2018-11-13T17:07:30Z</time>
      </trkpt>
      <trkpt lat="50.65256" lon="5.16028">
        <ele>138</ele>
        <time>2018-11-13T17:08:30Z</time>
      </trkpt>
      <trkpt lat="50.65156" lon="5.16108">
        <ele>139</ele>
        <time>2018-11-13T17:09:30Z</time>
      </trkpt>
      <trkpt lat="50.65137" lon="5.16125">
        <ele>140</ele>
        <time>2018-11-13T17:10:30Z</time>
      </trkpt>
      <trkpt lat="50.65118" lon="5.16142">
        <ele>140</ele>
        <time>2018-11-13T17:11:30Z</time>
      </trkpt>
      <trkpt lat="50.651" lon="5.16164">
        <ele>141</ele>
        <time>2018-11-13T17:12:30Z</time>
      </trkpt>
      <trkpt lat="50.65042" lon="5.16239">
        <ele>142</ele>
        <time>2018-11-13T17:13:30Z</time>
      </trkpt>
      <trkpt lat="50.65022" lon="5.16266">
        <ele>142</ele>
        <time>2018-11-13T17:14:30Z</time>
      </trkpt>
      <trkpt lat="50.65005" lon="5.16283">
        <ele>141</ele>
        <time>2018-11-13T17:15:30Z</time>
      </trkpt>
      <trkpt lat="50.64977" lon="5.16311">
        <ele>140</ele>
        <time>2018-11-13T17:16:30Z</time>
      </trkpt>
      <trkpt lat="50.64914" lon="5.1637">
        <ele>138</ele>
        <time>2018-11-13T17:17:30Z</time>
      </trkpt>
      <trkpt lat="50.64827" lon="5.16431">
        <ele>136</ele>
        <time>2018-11-13T17:18:30Z</time>
      </trkpt>
      <trkpt lat="50.64794" lon="5.16456">
        <ele>136</ele>
        <time>2018-11-13T17:19:30Z</time>
      </trkpt>
      <trkpt lat="50.64737" lon="5.16494">
        <ele>136</ele>
        <time>2018-11-13T17:20:30Z</time>
      </trkpt>
      <trkpt lat="50.64729" lon="5.16501">
        <ele>136</ele>
        <time>2018-11-13T17:21:30Z</time>
      </trkpt>
      <trkpt lat="50.64704" lon="5.16529">
        <ele>136</ele>
        <time>2018-11-13T17:22:30Z</time>
      </trkpt>
      <trkpt lat="50.64666" lon="5.16574">
        <ele>136</ele>
        <time>2018-11-13T17:23:30Z</time>
      </trkpt>
      <trkpt lat="50.64596" lon="5.1666">
        <ele>138</ele>
        <time>2018-11-13T17:24:30Z</time>
      </trkpt>
      <trkpt lat="50.64552" lon="5.1672">
        <ele>140</ele>
        <time>2018-11-13T17:25:30Z</time>
      </trkpt>
      <trkpt lat="50.64441" lon="5.16869">
        <ele>146</ele>
        <time>2018-11-13T17:26:30Z</time>
      </trkpt>
      <trkpt lat="50.64425" lon="5.1689">
        <ele>147</ele>
        <time>2018-11-13T17:27:30Z</time>
      </trkpt>
      <trkpt lat="50.6432" lon="5.17044">
        <ele>147</ele>
        <time>2018-11-13T17:28:30Z</time>
      </trkpt>
      <trkpt lat="50.64305" lon="5.17064">
        <ele>147</ele>
        <time>2018-11-13T17:29:30Z</time>
      </trkpt>
      <trkpt lat="50.64167" lon="5.17183">
        <ele>146</ele>
        <time>2018-11-13T17:30:30Z</time>
      </trkpt>
      <trkpt lat="50.64007" lon="5.17307">
        <ele>146</ele>
        <time>2018-11-13T17:31:30Z</time>
      </trkpt>
      <trkpt lat="50.63993" lon="5.17321">
        <ele>146</ele>
        <time>2018-11-13T17:32:30Z</time>
      </trkpt>
      <trkpt lat="50.63965" lon="5.17349">
        <ele>147</ele>
        <time>2018-11-13T17:33:30Z</time>
      </trkpt>
      <trkpt lat="50.63941" lon="5.17383">
        <ele>148</ele>
        <time>2018-11-13T17:34:30Z</time>
      </trkpt>
      <trkpt lat="50.6393" lon="5.17398">
        <ele>149</ele>
        <time>2018-11-13T17:35:30Z</time>
      </trkpt>
      <trkpt lat="50.63918" lon="5.17421">
        <ele>150</ele>
        <time>2018-11-13T17:36:30Z</time>
      </trkpt>
      <trkpt lat="50.63909" lon="5.17452">
        <ele>151</ele>
        <time>2018-11-13T17:37:30Z</time>
      </trkpt>
      <trkpt lat="50.6389" lon="5.17518">
        <ele>152</ele>
        <time>2018-11-13T17:38:30Z</time>
      </trkpt>
      <trkpt lat="50.63897" lon="5.17539">
        <ele>152</ele>
        <time>2018-11-13T17:39:30Z</time>
      </trkpt>
      <trkpt lat="50.63902" lon="5.17551">
        <ele>152</ele>
        <time>2018-11-13T17:40:30Z</time>
      </trkpt>
      <trkpt lat="50.63918" lon="5.17589">
        <ele>152</ele>
        <time>2018-11-13T17:41:30Z</time>
      </trkpt>
      <trkpt lat="50.63925" lon="5.17608">
        <ele>151</ele>
        <time>2018-11-13T17:42:30Z</time>
      </trkpt>
      <trkpt lat="50.63928" lon="5.17625">
        <ele>151</ele>
        <time>2018-11-13T17:43:30Z</time>
      </trkpt>
      <trkpt lat="50.63934" lon="5.17695">
        <ele>151</ele>
        <time>2018-11-13T17:44:30Z</time>
      </trkpt>
      <trkpt lat="50.63937" lon="5.17708">
        <ele>151</ele>
        <time>2018-11-13T17:45:30Z</time>
      </trkpt>
      <trkpt lat="50.6394" lon="5.17722">
        <ele>151</ele>
        <time>2018-11-13T17:46:30Z</time>
      </trkpt>
      <trkpt lat="50.63957" lon="5.17783">
        <ele>150</ele>
        <time>2018-11-13T17:47:30Z</time>
      </trkpt>
      <trkpt lat="50.6397" lon="5.17823">
        <ele>149</ele>
        <time>2018-11-13T17:48:30Z</time>
      </trkpt>
      <trkpt lat="50.64013" lon="5.179">
        <ele>148</ele>
        <time>2018-11-13T17:49:30Z</time>
      </trkpt>
      <trkpt lat="50.64051" lon="5.17977">
        <ele>150</ele>
        <time>2018-11-13T17:50:30Z</time>
      </trkpt>
      <trkpt lat="50.64056" lon="5.17991">
        <ele>150</ele>
        <time>2018-11-13T17:51:30Z</time>
      </trkpt>
      <trkpt lat="50.64058" lon="5.18009">
        <ele>150</ele>
        <time>2018-11-13T17:52:30Z</time>
      </trkpt>
      <trkpt lat="50.64078" lon="5.18202">
        <ele>148</ele>
        <time>2018-11-13T17:53:30Z</time>
      </trkpt>
      <trkpt lat="50.64106" lon="5.18445">
        <ele>141</ele>
        <time>2018-11-13T17:54:30Z</time>
      </trkpt>
      <trkpt lat="50.64144" lon="5.18644">
        <ele>139</ele>
        <time>2018-11-13T17:55:30Z</time>
      </trkpt>
      <trkpt lat="50.64242" lon="5.19165">
        <ele>142</ele>
        <time>2018-11-13T17:56:30Z</time>
      </trkpt>
      <trkpt lat="50.64253" lon="5.19226">
        <ele>143</ele>
        <time>2018-11-13T17:57:30Z</time>
      </trkpt>
      <trkpt lat="50.64261" lon="5.19311">
        <ele>144</ele>
        <time>2018-11-13T17:58:30Z</time>
      </trkpt>
      <trkpt lat="50.64256" lon="5.1937">
        <ele>145</ele>
        <time>2018-11-13T17:59:30Z</time>
      </trkpt>
      <trkpt lat="50.64252" lon="5.19415">
        <ele>146</ele>
        <time>2018-11-13T18:00:30Z</time>
      </trkpt>
      <trkpt lat="50.64234" lon="5.19529">
        <ele>149</ele>
        <time>2018-11-13T18:01:30Z</time>
      </trkpt>
      <trkpt lat="50.64205" lon="5.1971">
        <ele>149</ele>
        <time>2018-11-13T18:02:30Z</time>
      </trkpt>
      <trkpt lat="50.64205" lon="5.19853">
        <ele>150</ele>
        <time>2018-11-13T18:03:30Z</time>
      </trkpt>
      <trkpt lat="50.6421" lon="5.20068">
        <ele>150</ele>
        <time>2018-11-13T18:04:30Z</time>
      </trkpt>
      <trkpt lat="50.64209" lon="5.201">
        <ele>150</ele>
        <time>2018-11-13T18:05:30Z</time>
      </trkpt>
      <trkpt lat="50.64179" lon="5.20378">
        <ele>149</ele>
        <time>2018-11-13T18:06:30Z</time>
      </trkpt>
      <trkpt lat="50.64173" lon="5.20447">
        <ele>149</ele>
        <time>2018-11-13T18:07:30Z</time>
      </trkpt>
      <trkpt lat="50.64177" lon="5.20483">
        <ele>148</ele>
        <time>2018-11-13T18:08:30Z</time>
      </trkpt>
      <trkpt lat="50.64171" lon="5.20572">
        <ele>148</ele>
        <time>2018-11-13T18:09:30Z</time>
      </trkpt>
      <trkpt lat="50.64165" lon="5.20645">
        <ele>149</ele>
        <time>2018-11-13T18:10:30Z</time>
      </trkpt>
      <trkpt lat="50.64147" lon="5.20815">
        <ele>151</ele>
        <time>2018-11-13T18:11:30Z</time>
      </trkpt>
      <trkpt lat="50.64126" lon="5.20978">
        <ele>153</ele>
        <time>2018-11-13T18:12:30Z</time>
      </trkpt>
      <trkpt lat="50.64127" lon="5.20999">
        <ele>153</ele>
        <time>2018-11-13T18:13:30Z</time>
      </trkpt>
      <trkpt lat="50.64116" lon="5.21102">
        <ele>155</ele>
        <time>2018-11-13T18:14:30Z</time>
      </trkpt>
      <trkpt lat="50.64099" lon="5.21211">
        <ele>155</ele>
        <time>2018-11-13T18:15:30Z</time>
      </trkpt>
      <trkpt lat="50.64088" lon="5.21274">
        <ele>156</ele>
        <time>2018-11-13T18:16:30Z</time>
      </trkpt>
      <trkpt lat="50.64075" lon="5.21335">
        <ele>156</ele>
        <time>2018-11-13T18:17:30Z</time>
      </trkpt>
      <trkpt lat="50.64058" lon="5.214">
        <ele>156</ele>
        <time>2018-11-13T18:18:30Z</time>
      </trkpt>
      <trkpt lat="50.64041" lon="5.21478">
        <ele>157</ele>
        <time>2018-11-13T18:19:30Z</time>
      </trkpt>
      <trkpt lat="50.6403" lon="5.21525">
        <ele>157</ele>
        <time>2018-11-13T18:20:30Z</time>
      </trkpt>
      <trkpt lat="50.64023" lon="5.21555">
        <ele>157</ele>
        <time>2018-11-13T18:21:30Z</time>
      </trkpt>
      <trkpt lat="50.64019" lon="5.21589">
        <ele>157</ele>
        <time>2018-11-13T18:22:30Z</time>
      </trkpt>
      <trkpt lat="50.64014" lon="5.21651">
        <ele>157</ele>
        <time>2018-11-13T18:23:30Z</time>
      </trkpt>
      <trkpt lat="50.64014" lon="5.21707">
        <ele>157</ele>
        <time>2018-11-13T18:24:30Z</time>
      </trkpt>
      <trkpt lat="50.64016" lon="5.21728">
        <ele>157</ele>
        <time>2018-11-13T18:25:30Z</time>
      </trkpt>
      <trkpt lat="50.64021" lon="5.21763">
        <ele>156</ele>
        <time>2018-11-13T18:26:30Z</time>
      </trkpt>
      <trkpt lat="50.63996" lon="5.2185">
        <ele>157</ele>
        <time>2018-11-13T18:27:30Z</time>
      </trkpt>
      <trkpt lat="50.63989" lon="5.21875">
        <ele>156</ele>
        <time>2018-11-13T18:28:30Z</time>
      </trkpt>
      <trkpt lat="50.63985" lon="5.21895">
        <ele>156</ele>
        <time>2018-11-13T18:29:30Z</time>
      </trkpt>
      <trkpt lat="50.63981" lon="5.21916">
        <ele>155</ele>
        <time>2018-11-13T18:30:30Z</time>
      </trkpt>
      <trkpt lat="50.63978" lon="5.2194">
        <ele>155</ele>
        <time>2018-11-13T18:31:30Z</time>
      </trkpt>
      <trkpt lat="50.63974" lon="5.21957">
        <ele>155</ele>
        <time>2018-11-13T18:32:30Z</time>
      </trkpt>
      <trkpt lat="50.63961" lon="5.22">
        <ele>155</ele>
        <time>2018-11-13T18:33:30Z</time>
      </trkpt>
      <trkpt lat="50.63952" lon="5.22017">
        <ele>154</ele>
        <time>2018-11-13T18:34:30Z</time>
      </trkpt>
      <trkpt lat="50.63929" lon="5.22067">
        <ele>153</ele>
        <time>2018-11-13T18:35:30Z</time>
      </trkpt>
      <trkpt lat="50.63896" lon="5.22131">
        <ele>153</ele>
        <time>2018-11-13T18:36:30Z</time>
      </trkpt>
      <trkpt lat="50.63885" lon="5.22154">
        <ele>153</ele>
        <time>2018-11-13T18:37:30Z</time>
      </trkpt>
      <trkpt lat="50.63844" lon="5.2223">
        <ele>153</ele>
        <time>2018-11-13T18:38:30Z</time>
      </trkpt>
      <trkpt lat="50.638" lon="5.22308">
        <ele>154</ele>
        <time>2018-11-13T18:39:30Z</time>
      </trkpt>
      <trkpt lat="50.63787" lon="5.22322">
        <ele>155</ele>
        <time>2018-11-13T18:40:30Z</time>
      </trkpt>
      <trkpt lat="50.63778" lon="5.22333">
        <ele>155</ele>
        <time>2018-11-13T18:41:30Z</time>
      </trkpt>
      <trkpt lat="50.63783" lon="5.22359">
        <ele>156</ele>
        <time>2018-11-13T18:42:30Z</time>
      </trkpt>
      <trkpt lat="50.63788" lon="5.22377">
        <ele>156</ele>
        <time>2018-11-13T18:43:30Z</time>
      </trkpt>
      <trkpt lat="50.6382" lon="5.22492">
        <ele>157</ele>
        <time>2018-11-13T18:44:30Z</time>
      </trkpt>
      <trkpt lat="50.63821" lon="5.22508">
        <ele>158</ele>
        <time>2018-11-13T18:45:30Z</time>
      </trkpt>
      <trkpt lat="50.63817" lon="5.22542">
        <ele>158</ele>
        <time>2018-11-13T18:46:30Z</time>
      </trkpt>
      <trkpt lat="50.63798" lon="5.22676">
        <ele>162</ele>
        <time>2018-11-13T18:47:30Z</time>
      </trkpt>
      <trkpt lat="50.63795" lon="5.22694">
        <ele>162</ele>
        <time>2018-11-13T18:48:30Z</time>
      </trkpt>
      <trkpt lat="50.63784" lon="5.22709">
        <ele>162</ele>
        <time>2018-11-13T18:49:30Z</time>
      </trkpt>
      <trkpt lat="50.63619" lon="5.22839">
        <ele>161</ele>
        <time>2018-11-13T18:50:30Z</time>
      </trkpt>
      <trkpt lat="50.63586" lon="5.22866">
        <ele>160</ele>
        <time>2018-11-13T18:51:30Z</time>
      </trkpt>
      <trkpt lat="50.63575" lon="5.22875">
        <ele>160</ele>
        <time>2018-11-13T18:52:30Z</time>
      </trkpt>
      <trkpt lat="50.63569" lon="5.22883">
        <ele>160</ele>
        <time>2018-11-13T18:53:30Z</time>
      </trkpt>
      <trkpt lat="50.63566" lon="5.22891">
        <ele>160</ele>
        <time>2018-11-13T18:54:30Z</time>
      </trkpt>
      <trkpt lat="50.63566" lon="5.22901">
        <ele>159</ele>
        <time>2018-11-13T18:55:30Z</time>
      </trkpt>
      <trkpt lat="50.63569" lon="5.22915">
        <ele>159</ele>
        <time>2018-11-13T18:56:30Z</time>
      </trkpt>
      <trkpt lat="50.63576" lon="5.22927">
        <ele>159</ele>
        <time>2018-11-13T18:57:30Z</time>
      </trkpt>
      <trkpt lat="50.63595" lon="5.22966">
        <ele>160</ele>
        <time>2018-11-13T18:58:30Z</time>
      </trkpt>
      <trkpt lat="50.63693" lon="5.23159">
        <ele>153</ele>
        <time>2018-11-13T18:59:30Z</time>
      </trkpt>
      <trkpt lat="50.63677" lon="5.23192">
        <ele>153</ele>
        <time>2018-11-13T19:00:30Z</time>
      </trkpt>
      <trkpt lat="50.63633" lon="5.23281">
        <ele>156</ele>
        <time>2018-11-13T19:01:30Z</time>
      </trkpt>
      <trkpt lat="50.63591" lon="5.23368">
        <ele>158</ele>
        <time>2018-11-13T19:02:30Z</time>
      </trkpt>
      <trkpt lat="50.63571" lon="5.23415">
        <ele>160</ele>
        <time>2018-11-13T19:03:30Z</time>
      </trkpt>
      <trkpt lat="50.63561" lon="5.23442">
        <ele>160</ele>
        <time>2018-11-13T19:04:30Z</time>
      </trkpt>
      <trkpt lat="50.63555" lon="5.23463">
        <ele>160</ele>
        <time>2018-11-13T19:05:30Z</time>
      </trkpt>
      <trkpt lat="50.63494" lon="5.2366">
        <ele>159</ele>
        <time>2018-11-13T19:06:30Z</time>
      </trkpt>
      <trkpt lat="50.63461" lon="5.23769">
        <ele>155</ele>
        <time>2018-11-13T19:07:30Z</time>
      </trkpt>
      <trkpt lat="50.6336" lon="5.2409">
        <ele>161</ele>
        <time>2018-11-13T19:08:30Z</time>
      </trkpt>
      <trkpt lat="50.6334" lon="5.24153">
        <ele>161</ele>
        <time>2018-11-13T19:09:30Z</time>
      </trkpt>
      <trkpt lat="50.63324" lon="5.2418">
        <ele>161</ele>
        <time>2018-11-13T19:10:30Z</time>
      </trkpt>
      <trkpt lat="50.63303" lon="5.24208">
        <ele>161</ele>
        <time>2018-11-13T19:11:30Z</time>
      </trkpt>
      <trkpt lat="50.63294" lon="5.24223">
        <ele>161</ele>
        <time>2018-11-13T19:12:30Z</time>
      </trkpt>
      <trkpt lat="50.6329" lon="5.24236">
        <ele>162</ele>
        <time>2018-11-13T19:13:30Z</time>
      </trkpt>
      <trkpt lat="50.63295" lon="5.24268">
        <ele>161</ele>
        <time>2018-11-13T19:14:30Z</time>
      </trkpt>
      <trkpt lat="50.63303" lon="5.24289">
        <ele>161</ele>
        <time>2018-11-13T19:15:30Z</time>
      </trkpt>
      <trkpt lat="50.63312" lon="5.24312">
        <ele>161</ele>
        <time>2018-11-13T19:16:30Z</time>
      </trkpt>
      <trkpt lat="50.63318" lon="5.24323">
        <ele>161</ele>
        <time>2018-11-13T19:17:30Z</time>
      </trkpt>
      <trkpt lat="50.63324" lon="5.24333">
        <ele>161</ele>
        <time>2018-11-13T19:18:30Z</time>
      </trkpt>
      <trkpt lat="50.63334" lon="5.24342">
        <ele>161</ele>
        <time>2018-11-13T19:19:30Z</time>
      </trkpt>
      <trkpt lat="50.63349" lon="5.24338">
        <ele>161</ele>
        <time>2018-11-13T19:20:30Z</time>
      </trkpt>
      <trkpt lat="50.63362" lon="5.24341">
        <ele>161</ele>
        <time>2018-11-13T19:21:30Z</time>
      </trkpt>
      <trkpt lat="50.63375" lon="5.24346">
        <ele>160</ele>
        <time>2018-11-13T19:22:30Z</time>
      </trkpt>
      <trkpt lat="50.63392" lon="5.24358">
        <ele>160</ele>
        <time>2018-11-13T19:23:30Z</time>
      </trkpt>
      <trkpt lat="50.63408" lon="5.2437">
        <ele>159</ele>
        <time>2018-11-13T19:24:30Z</time>
      </trkpt>
      <trkpt lat="50.63429" lon="5.24393">
        <ele>159</ele>
        <time>2018-11-13T19:25:30Z</time>
      </trkpt>
      <trkpt lat="50.63497" lon="5.24473">
        <ele>158</ele>
        <time>2018-11-13T19:26:30Z</time>
      </trkpt>
      <trkpt lat="50.63533" lon="5.24523">
        <ele>158</ele>
        <time>2018-11-13T19:27:30Z</time>
      </trkpt>
      <trkpt lat="50.63557" lon="5.24561">
        <ele>157</ele>
        <time>2018-11-13T19:28:30Z</time>
      </trkpt>
      <trkpt lat="50.63568" lon="5.24584">
        <ele>157</ele>
        <time>2018-11-13T19:29:30Z</time>
      </trkpt>
      <trkpt lat="50.63588" lon="5.24626">
        <ele>156</ele>
        <time>2018-11-13T19:30:30Z</time>
      </trkpt>
      <trkpt lat="50.63609" lon="5.24681">
        <ele>155</ele>
        <time>2018-11-13T19:31:30Z</time>
      </trkpt>
      <trkpt lat="50.63645" lon="5.24772">
        <ele>153</ele>
        <time>2018-11-13T19:32:30Z</time>
      </trkpt>
      <trkpt lat="50.6369" lon="5.24887">
        <ele>152</ele>
        <time>2018-11-13T19:33:30Z</time>
      </trkpt>
      <trkpt lat="50.6371" lon="5.24942">
        <ele>151</ele>
        <time>2018-11-13T19:34:30Z</time>
      </trkpt>
      <trkpt lat="50.63725" lon="5.24985">
        <ele>151</ele>
        <time>2018-11-13T19:35:30Z</time>
      </trkpt>
      <trkpt lat="50.63744" lon="5.25049">
        <ele>151</ele>
        <time>2018-11-13T19:36:30Z</time>
      </trkpt>
      <trkpt lat="50.6381" lon="5.25256">
        <ele>156</ele>
        <time>2018-11-13T19:37:30Z</time>
      </trkpt>
      <trkpt lat="50.63865" lon="5.25435">
        <ele>155</ele>
        <time>2018-11-13T19:38:30Z</time>
      </trkpt>
      <trkpt lat="50.63908" lon="5.25569">
        <ele>158</ele>
        <time>2018-11-13T19:39:30Z</time>
      </trkpt>
      <trkpt lat="50.63968" lon="5.25762">
        <ele>158</ele>
        <time>2018-11-13T19:40:30Z</time>
      </trkpt>
      <trkpt lat="50.64006" lon="5.25889">
        <ele>158</ele>
        <time>2018-11-13T19:41:30Z</time>
      </trkpt>
      <trkpt lat="50.64016" lon="5.25931">
        <ele>158</ele>
        <time>2018-11-13T19:42:30Z</time>
      </trkpt>
      <trkpt lat="50.64022" lon="5.25974">
        <ele>159</ele>
        <time>2018-11-13T19:43:30Z</time>
      </trkpt>
      <trkpt lat="50.64028" lon="5.26068">
        <ele>158</ele>
        <time>2018-11-13T19:44:30Z</time>
      </trkpt>
      <trkpt lat="50.64033" lon="5.26132">
        <ele>157</ele>
        <time>2018-11-13T19:45:30Z</time>
      </trkpt>
      <trkpt lat="50.6404" lon="5.26179">
        <ele>156</ele>
        <time>2018-11-13T19:46:30Z</time>
      </trkpt>
      <trkpt lat="50.64053" lon="5.26248">
        <ele>153</ele>
        <time>2018-11-13T19:47:30Z</time>
      </trkpt>
      <trkpt lat="50.64063" lon="5.26307">
        <ele>152</ele>
        <time>2018-11-13T19:48:30Z</time>
      </trkpt>
      <trkpt lat="50.64064" lon="5.2633">
        <ele>152</ele>
        <time>2018-11-13T19:49:30Z</time>
      </trkpt>
      <trkpt lat="50.64065" lon="5.26357">
        <ele>152</ele>
        <time>2018-11-13T19:50:30Z</time>
      </trkpt>
      <trkpt lat="50.64052" lon="5.26425">
        <ele>152</ele>
        <time>2018-11-13T19:51:30Z</time>
      </trkpt>
      <trkpt lat="50.64044" lon="5.26473">
        <ele>152</ele>
        <time>2018-11-13T19:52:30Z</time>
      </trkpt>
      <trkpt lat="50.6404" lon="5.26495">
        <ele>152</ele>
        <time>2018-11-13T19:53:30Z</time>
      </trkpt>
      <trkpt lat="50.64038" lon="5.26521">
        <ele>153</ele>
        <time>2018-11-13T19:54:30Z</time>
      </trkpt>
      <trkpt lat="50.64042" lon="5.26539">
        <ele>153</ele>
        <time>2018-11-13T19:55:30Z</time>
      </trkpt>
      <trkpt lat="50.64049" lon="5.26555">
        <ele>153</ele>
        <time>2018-11-13T19:56:30Z</time>
      </trkpt>
      <trkpt lat="50.6408" lon="5.26603">
        <ele>153</ele>
        <time>2018-11-13T19:57:30Z</time>
      </trkpt>
      <trkpt lat="50.64096" lon="5.26635">
        <ele>153</ele>
        <time>2018-11-13T19:58:30Z</time>
      </trkpt>
      <trkpt lat="50.641" lon="5.26662">
        <ele>154</ele>
        <time>2018-11-13T19:59:30Z</time>
      </trkpt>
      <trkpt lat="50.64102" lon="5.2671">
        <ele>154</ele>
        <time>2018-11-13T20:00:30Z</time>
      </trkpt>
      <trkpt lat="50.64103" lon="5.26743">
        <ele>155</ele>
        <time>2018-11-13T20:01:30Z</time>
      </trkpt>
      <trkpt lat="50.64112" lon="5.26789">
        <ele>156</ele>
        <time>2018-11-13T20:02:30Z</time>
      </trkpt>
      <trkpt lat="50.64125" lon="5.26843">
        <ele>157</ele>
        <time>2018-11-13T20:03:30Z</time>
      </trkpt>
      <trkpt lat="50.64129" lon="5.26862">
        <ele>157</ele>
        <time>2018-11-13T20:04:30Z</time>
      </trkpt>
      <trkpt lat="50.64128" lon="5.26879">
        <ele>157</ele>
        <time>2018-11-13T20:05:30Z</time>
      </trkpt>
      <trkpt lat="50.64124" lon="5.26891">
        <ele>158</ele>
        <time>2018-11-13T20:06:30Z</time>
      </trkpt>
      <trkpt lat="50.64125" lon="5.26913">
        <ele>158</ele>
        <time>2018-11-13T20:07:30Z</time>
      </trkpt>
      <trkpt lat="50.64138" lon="5.2693">
        <ele>158</ele>
        <time>2018-11-13T20:08:30Z</time>
      </trkpt>
      <trkpt lat="50.64154" lon="5.27004">
        <ele>159</ele>
        <time>2018-11-13T20:09:30Z</time>
      </trkpt>
      <trkpt lat="50.64184" lon="5.27141">
        <ele>160</ele>
        <time>2018-11-13T20:10:30Z</time>
      </trkpt>
      <trkpt lat="50.642" lon="5.27237">
        <ele>160</ele>
        <time>2018-11-13T20:11:30Z</time>
      </trkpt>
      <trkpt lat="50.64204" lon="5.27259">
        <ele>160</ele>
        <time>2018-11-13T20:12:30Z</time>
      </trkpt>
      <trkpt lat="50.64209" lon="5.27279">
        <ele>159</ele>
        <time>2018-11-13T20:13:30Z</time>
      </trkpt>
      <trkpt lat="50.64222" lon="5.27319">
        <ele>159</ele>
        <time>2018-11-13T20:14:30Z</time>
      </trkpt>
      <trkpt lat="50.64226" lon="5.27336">
        <ele>159</ele>
        <time>2018-11-13T20:15:30Z</time>
      </trkpt>
      <trkpt lat="50.64032" lon="5.27545">
        <ele>162</ele>
        <time>2018-11-13T20:16:30Z</time>
      </trkpt>
      <trkpt lat="50.63988" lon="5.27599">
        <ele>162</ele>
        <time>2018-11-13T20:17:30Z</time>
      </trkpt>
      <trkpt lat="50.6391" lon="5.27694">
        <ele>160</ele>
        <time>2018-11-13T20:18:30Z</time>
      </trkpt>
      <trkpt lat="50.63797" lon="5.27829">
        <ele>157</ele>
        <time>2018-11-13T20:19:30Z</time>
      </trkpt>
      <trkpt lat="50.63674" lon="5.27977">
        <ele>157</ele>
        <time>2018-11-13T20:20:30Z</time>
      </trkpt>
      <trkpt lat="50.63659" lon="5.27995">
        <ele>157</ele>
        <time>2018-11-13T20:21:30Z</time>
      </trkpt>
      <trkpt lat="50.63468" lon="5.28225">
        <ele>160</ele>
        <time>2018-11-13T20:22:30Z</time>
      </trkpt>
      <trkpt lat="50.63418" lon="5.28286">
        <ele>161</ele>
        <time>2018-11-13T20:23:30Z</time>
      </trkpt>
      <trkpt lat="50.63279" lon="5.28453">
        <ele>166</ele>
        <time>2018-11-13T20:24:30Z</time>
      </trkpt>
      <trkpt lat="50.63181" lon="5.28571">
        <ele>169</ele>
        <time>2018-11-13T20:25:30Z</time>
      </trkpt>
      <trkpt lat="50.62527" lon="5.29362">
        <ele>175</ele>
        <time>2018-11-13T20:26:30Z</time>
      </trkpt>
      <trkpt lat="50.62422" lon="5.29467">
        <ele>173</ele>
        <time>2018-11-13T20:27:30Z</time>
      </trkpt>
      <trkpt lat="50.624" lon="5.29491">
        <ele>172</ele>
        <time>2018-11-13T20:28:30Z</time>
      </trkpt>
      <trkpt lat="50.62386" lon="5.29506">
        <ele>171</ele>
        <time>2018-11-13T20:29:30Z</time>
      </trkpt>
      <trkpt lat="50.62365" lon="5.29531">
        <ele>170</ele>
        <time>2018-11-13T20:30:30Z</time>
      </trkpt>
      <trkpt lat="50.62338" lon="5.29566">
        <ele>169</ele>
        <time>2018-11-13T20:31:30Z</time>
      </trkpt>
      <trkpt lat="50.62322" lon="5.29599">
        <ele>168</ele>
        <time>2018-11-13T20:32:30Z</time>
      </trkpt>
      <trkpt lat="50.62306" lon="5.29626">
        <ele>168</ele>
        <time>2018-11-13T20:33:30Z</time>
      </trkpt>
      <trkpt lat="50.62291" lon="5.29647">
        <ele>167</ele>
        <time>2018-11-13T20:34:30Z</time>
      </trkpt>
      <trkpt lat="50.62272" lon="5.29668">
        <ele>167</ele>
        <time>2018-11-13T20:35:30Z</time>
      </trkpt>
      <trkpt lat="50.62259" lon="5.29682">
        <ele>167</ele>
        <time>2018-11-13T20:36:30Z</time>
      </trkpt>
      <trkpt lat="50.62243" lon="5.29704">
        <ele>167</ele>
        <time>2018-11-13T20:37:30Z</time>
      </trkpt>
      <trkpt lat="50.62217" lon="5.29733">
        <ele>166</ele>
        <time>2018-11-13T20:38:30Z</time>
      </trkpt>
      <trkpt lat="50.62144" lon="5.29808">
        <ele>164</ele>
        <time>2018-11-13T20:39:30Z</time>
      </trkpt>
      <trkpt lat="50.62087" lon="5.29869">
        <ele>164</ele>
        <time>2018-11-13T20:40:30Z</time>
      </trkpt>
      <trkpt lat="50.62054" lon="5.2991">
        <ele>163</ele>
        <time>2018-11-13T20:41:30Z</time>
      </trkpt>
      <trkpt lat="50.62023" lon="5.29948">
        <ele>163</ele>
        <time>2018-11-13T20:42:30Z</time>
      </trkpt>
      <trkpt lat="50.62012" lon="5.29964">
        <ele>163</ele>
        <time>2018-11-13T20:43:30Z</time>
      </trkpt>
      <trkpt lat="50.62002" lon="5.29981">
        <ele>163</ele>
        <time>2018-11-13T20:44:30Z</time>
      </trkpt>
      <trkpt lat="50.61991" lon="5.3">
        <ele>163</ele>
        <time>2018-11-13T20:45:30Z</time>
      </trkpt>
      <trkpt lat="50.61979" lon="5.3003">
        <ele>162</ele>
        <time>2018-11-13T20:46:30Z</time>
      </trkpt>
      <trkpt lat="50.61971" lon="5.30067">
        <ele>162</ele>
        <time>2018-11-13T20:47:30Z</time>
      </trkpt>
      <trkpt lat="50.61953" lon="5.30147">
        <ele>162</ele>
        <time>2018-11-13T20:48:30Z</time>
      </trkpt>
      <trkpt lat="50.61941" lon="5.30187">
        <ele>163</ele>
        <time>2018-11-13T20:49:30Z</time>
      </trkpt>
      <trkpt lat="50.61926" lon="5.30217">
        <ele>163</ele>
        <time>2018-11-13T20:50:30Z</time>
      </trkpt>
      <trkpt lat="50.61913" lon="5.30239">
        <ele>164</ele>
        <time>2018-11-13T20:51:30Z</time>
      </trkpt>
      <trkpt lat="50.61896" lon="5.30257">
        <ele>164</ele>
        <time>2018-11-13T20:52:30Z</time>
      </trkpt>
      <trkpt lat="50.61842" lon="5.30303">
        <ele>166</ele>
        <time>2018-11-13T20:53:30Z</time>
      </trkpt>
      <trkpt lat="50.6181" lon="5.30334">
        <ele>167</ele>
        <time>2018-11-13T20:54:30Z</time>
      </trkpt>
      <trkpt lat="50.61759" lon="5.30373">
        <ele>168</ele>
        <time>2018-11-13T20:55:30Z</time>
      </trkpt>
      <trkpt lat="50.61683" lon="5.30432">
        <ele>171</ele>
        <time>2018-11-13T20:56:30Z</time>
      </trkpt>
      <trkpt lat="50.61564" lon="5.30524">
        <ele>174</ele>
        <time>2018-11-13T20:57:30Z</time>
      </trkpt>
      <trkpt lat="50.61532" lon="5.3055">
        <ele>174</ele>
        <time>2018-11-13T20:58:30Z</time>
      </trkpt>
      <trkpt lat="50.61497" lon="5.30573">
        <ele>174</ele>
        <time>2018-11-13T20:59:30Z</time>
      </trkpt>
      <trkpt lat="50.61417" lon="5.30621">
        <ele>176</ele>
        <time>2018-11-13T21:00:30Z</time>
      </trkpt>
      <trkpt lat="50.61401" lon="5.30629">
        <ele>176</ele>
        <time>2018-11-13T21:01:30Z</time>
      </trkpt>
      <trkpt lat="50.61387" lon="5.30643">
        <ele>177</ele>
        <time>2018-11-13T21:02:30Z</time>
      </trkpt>
      <trkpt lat="50.61397" lon="5.30662">
        <ele>177</ele>
        <time>2018-11-13T21:03:30Z</time>
      </trkpt>
      <trkpt lat="50.61546" lon="5.30879">
        <ele>175</ele>
        <time>2018-11-13T21:04:30Z</time>
      </trkpt>
      <trkpt lat="50.61634" lon="5.31006">
        <ele>174</ele>
        <time>2018-11-13T21:05:30Z</time>
      </trkpt>
      <trkpt lat="50.61732" lon="5.31147">
        <ele>172</ele>
        <time>2018-11-13T21:06:30Z</time>
      </trkpt>
      <trkpt lat="50.61776" lon="5.31212">
        <ele>171</ele>
        <time>2018-11-13T21:07:30Z</time>
      </trkpt>
      <trkpt lat="50.61799" lon="5.3125">
        <ele>170</ele>
        <time>2018-11-13T21:08:30Z</time>
      </trkpt>
      <trkpt lat="50.61949" lon="5.31494">
        <ele>166</ele>
        <time>2018-11-13T21:09:30Z</time>
      </trkpt>
      <trkpt lat="50.62112" lon="5.31755">
        <ele>161</ele>
        <time>2018-11-13T21:10:30Z</time>
      </trkpt>
      <trkpt lat="50.62436" lon="5.32283">
        <ele>158</ele>
        <time>2018-11-13T21:11:30Z</time>
      </trkpt>
      <trkpt lat="50.62466" lon="5.3233">
        <ele>158</ele>
        <time>2018-11-13T21:12:30Z</time>
      </trkpt>
      <trkpt lat="50.62492" lon="5.3237">
        <ele>158</ele>
        <time>2018-11-13T21:13:30Z</time>
      </trkpt>
      <trkpt lat="50.62506" lon="5.32404">
        <ele>158</ele>
        <time>2018-11-13T21:14:30Z</time>
      </trkpt>
      <trkpt lat="50.62532" lon="5.32467">
        <ele>158</ele>
        <time>2018-11-13T21:15:30Z</time>
      </trkpt>
      <trkpt lat="50.62568" lon="5.32566">
        <ele>158</ele>
        <time>2018-11-13T21:16:30Z</time>
      </trkpt>
      <trkpt lat="50.62727" lon="5.32999">
        <ele>156</ele>
        <time>2018-11-13T21:17:30Z</time>
      </trkpt>
      <trkpt lat="50.62733" lon="5.33011">
        <ele>157</ele>
        <time>2018-11-13T21:18:30Z</time>
      </trkpt>
      <trkpt lat="50.62745" lon="5.33024">
        <ele>158</ele>
        <time>2018-11-13T21:19:30Z</time>
      </trkpt>
      <trkpt lat="50.62754" lon="5.33028">
        <ele>158</ele>
        <time>2018-11-13T21:20:30Z</time>
      </trkpt>
      <trkpt lat="50.62766" lon="5.33031">
        <ele>158</ele>
        <time>2018-11-13T21:21:30Z</time>
      </trkpt>
      <trkpt lat="50.62783" lon="5.3303">
        <ele>159</ele>
        <time>2018-11-13T21:22:30Z</time>
      </trkpt>
      <trkpt lat="50.62803" lon="5.33027">
        <ele>159</ele>
        <time>2018-11-13T21:23:30Z</time>
      </trkpt>
      <trkpt lat="50.62851" lon="5.33013">
        <ele>159</ele>
        <time>2018-11-13T21:24:30Z</time>
      </trkpt>
      <trkpt lat="50.62893" lon="5.32997">
        <ele>158</ele>
        <time>2018-11-13T21:25:30Z</time>
      </trkpt>
      <trkpt lat="50.62916" lon="5.32986">
        <ele>158</ele>
        <time>2018-11-13T21:26:30Z</time>
      </trkpt>
      <trkpt lat="50.62928" lon="5.32979">
        <ele>157</ele>
        <time>2018-11-13T21:27:30Z</time>
      </trkpt>
      <trkpt lat="50.62948" lon="5.32962">
        <ele>156</ele>
        <time>2018-11-13T21:28:30Z</time>
      </trkpt>
      <trkpt lat="50.62963" lon="5.32947">
        <ele>156</ele>
        <time>2018-11-13T21:29:30Z</time>
      </trkpt>
      <trkpt lat="50.62989" lon="5.32916">
        <ele>154</ele>
        <time>2018-11-13T21:30:30Z</time>
      </trkpt>
      <trkpt lat="50.63018" lon="5.32961">
        <ele>157</ele>
        <time>2018-11-13T21:31:30Z</time>
      </trkpt>
      <trkpt lat="50.63023" lon="5.32971">
        <ele>158</ele>
        <time>2018-11-13T21:32:30Z</time>
      </trkpt>
      <trkpt lat="50.63028" lon="5.32986">
        <ele>159</ele>
        <time>2018-11-13T21:33:30Z</time>
      </trkpt>
      <trkpt lat="50.63029" lon="5.33002">
        <ele>160</ele>
        <time>2018-11-13T21:34:30Z</time>
      </trkpt>
      <trkpt lat="50.63039" lon="5.33133">
        <ele>165</ele>
        <time>2018-11-13T21:35:30Z</time>
      </trkpt>
      <trkpt lat="50.63053" lon="5.33247">
        <ele>167</ele>
        <time>2018-11-13T21:36:30Z</time>
      </trkpt>
      <trkpt lat="50.63064" lon="5.33315">
        <ele>168</ele>
        <time>2018-11-13T21:37:30Z</time>
      </trkpt>
      <trkpt lat="50.6308" lon="5.33376">
        <ele>169</ele>
        <time>2018-11-13T21:38:30Z</time>
      </trkpt>
      <trkpt lat="50.63089" lon="5.33432">
        <ele>169</ele>
        <time>2018-11-13T21:39:30Z</time>
      </trkpt>
      <trkpt lat="50.63102" lon="5.33459">
        <ele>170</ele>
        <time>2018-11-13T21:40:30Z</time>
      </trkpt>
      <trkpt lat="50.6311" lon="5.33475">
        <ele>170</ele>
        <time>2018-11-13T21:41:30Z</time>
      </trkpt>
      <trkpt lat="50.63125" lon="5.33492">
        <ele>171</ele>
        <time>2018-11-13T21:42:30Z</time>
      </trkpt>
      <trkpt lat="50.63145" lon="5.3351">
        <ele>171</ele>
        <time>2018-11-13T21:43:30Z</time>
      </trkpt>
      <trkpt lat="50.63159" lon="5.33516">
        <ele>171</ele>
        <time>2018-11-13T21:44:30Z</time>
      </trkpt>
      <trkpt lat="50.6329" lon="5.33554">
        <ele>171</ele>
        <time>2018-11-13T21:45:30Z</time>
      </trkpt>
      <trkpt lat="50.63478" lon="5.33599">
        <ele>171</ele>
        <time>2018-11-13T21:46:30Z</time>
      </trkpt>
      <trkpt lat="50.63494" lon="5.33604">
        <ele>171</ele>
        <time>2018-11-13T21:47:30Z</time>
      </trkpt>
      <trkpt lat="50.63489" lon="5.33643">
        <ele>172</ele>
        <time>2018-11-13T21:48:30Z</time>
      </trkpt>
      <trkpt lat="50.63483" lon="5.33739">
        <ele>173</ele>
        <time>2018-11-13T21:49:30Z</time>
      </trkpt>
      <trkpt lat="50.6348" lon="5.34016">
        <ele>174</ele>
        <time>2018-11-13T21:50:30Z</time>
      </trkpt>
      <trkpt lat="50.63478" lon="5.34134">
        <ele>175</ele>
        <time>2018-11-13T21:51:30Z</time>
      </trkpt>
      <trkpt lat="50.6346" lon="5.34242">
        <ele>175</ele>
        <time>2018-11-13T21:52:30Z</time>
      </trkpt>
      <trkpt lat="50.63423" lon="5.34459">
        <ele>172</ele>
        <time>2018-11-13T21:53:30Z</time>
      </trkpt>
      <trkpt lat="50.63382" lon="5.34685">
        <ele>174</ele>
        <time>2018-11-13T21:54:30Z</time>
      </trkpt>
      <trkpt lat="50.63353" lon="5.34854">
        <ele>177</ele>
        <time>2018-11-13T21:55:30Z</time>
      </trkpt>
      <trkpt lat="50.63345" lon="5.34932">
        <ele>175</ele>
        <time>2018-11-13T21:56:30Z</time>
      </trkpt>
      <trkpt lat="50.63331" lon="5.35133">
        <ele>173</ele>
        <time>2018-11-13T21:57:30Z</time>
      </trkpt>
      <trkpt lat="50.63327" lon="5.35223">
        <ele>172</ele>
        <time>2018-11-13T21:58:30Z</time>
      </trkpt>
      <trkpt lat="50.63323" lon="5.35418">
        <ele>170</ele>
        <time>2018-11-13T21:59:30Z</time>
      </trkpt>
      <trkpt lat="50.63318" lon="5.355">
        <ele>171</ele>
        <time>2018-11-13T22:00:30Z</time>
      </trkpt>
      <trkpt lat="50.63297" lon="5.35699">
        <ele>174</ele>
        <time>2018-11-13T22:01:30Z</time>
      </trkpt>
      <trkpt lat="50.63264" lon="5.36024">
        <ele>178</ele>
        <time>2018-11-13T22:02:30Z</time>
      </trkpt>
      <trkpt lat="50.63262" lon="5.3605">
        <ele>178</ele>
        <time>2018-11-13T22:03:30Z</time>
      </trkpt>
      <trkpt lat="50.63264" lon="5.36087">
        <ele>178</ele>
        <time>2018-11-13T22:04:30Z</time>
      </trkpt>
      <trkpt lat="50.63289" lon="5.36301">
        <ele>179</ele>
        <time>2018-11-13T22:05:30Z</time>
      </trkpt>
      <trkpt lat="50.63293" lon="5.36337">
        <ele>179</ele>
        <time>2018-11-13T22:06:30Z</time>
      </trkpt>
      <trkpt lat="50.63295" lon="5.36494">
        <ele>179</ele>
        <time>2018-11-13T22:07:30Z</time>
      </trkpt>
      <trkpt lat="50.63295" lon="5.36669">
        <ele>178</ele>
        <time>2018-11-13T22:08:30Z</time>
      </trkpt>
      <trkpt lat="50.63294" lon="5.36743">
        <ele>177</ele>
        <time>2018-11-13T22:09:30Z</time>
      </trkpt>
      <trkpt lat="50.63295" lon="5.36783">
        <ele>176</ele>
        <time>2018-11-13T22:10:30Z</time>
      </trkpt>
      <trkpt lat="50.63301" lon="5.36861">
        <ele>175</ele>
        <time>2018-11-13T22:11:30Z</time>
      </trkpt>
      <trkpt lat="50.63308" lon="5.36959">
        <ele>176</ele>
        <time>2018-11-13T22:12:30Z</time>
      </trkpt>
      <trkpt lat="50.63321" lon="5.37118">
        <ele>177</ele>
        <time>2018-11-13T22:13:30Z</time>
      </trkpt>
      <trkpt lat="50.63344" lon="5.37404">
        <ele>176</ele>
        <time>2018-11-13T22:14:30Z</time>
      </trkpt>
      <trkpt lat="50.63355" lon="5.37528">
        <ele>175</ele>
        <time>2018-11-13T22:15:30Z</time>
      </trkpt>
      <trkpt lat="50.63378" lon="5.37833">
        <ele>169</ele>
        <time>2018-11-13T22:16:30Z</time>
      </trkpt>
      <trkpt lat="50.63401" lon="5.38143">
        <ele>167</ele>
        <time>2018-11-13T22:17:30Z</time>
      </trkpt>
      <trkpt lat="50.63421" lon="5.38414">
        <ele>164</ele>
        <time>2018-11-13T22:18:30Z</time>
      </trkpt>
      <trkpt lat="50.63439" lon="5.38636">
        <ele>162</ele>
        <time>2018-11-13T22:19:30Z</time>
      </trkpt>
      <trkpt lat="50.6345" lon="5.38805">
        <ele>162</ele>
        <time>2018-11-13T22:20:30Z</time>
      </trkpt>
      <trkpt lat="50.63464" lon="5.38972">
        <ele>163</ele>
        <time>2018-11-13T22:21:30Z</time>
      </trkpt>
      <trkpt lat="50.63485" lon="5.39235">
        <ele>161</ele>
        <time>2018-11-13T22:22:30Z</time>
      </trkpt>
      <trkpt lat="50.63505" lon="5.39466">
        <ele>163</ele>
        <time>2018-11-13T22:23:30Z</time>
      </trkpt>
      <trkpt lat="50.63514" lon="5.3958">
        <ele>165</ele>
        <time>2018-11-13T22:24:30Z</time>
      </trkpt>
      <trkpt lat="50.63514" lon="5.39601">
        <ele>165</ele>
        <time>2018-11-13T22:25:30Z</time>
      </trkpt>
      <trkpt lat="50.63506" lon="5.3961">
        <ele>166</ele>
        <time>2018-11-13T22:26:30Z</time>
      </trkpt>
      <trkpt lat="50.63474" lon="5.39578">
        <ele>165</ele>
        <time>2018-11-13T22:27:30Z</time>
      </trkpt>
      <trkpt lat="50.63448" lon="5.39535">
        <ele>164</ele>
        <time>2018-11-13T22:28:30Z</time>
      </trkpt>
      <trkpt lat="50.63417" lon="5.39471">
        <ele>162</ele>
        <time>2018-11-13T22:29:30Z</time>
      </trkpt>
      <trkpt lat="50.63381" lon="5.39418">
        <ele>164</ele>
        <time>2018-11-13T22:30:30Z</time>
      </trkpt>
      <trkpt lat="50.63345" lon="5.39387">
        <ele>165</ele>
        <time>2018-11-13T22:31:30Z</time>
      </trkpt>
      <trkpt lat="50.63308" lon="5.39372">
        <ele>166</ele>
        <time>2018-11-13T22:32:30Z</time>
      </trkpt>
      <trkpt lat="50.63277" lon="5.39372">
        <ele>168</ele>
        <time>2018-11-13T22:33:30Z</time>
      </trkpt>
      <trkpt lat="50.63202" lon="5.39395">
        <ele>168</ele>
        <time>2018-11-13T22:34:30Z</time>
      </trkpt>
      <trkpt lat="50.63176" lon="5.39406">
        <ele>168</ele>
        <time>2018-11-13T22:35:30Z</time>
      </trkpt>
      <trkpt lat="50.63076" lon="5.39446">
        <ele>167</ele>
        <time>2018-11-13T22:36:30Z</time>
      </trkpt>
      <trkpt lat="50.62922" lon="5.39503">
        <ele>164</ele>
        <time>2018-11-13T22:37:30Z</time>
      </trkpt>
      <trkpt lat="50.62779" lon="5.39553">
        <ele>155</ele>
        <time>2018-11-13T22:38:30Z</time>
      </trkpt>
      <trkpt lat="50.62651" lon="5.39598">
        <ele>148</ele>
        <time>2018-11-13T22:39:30Z</time>
      </trkpt>
      <trkpt lat="50.6263" lon="5.39604">
        <ele>146</ele>
        <time>2018-11-13T22:40:30Z</time>
      </trkpt>
      <trkpt lat="50.62523" lon="5.39605">
        <ele>143</ele>
        <time>2018-11-13T22:41:30Z</time>
      </trkpt>
      <trkpt lat="50.62389" lon="5.39607">
        <ele>139</ele>
        <time>2018-11-13T22:42:30Z</time>
      </trkpt>
      <trkpt lat="50.62248" lon="5.39611">
        <ele>134</ele>
        <time>2018-11-13T22:43:30Z</time>
      </trkpt>
      <trkpt lat="50.62166" lon="5.39613">
        <ele>136</ele>
        <time>2018-11-13T22:44:30Z</time>
      </trkpt>
      <trkpt lat="50.62136" lon="5.39593">
        <ele>139</ele>
        <time>2018-11-13T22:45:30Z</time>
      </trkpt>
      <trkpt lat="50.62037" lon="5.3951">
        <ele>137</ele>
        <time>2018-11-13T22:46:30Z</time>
      </trkpt>
      <trkpt lat="50.61915" lon="5.39405">
        <ele>139</ele>
        <time>2018-11-13T22:47:30Z</time>
      </trkpt>
      <trkpt lat="50.61893" lon="5.39376">
        <ele>138</ele>
        <time>2018-11-13T22:48:30Z</time>
      </trkpt>
      <trkpt lat="50.6179" lon="5.39224">
        <ele>133</ele>
        <time>2018-11-13T22:49:30Z</time>
      </trkpt>
      <trkpt lat="50.61705" lon="5.39107">
        <ele>130</ele>
        <time>2018-11-13T22:50:30Z</time>
      </trkpt>
      <trkpt lat="50.61664" lon="5.39072">
        <ele>130</ele>
        <time>2018-11-13T22:51:30Z</time>
      </trkpt>
      <trkpt lat="50.61577" lon="5.39002">
        <ele>123</ele>
        <time>2018-11-13T22:52:30Z</time>
      </trkpt>
      <trkpt lat="50.61517" lon="5.38954">
        <ele>124</ele>
        <time>2018-11-13T22:53:30Z</time>
      </trkpt>
      <trkpt lat="50.61476" lon="5.38933">
        <ele>121</ele>
        <time>2018-11-13T22:54:30Z</time>
      </trkpt>
      <trkpt lat="50.61452" lon="5.38928">
        <ele>118</ele>
        <time>2018-11-13T22:55:30Z</time>
      </trkpt>
      <trkpt lat="50.61432" lon="5.38939">
        <ele>118</ele>
        <time>2018-11-13T22:56:30Z</time>
      </trkpt>
      <trkpt lat="50.61401" lon="5.3896">
        <ele>117</ele>
        <time>2018-11-13T22:57:30Z</time>
      </trkpt>
      <trkpt lat="50.61355" lon="5.39008">
        <ele>115</ele>
        <time>2018-11-13T22:58:30Z</time>
      </trkpt>
      <trkpt lat="50.61272" lon="5.39113">
        <ele>112</ele>
        <time>2018-11-13T22:59:30Z</time>
      </trkpt>
      <trkpt lat="50.6122" lon="5.39171">
        <ele>110</ele>
        <time>2018-11-13T23:00:30Z</time>
      </trkpt>
      <trkpt lat="50.61198" lon="5.39185">
        <ele>111</ele>
        <time>2018-11-13T23:01:30Z</time>
      </trkpt>
      <trkpt lat="50.61167" lon="5.39196">
        <ele>111</ele>
        <time>2018-11-13T23:02:30Z</time>
      </trkpt>
      <trkpt lat="50.61124" lon="5.39205">
        <ele>111</ele>
        <time>2018-11-13T23:03:30Z</time>
      </trkpt>
      <trkpt lat="50.61019" lon="5.39222">
        <ele>110</ele>
        <time>2018-11-13T23:04:30Z</time>
      </trkpt>
      <trkpt lat="50.60991" lon="5.39235">
        <ele>110</ele>
        <time>2018-11-13T23:05:30Z</time>
      </trkpt>
      <trkpt lat="50.60959" lon="5.39261">
        <ele>110</ele>
        <time>2018-11-13T23:06:30Z</time>
      </trkpt>
      <trkpt lat="50.60926" lon="5.39299">
        <ele>109</ele>
        <time>2018-11-13T23:07:30Z</time>
      </trkpt>
      <trkpt lat="50.60889" lon="5.39349">
        <ele>113</ele>
        <time>2018-11-13T23:08:30Z</time>
      </trkpt>
      <trkpt lat="50.60866" lon="5.39387">
        <ele>116</ele>
        <time>2018-11-13T23:09:30Z</time>
      </trkpt>
      <trkpt lat="50.60846" lon="5.39431">
        <ele>115</ele>
        <time>2018-11-13T23:10:30Z</time>
      </trkpt>
      <trkpt lat="50.60809" lon="5.39561">
        <ele>109</ele>
        <time>2018-11-13T23:11:30Z</time>
      </trkpt>
      <trkpt lat="50.60754" lon="5.39734">
        <ele>109</ele>
        <time>2018-11-13T23:12:30Z</time>
      </trkpt>
      <trkpt lat="50.60689" lon="5.3994">
        <ele>102</ele>
        <time>2018-11-13T23:13:30Z</time>
      </trkpt>
      <trkpt lat="50.60644" lon="5.40056">
        <ele>100</ele>
        <time>2018-11-13T23:14:30Z</time>
      </trkpt>
      <trkpt lat="50.60628" lon="5.40088">
        <ele>99</ele>
        <time>2018-11-13T23:15:30Z</time>
      </trkpt>
      <trkpt lat="50.60611" lon="5.40116">
        <ele>99</ele>
        <time>2018-11-13T23:16:30Z</time>
      </trkpt>
      <trkpt lat="50.60497" lon="5.40248">
        <ele>95</ele>
        <time>2018-11-13T23:17:30Z</time>
      </trkpt>
      <trkpt lat="50.60474" lon="5.40272">
        <ele>95</ele>
        <time>2018-11-13T23:18:30Z</time>
      </trkpt>
      <trkpt lat="50.60406" lon="5.40318">
        <ele>96</ele>
        <time>2018-11-13T23:19:30Z</time>
      </trkpt>
      <trkpt lat="50.60284" lon="5.4038">
        <ele>97</ele>
        <time>2018-11-13T23:20:30Z</time>
      </trkpt>
      <trkpt lat="50.60247" lon="5.40399">
        <ele>96</ele>
        <time>2018-11-13T23:21:30Z</time>
      </trkpt>
      <trkpt lat="50.60206" lon="5.40421">
        <ele>94</ele>
        <time>2018-11-13T23:22:30Z</time>
      </trkpt>
      <trkpt lat="50.6015" lon="5.40458">
        <ele>93</ele>
        <time>2018-11-13T23:23:30Z</time>
      </trkpt>
      <trkpt lat="50.60066" lon="5.40506">
        <ele>90</ele>
        <time>2018-11-13T23:24:30Z</time>
      </trkpt>
      <trkpt lat="50.60018" lon="5.40534">
        <ele>89</ele>
        <time>2018-11-13T23:25:30Z</time>
      </trkpt>
      <trkpt lat="50.60005" lon="5.40553">
        <ele>89</ele>
        <time>2018-11-13T23:26:30Z</time>
      </trkpt>
      <trkpt lat="50.59994" lon="5.40581">
        <ele>88</ele>
        <time>2018-11-13T23:27:30Z</time>
      </trkpt>
      <trkpt lat="50.59924" lon="5.40818">
        <ele>88</ele>
        <time>2018-11-13T23:28:30Z</time>
      </trkpt>
      <trkpt lat="50.59891" lon="5.4093">
        <ele>90</ele>
        <time>2018-11-13T23:29:30Z</time>
      </trkpt>
      <trkpt lat="50.59878" lon="5.40977">
        <ele>89</ele>
        <time>2018-11-13T23:30:30Z</time>
      </trkpt>
      <trkpt lat="50.59868" lon="5.41009">
        <ele>88</ele>
        <time>2018-11-13T23:31:30Z</time>
      </trkpt>
      <trkpt lat="50.59848" lon="5.41045">
        <ele>88</ele>
        <time>2018-11-13T23:32:30Z</time>
      </trkpt>
      <trkpt lat="50.5982" lon="5.41082">
        <ele>87</ele>
        <time>2018-11-13T23:33:30Z</time>
      </trkpt>
      <trkpt lat="50.59798" lon="5.41101">
        <ele>87</ele>
        <time>2018-11-13T23:34:30Z</time>
      </trkpt>
      <trkpt lat="50.59781" lon="5.41108">
        <ele>87</ele>
        <time>2018-11-13T23:35:30Z</time>
      </trkpt>
      <trkpt lat="50.59661" lon="5.41113">
        <ele>85</ele>
        <time>2018-11-13T23:36:30Z</time>
      </trkpt>
      <trkpt lat="50.59509" lon="5.41082">
        <ele>81</ele>
        <time>2018-11-13T23:37:30Z</time>
      </trkpt>
      <trkpt lat="50.59418" lon="5.41095">
        <ele>83</ele>
        <time>2018-11-13T23:38:30Z</time>
      </trkpt>
      <trkpt lat="50.59284" lon="5.41122">
        <ele>88</ele>
        <time>2018-11-13T23:39:30Z</time>
      </trkpt>
      <trkpt lat="50.59244" lon="5.41139">
        <ele>90</ele>
        <time>2018-11-13T23:40:30Z</time>
      </trkpt>
      <trkpt lat="50.59221" lon="5.41148">
        <ele>87</ele>
        <time>2018-11-13T23:41:30Z</time>
      </trkpt>
      <trkpt lat="50.59206" lon="5.41149">
        <ele>86</ele>
        <time>2018-11-13T23:42:30Z</time>
      </trkpt>
      <trkpt lat="50.59158" lon="5.41134">
        <ele>84</ele>
        <time>2018-11-13T23:43:30Z</time>
      </trkpt>
      <trkpt lat="50.59094" lon="5.4111">
        <ele>83</ele>
        <time>2018-11-13T23:44:30Z</time>
      </trkpt>
      <trkpt lat="50.59039" lon="5.41086">
        <ele>79</ele>
        <time>2018-11-13T23:45:30Z</time>
      </trkpt>
      <trkpt lat="50.59018" lon="5.41084">
        <ele>77</ele>
        <time>2018-11-13T23:46:30Z</time>
      </trkpt>
      <trkpt lat="50.58997" lon="5.41088">
        <ele>76</ele>
        <time>2018-11-13T23:47:30Z</time>
      </trkpt>
      <trkpt lat="50.58978" lon="5.41104">
        <ele>76</ele>
        <time>2018-11-13T23:48:30Z</time>
      </trkpt>
      <trkpt lat="50.5896" lon="5.41135">
        <ele>77</ele>
        <time>2018-11-13T23:49:30Z</time>
      </trkpt>
      <trkpt lat="50.58904" lon="5.41286">
        <ele>73</ele>
        <time>2018-11-13T23:50:30Z</time>
      </trkpt>
      <trkpt lat="50.58882" lon="5.41335">
        <ele>71</ele>
        <time>2018-11-13T23:51:30Z</time>
      </trkpt>
      <trkpt lat="50.58866" lon="5.41356">
        <ele>71</ele>
        <time>2018-11-13T23:52:30Z</time>
      </trkpt>
      <trkpt lat="50.58821" lon="5.41396">
        <ele>68</ele>
        <time>2018-11-13T23:53:30Z</time>
      </trkpt>
      <trkpt lat="50.58798" lon="5.41424">
        <ele>68</ele>
        <time>2018-11-13T23:54:30Z</time>
      </trkpt>
      <trkpt lat="50.58773" lon="5.41459">
        <ele>70</ele>
        <time>2018-11-13T23:55:30Z</time>
      </trkpt>
      <trkpt lat="50.58723" lon="5.41525">
        <ele>71</ele>
        <time>2018-11-13T23:56:30Z</time>
      </trkpt>
      <trkpt lat="50.58704" lon="5.41542">
        <ele>70</ele>
        <time>2018-11-13T23:57:30Z</time>
      </trkpt>
      <trkpt lat="50.58678" lon="5.41551">
        <ele>68</ele>
        <time>2018-11-13T23:58:30Z</time>
      </trkpt>
      <trkpt lat="50.58612" lon="5.41578">
        <ele>68</ele>
        <time>2018-11-13T23:59:30Z</time>
      </trkpt>
      <trkpt lat="50.58609" lon="5.41748">
        <ele>65</ele>
        <time>2018-11-14T00:00:30Z</time>
      </trkpt>
      <trkpt lat="50.58617" lon="5.41834">
        <ele>66</ele>
        <time>2018-11-14T00:01:30Z</time>
      </trkpt>
      <trkpt lat="50.58638" lon="5.42046">
        <ele>65</ele>
        <time>2018-11-14T00:02:30Z</time>
      </trkpt>
      <trkpt lat="50.58663" lon="5.42278">
        <ele>64</ele>
        <time>2018-11-14T00:03:30Z</time>
      </trkpt>
      <trkpt lat="50.5867" lon="5.42345">
        <ele>65</ele>
        <time>2018-11-14T00:04:30Z</time>
      </trkpt>
      <trkpt lat="50.5869" lon="5.42547">
        <ele>64</ele>
        <time>2018-11-14T00:05:30Z</time>
      </trkpt>
      <trkpt lat="50.58703" lon="5.42622">
        <ele>63</ele>
        <time>2018-11-14T00:06:30Z</time>
      </trkpt>
      <trkpt lat="50.5874" lon="5.42775">
        <ele>64</ele>
        <time>2018-11-14T00:07:30Z</time>
      </trkpt>
      <trkpt lat="50.58798" lon="5.43007">
        <ele>65</ele>
        <time>2018-11-14T00:08:30Z</time>
      </trkpt>
      <trkpt lat="50.58867" lon="5.43278">
        <ele>73</ele>
        <time>2018-11-14T00:09:30Z</time>
      </trkpt>
      <trkpt lat="50.58883" lon="5.43418">
        <ele>71</ele>
        <time>2018-11-14T00:10:30Z</time>
      </trkpt>
      <trkpt lat="50.58899" lon="5.43651">
        <ele>69</ele>
        <time>2018-11-14T00:11:30Z</time>
      </trkpt>
      <trkpt lat="50.58927" lon="5.43863">
        <ele>66</ele>
        <time>2018-11-14T00:12:30Z</time>
      </trkpt>
      <trkpt lat="50.58968" lon="5.44158">
        <ele>70</ele>
        <time>2018-11-14T00:13:30Z</time>
      </trkpt>
      <trkpt lat="50.58988" lon="5.44286">
        <ele>71</ele>
        <time>2018-11-14T00:14:30Z</time>
      </trkpt>
      <trkpt lat="50.59009" lon="5.44404">
        <ele>68</ele>
        <time>2018-11-14T00:15:30Z</time>
      </trkpt>
      <trkpt lat="50.59043" lon="5.44563">
        <ele>67</ele>
        <time>2018-11-14T00:16:30Z</time>
      </trkpt>
      <trkpt lat="50.59063" lon="5.4462">
        <ele>67</ele>
        <time>2018-11-14T00:17:30Z</time>
      </trkpt>
      <trkpt lat="50.59118" lon="5.44739">
        <ele>65</ele>
        <time>2018-11-14T00:18:30Z</time>
      </trkpt>
      <trkpt lat="50.59151" lon="5.44806">
        <ele>64</ele>
        <time>2018-11-14T00:19:30Z</time>
      </trkpt>
      <trkpt lat="50.59172" lon="5.44854">
        <ele>64</ele>
        <time>2018-11-14T00:20:30Z</time>
      </trkpt>
      <trkpt lat="50.59184" lon="5.44897">
        <ele>65</ele>
        <time>2018-11-14T00:21:30Z</time>
      </trkpt>
      <trkpt lat="50.5922" lon="5.45091">
        <ele>66</ele>
        <time>2018-11-14T00:22:30Z</time>
      </trkpt>
      <trkpt lat="50.59239" lon="5.45217">
        <ele>65</ele>
        <time>2018-11-14T00:23:30Z</time>
      </trkpt>
      <trkpt lat="50.59241" lon="5.45249">
        <ele>64</ele>
        <time>2018-11-14T00:24:30Z</time>
      </trkpt>
      <trkpt lat="50.5924" lon="5.45289">
        <ele>64</ele>
        <time>2018-11-14T00:25:30Z</time>
      </trkpt>
      <trkpt lat="50.59237" lon="5.45346">
        <ele>64</ele>
        <time>2018-11-14T00:26:30Z</time>
      </trkpt>
      <trkpt lat="50.59236" lon="5.45389">
        <ele>66</ele>
        <time>2018-11-14T00:27:30Z</time>
      </trkpt>
      <trkpt lat="50.59265" lon="5.45397">
        <ele>66</ele>
        <time>2018-11-14T00:28:30Z</time>
      </trkpt>
      <trkpt lat="50.59272" lon="5.45405">
        <ele>67</ele>
        <time>2018-11-14T00:29:30Z</time>
      </trkpt>
      <trkpt lat="50.59283" lon="5.45432">
        <ele>67</ele>
        <time>2018-11-14T00:30:30Z</time>
      </trkpt>
      <trkpt lat="50.59308" lon="5.45487">
        <ele>66</ele>
        <time>2018-11-14T00:31:30Z</time>
      </trkpt>
      <trkpt lat="50.59349" lon="5.45554">
        <ele>67</ele>
        <time>2018-11-14T00:32:30Z</time>
      </trkpt>
      <trkpt lat="50.59378" lon="5.45611">
        <ele>68</ele>
        <time>2018-11-14T00:33:30Z</time>
      </trkpt>
      <trkpt lat="50.59404" lon="5.45685">
        <ele>67</ele>
        <time>2018-11-14T00:34:30Z</time>
      </trkpt>
      <trkpt lat="50.5951" lon="5.45953">
        <ele>68</ele>
        <time>2018-11-14T00:35:30Z</time>
      </trkpt>
      <trkpt lat="50.59575" lon="5.46116">
        <ele>68</ele>
        <time>2018-11-14T00:36:30Z</time>
      </trkpt>
      <trkpt lat="50.59633" lon="5.46274">
        <ele>67</ele>
        <time>2018-11-14T00:37:30Z</time>
      </trkpt>
      <trkpt lat="50.59709" lon="5.46469">
        <ele>67</ele>
        <time>2018-11-14T00:38:30Z</time>
      </trkpt>
      <trkpt lat="50.59758" lon="5.46595">
        <ele>68</ele>
        <time>2018-11-14T00:39:30Z</time>
      </trkpt>
      <trkpt lat="50.59786" lon="5.46645">
        <ele>67</ele>
        <time>2018-11-14T00:40:30Z</time>
      </trkpt>
      <trkpt lat="50.59806" lon="5.46686">
        <ele>67</ele>
        <time>2018-11-14T00:41:30Z</time>
      </trkpt>
      <trkpt lat="50.59839" lon="5.46766">
        <ele>68</ele>
        <time>2018-11-14T00:42:30Z</time>
      </trkpt>
      <trkpt lat="50.5985" lon="5.46802">
        <ele>68</ele>
        <time>2018-11-14T00:43:30Z</time>
      </trkpt>
      <trkpt lat="50.59876" lon="5.46903">
        <ele>67</ele>
        <time>2018-11-14T00:44:30Z</time>
      </trkpt>
      <trkpt lat="50.59894" lon="5.47018">
        <ele>65</ele>
        <time>2018-11-14T00:45:30Z</time>
      </trkpt>
      <trkpt lat="50.59918" lon="5.47162">
        <ele>64</ele>
        <time>2018-11-14T00:46:30Z</time>
      </trkpt>
      <trkpt lat="50.59927" lon="5.472">
        <ele>64</ele>
        <time>2018-11-14T00:47:30Z</time>
      </trkpt>
      <trkpt lat="50.59947" lon="5.47267">
        <ele>65</ele>
        <time>2018-11-14T00:48:30Z</time>
      </trkpt>
      <trkpt lat="50.60026" lon="5.47406">
        <ele>66</ele>
        <time>2018-11-14T00:49:30Z</time>
      </trkpt>
      <trkpt lat="50.60112" lon="5.47558">
        <ele>67</ele>
        <time>2018-11-14T00:50:30Z</time>
      </trkpt>
      <trkpt lat="50.60147" lon="5.4762">
        <ele>66</ele>
        <time>2018-11-14T00:51:30Z</time>
      </trkpt>
      <trkpt lat="50.60183" lon="5.47687">
        <ele>65</ele>
        <time>2018-11-14T00:52:30Z</time>
      </trkpt>
      <trkpt lat="50.60259" lon="5.47821">
        <ele>65</ele>
        <time>2018-11-14T00:53:30Z</time>
      </trkpt>
      <trkpt lat="50.603" lon="5.4789">
        <ele>67</ele>
        <time>2018-11-14T00:54:30Z</time>
      </trkpt>
      <trkpt lat="50.60359" lon="5.47993">
        <ele>67</ele>
        <time>2018-11-14T00:55:30Z</time>
      </trkpt>
      <trkpt lat="50.60382" lon="5.48042">
        <ele>67</ele>
        <time>2018-11-14T00:56:30Z</time>
      </trkpt>
      <trkpt lat="50.60442" lon="5.48191">
        <ele>68</ele>
        <time>2018-11-14T00:57:30Z</time>
      </trkpt>
      <trkpt lat="50.6047" lon="5.48285">
        <ele>68</ele>
        <time>2018-11-14T00:58:30Z</time>
      </trkpt>
      <trkpt lat="50.6049" lon="5.48361">
        <ele>67</ele>
        <time>2018-11-14T00:59:30Z</time>
      </trkpt>
      <trkpt lat="50.60487" lon="5.48378">
        <ele>67</ele>
        <time>2018-11-14T01:00:30Z</time>
      </trkpt>
      <trkpt lat="50.60486" lon="5.48394">
        <ele>67</ele>
        <time>2018-11-14T01:01:30Z</time>
      </trkpt>
      <trkpt lat="50.60459" lon="5.48427">
        <ele>66</ele>
        <time>2018-11-14T01:02:30Z</time>
      </trkpt>
      <trkpt lat="50.60422" lon="5.48471">
        <ele>64</ele>
        <time>2018-11-14T01:03:30Z</time>
      </trkpt>
      <trkpt lat="50.60406" lon="5.48444">
        <ele>65</ele>
        <time>2018-11-14T01:04:30Z</time>
      </trkpt>
      <trkpt lat="50.60419" lon="5.48424">
        <ele>65</ele>
        <time>2018-11-14T01:05:30Z</time>
      </trkpt>
    </trkseg>
  </trk>
</gpx>